<?xml version="1.0" encoding="UTF-8" standalone="no" ?>
<gpx xmlns="http://www.topografix.com/GPX/1/1" xmlns:xsi="http://www.w3.org/2001/XMLSchema-instance" xsi:schemaLocation="http://www.topografix.com/GPX/1/1 http://www.topografix.com/GPX/1/1/gpx.xsd" version="1.1" creator="VisuGPX - https://www.visugpx.com">
  <metadata>
    <name>Grande Étoile par La Parade</name>
    <desc><![CDATA[Piste DFCI sur presque toute la montée. Descente un peu caillouteuse, mais praticable prudemment.]]></desc>
  </metadata>
  <trk>
    <name><![CDATA[2019-05-01 16:12:32]]></name>
    <trkseg>
      <trkpt lat="43.36379" lon="5.44094">
        <ele>252.96</ele>
        <time>2019-05-01T09:01:21Z</time>
      </trkpt>
      <trkpt lat="43.3638" lon="5.44095">
        <ele>254.41</ele>
        <time>2019-05-01T09:01:55Z</time>
      </trkpt>
      <trkpt lat="43.36379" lon="5.4409">
        <ele>255.37</ele>
        <time>2019-05-01T09:02:21Z</time>
      </trkpt>
      <trkpt lat="43.36381" lon="5.44097">
        <ele>253.93</ele>
        <time>2019-05-01T09:02:42Z</time>
      </trkpt>
      <trkpt lat="43.36378" lon="5.44098">
        <ele>253.93</ele>
        <time>2019-05-01T09:03:08Z</time>
      </trkpt>
      <trkpt lat="43.36379" lon="5.44096">
        <ele>252.96</ele>
        <time>2019-05-01T09:03:22Z</time>
      </trkpt>
      <trkpt lat="43.36379" lon="5.44096">
        <ele>253.93</ele>
        <time>2019-05-01T09:03:42Z</time>
      </trkpt>
      <trkpt lat="43.36379" lon="5.44093">
        <ele>252.96</ele>
        <time>2019-05-01T09:03:56Z</time>
      </trkpt>
      <trkpt lat="43.36379" lon="5.44091">
        <ele>252</ele>
        <time>2019-05-01T09:04:02Z</time>
      </trkpt>
      <trkpt lat="43.36383" lon="5.4409">
        <ele>251.04</ele>
        <time>2019-05-01T09:04:06Z</time>
      </trkpt>
      <trkpt lat="43.36399" lon="5.44103">
        <ele>252</ele>
        <time>2019-05-01T09:04:25Z</time>
      </trkpt>
      <trkpt lat="43.36405" lon="5.44107">
        <ele>252.48</ele>
        <time>2019-05-01T09:04:31Z</time>
      </trkpt>
      <trkpt lat="43.36415" lon="5.44114">
        <ele>250.56</ele>
        <time>2019-05-01T09:04:43Z</time>
      </trkpt>
      <trkpt lat="43.3642" lon="5.44119">
        <ele>251.04</ele>
        <time>2019-05-01T09:04:50Z</time>
      </trkpt>
      <trkpt lat="43.36432" lon="5.44128">
        <ele>250.56</ele>
        <time>2019-05-01T09:05:03Z</time>
      </trkpt>
      <trkpt lat="43.36443" lon="5.44138">
        <ele>251.52</ele>
        <time>2019-05-01T09:05:16Z</time>
      </trkpt>
      <trkpt lat="43.36445" lon="5.44141">
        <ele>252.48</ele>
        <time>2019-05-01T09:05:19Z</time>
      </trkpt>
      <trkpt lat="43.36447" lon="5.44142">
        <ele>252.48</ele>
        <time>2019-05-01T09:05:21Z</time>
      </trkpt>
      <trkpt lat="43.36455" lon="5.44149">
        <ele>253.93</ele>
        <time>2019-05-01T09:05:30Z</time>
      </trkpt>
      <trkpt lat="43.3647" lon="5.44159">
        <ele>255.85</ele>
        <time>2019-05-01T09:05:46Z</time>
      </trkpt>
      <trkpt lat="43.36488" lon="5.4415">
        <ele>256.33</ele>
        <time>2019-05-01T09:06:01Z</time>
      </trkpt>
      <trkpt lat="43.36501" lon="5.44134">
        <ele>258.73</ele>
        <time>2019-05-01T09:06:17Z</time>
      </trkpt>
      <trkpt lat="43.36513" lon="5.44116">
        <ele>258.25</ele>
        <time>2019-05-01T09:06:33Z</time>
      </trkpt>
      <trkpt lat="43.36528" lon="5.44097">
        <ele>258.73</ele>
        <time>2019-05-01T09:06:51Z</time>
      </trkpt>
      <trkpt lat="43.36532" lon="5.44091">
        <ele>258.73</ele>
        <time>2019-05-01T09:06:56Z</time>
      </trkpt>
      <trkpt lat="43.36545" lon="5.44072">
        <ele>259.21</ele>
        <time>2019-05-01T09:07:13Z</time>
      </trkpt>
      <trkpt lat="43.36555" lon="5.44056">
        <ele>260.17</ele>
        <time>2019-05-01T09:07:27Z</time>
      </trkpt>
      <trkpt lat="43.36569" lon="5.4404">
        <ele>259.69</ele>
        <time>2019-05-01T09:07:43Z</time>
      </trkpt>
      <trkpt lat="43.3658" lon="5.44028">
        <ele>258.73</ele>
        <time>2019-05-01T09:07:56Z</time>
      </trkpt>
      <trkpt lat="43.36586" lon="5.44026">
        <ele>257.77</ele>
        <time>2019-05-01T09:08:03Z</time>
      </trkpt>
      <trkpt lat="43.36594" lon="5.44011">
        <ele>257.77</ele>
        <time>2019-05-01T09:08:18Z</time>
      </trkpt>
      <trkpt lat="43.36602" lon="5.43999">
        <ele>255.37</ele>
        <time>2019-05-01T09:08:30Z</time>
      </trkpt>
      <trkpt lat="43.36605" lon="5.43993">
        <ele>253.44</ele>
        <time>2019-05-01T09:08:36Z</time>
      </trkpt>
      <trkpt lat="43.36605" lon="5.43986">
        <ele>253.44</ele>
        <time>2019-05-01T09:08:40Z</time>
      </trkpt>
      <trkpt lat="43.36601" lon="5.43967">
        <ele>251.04</ele>
        <time>2019-05-01T09:08:54Z</time>
      </trkpt>
      <trkpt lat="43.36596" lon="5.43952">
        <ele>250.08</ele>
        <time>2019-05-01T09:09:06Z</time>
      </trkpt>
      <trkpt lat="43.36595" lon="5.43941">
        <ele>250.08</ele>
        <time>2019-05-01T09:09:15Z</time>
      </trkpt>
      <trkpt lat="43.36596" lon="5.43918">
        <ele>249.12</ele>
        <time>2019-05-01T09:09:30Z</time>
      </trkpt>
      <trkpt lat="43.36596" lon="5.43898">
        <ele>246.72</ele>
        <time>2019-05-01T09:09:44Z</time>
      </trkpt>
      <trkpt lat="43.36596" lon="5.43889">
        <ele>248.16</ele>
        <time>2019-05-01T09:09:50Z</time>
      </trkpt>
      <trkpt lat="43.36596" lon="5.43885">
        <ele>248.64</ele>
        <time>2019-05-01T09:09:53Z</time>
      </trkpt>
      <trkpt lat="43.36595" lon="5.43864">
        <ele>246.23</ele>
        <time>2019-05-01T09:10:08Z</time>
      </trkpt>
      <trkpt lat="43.36596" lon="5.43851">
        <ele>245.75</ele>
        <time>2019-05-01T09:10:24Z</time>
      </trkpt>
      <trkpt lat="43.36595" lon="5.43834">
        <ele>246.23</ele>
        <time>2019-05-01T09:10:36Z</time>
      </trkpt>
      <trkpt lat="43.36589" lon="5.43812">
        <ele>246.72</ele>
        <time>2019-05-01T09:10:51Z</time>
      </trkpt>
      <trkpt lat="43.36584" lon="5.43789">
        <ele>246.23</ele>
        <time>2019-05-01T09:11:07Z</time>
      </trkpt>
      <trkpt lat="43.36581" lon="5.43779">
        <ele>246.72</ele>
        <time>2019-05-01T09:11:16Z</time>
      </trkpt>
      <trkpt lat="43.36576" lon="5.43771">
        <ele>246.72</ele>
        <time>2019-05-01T09:11:23Z</time>
      </trkpt>
      <trkpt lat="43.36572" lon="5.43763">
        <ele>246.72</ele>
        <time>2019-05-01T09:11:30Z</time>
      </trkpt>
      <trkpt lat="43.36563" lon="5.43742">
        <ele>247.68</ele>
        <time>2019-05-01T09:11:46Z</time>
      </trkpt>
      <trkpt lat="43.36563" lon="5.43734">
        <ele>248.64</ele>
        <time>2019-05-01T09:11:57Z</time>
      </trkpt>
      <trkpt lat="43.36566" lon="5.43734">
        <ele>247.2</ele>
        <time>2019-05-01T09:12:08Z</time>
      </trkpt>
      <trkpt lat="43.36567" lon="5.43732">
        <ele>248.64</ele>
        <time>2019-05-01T09:12:21Z</time>
      </trkpt>
      <trkpt lat="43.36575" lon="5.43737">
        <ele>249.6</ele>
        <time>2019-05-01T09:12:43Z</time>
      </trkpt>
      <trkpt lat="43.36581" lon="5.4375">
        <ele>252</ele>
        <time>2019-05-01T09:12:56Z</time>
      </trkpt>
      <trkpt lat="43.36586" lon="5.43755">
        <ele>253.93</ele>
        <time>2019-05-01T09:13:07Z</time>
      </trkpt>
      <trkpt lat="43.36596" lon="5.43757">
        <ele>252</ele>
        <time>2019-05-01T09:13:18Z</time>
      </trkpt>
      <trkpt lat="43.36608" lon="5.4375">
        <ele>252.48</ele>
        <time>2019-05-01T09:13:32Z</time>
      </trkpt>
      <trkpt lat="43.36618" lon="5.43746">
        <ele>256.33</ele>
        <time>2019-05-01T09:13:44Z</time>
      </trkpt>
      <trkpt lat="43.36626" lon="5.43746">
        <ele>256.81</ele>
        <time>2019-05-01T09:13:59Z</time>
      </trkpt>
      <trkpt lat="43.3663" lon="5.43746">
        <ele>259.21</ele>
        <time>2019-05-01T09:14:12Z</time>
      </trkpt>
      <trkpt lat="43.36629" lon="5.43744">
        <ele>260.17</ele>
        <time>2019-05-01T09:14:26Z</time>
      </trkpt>
      <trkpt lat="43.36639" lon="5.43746">
        <ele>260.65</ele>
        <time>2019-05-01T09:14:41Z</time>
      </trkpt>
      <trkpt lat="43.36643" lon="5.43746">
        <ele>261.62</ele>
        <time>2019-05-01T09:15:08Z</time>
      </trkpt>
      <trkpt lat="43.36648" lon="5.43747">
        <ele>261.14</ele>
        <time>2019-05-01T09:15:14Z</time>
      </trkpt>
      <trkpt lat="43.36659" lon="5.43742">
        <ele>263.54</ele>
        <time>2019-05-01T09:15:27Z</time>
      </trkpt>
      <trkpt lat="43.3666" lon="5.43742">
        <ele>263.54</ele>
        <time>2019-05-01T09:15:28Z</time>
      </trkpt>
      <trkpt lat="43.36674" lon="5.43734">
        <ele>264.98</ele>
        <time>2019-05-01T09:15:43Z</time>
      </trkpt>
      <trkpt lat="43.36685" lon="5.4373">
        <ele>265.46</ele>
        <time>2019-05-01T09:15:56Z</time>
      </trkpt>
      <trkpt lat="43.36697" lon="5.43727">
        <ele>266.9</ele>
        <time>2019-05-01T09:16:10Z</time>
      </trkpt>
      <trkpt lat="43.36701" lon="5.43724">
        <ele>267.86</ele>
        <time>2019-05-01T09:16:14Z</time>
      </trkpt>
      <trkpt lat="43.36708" lon="5.43721">
        <ele>268.83</ele>
        <time>2019-05-01T09:16:27Z</time>
      </trkpt>
      <trkpt lat="43.36709" lon="5.4372">
        <ele>268.83</ele>
        <time>2019-05-01T09:16:28Z</time>
      </trkpt>
      <trkpt lat="43.36714" lon="5.43717">
        <ele>269.79</ele>
        <time>2019-05-01T09:16:34Z</time>
      </trkpt>
      <trkpt lat="43.36719" lon="5.43713">
        <ele>269.79</ele>
        <time>2019-05-01T09:16:41Z</time>
      </trkpt>
      <trkpt lat="43.36722" lon="5.43708">
        <ele>267.86</ele>
        <time>2019-05-01T09:16:48Z</time>
      </trkpt>
      <trkpt lat="43.36728" lon="5.43704">
        <ele>267.86</ele>
        <time>2019-05-01T09:16:55Z</time>
      </trkpt>
      <trkpt lat="43.36735" lon="5.437">
        <ele>270.27</ele>
        <time>2019-05-01T09:17:03Z</time>
      </trkpt>
      <trkpt lat="43.36737" lon="5.43698">
        <ele>271.23</ele>
        <time>2019-05-01T09:17:06Z</time>
      </trkpt>
      <trkpt lat="43.36748" lon="5.43693">
        <ele>272.19</ele>
        <time>2019-05-01T09:17:20Z</time>
      </trkpt>
      <trkpt lat="43.36757" lon="5.43685">
        <ele>273.15</ele>
        <time>2019-05-01T09:17:32Z</time>
      </trkpt>
      <trkpt lat="43.36766" lon="5.43679">
        <ele>273.63</ele>
        <time>2019-05-01T09:17:43Z</time>
      </trkpt>
      <trkpt lat="43.36775" lon="5.43673">
        <ele>274.59</ele>
        <time>2019-05-01T09:17:56Z</time>
      </trkpt>
      <trkpt lat="43.36786" lon="5.43666">
        <ele>275.56</ele>
        <time>2019-05-01T09:18:11Z</time>
      </trkpt>
      <trkpt lat="43.36794" lon="5.4366">
        <ele>277</ele>
        <time>2019-05-01T09:18:22Z</time>
      </trkpt>
      <trkpt lat="43.36804" lon="5.43654">
        <ele>278.92</ele>
        <time>2019-05-01T09:18:34Z</time>
      </trkpt>
      <trkpt lat="43.36814" lon="5.43649">
        <ele>279.4</ele>
        <time>2019-05-01T09:18:48Z</time>
      </trkpt>
      <trkpt lat="43.36822" lon="5.43645">
        <ele>279.4</ele>
        <time>2019-05-01T09:19:00Z</time>
      </trkpt>
      <trkpt lat="43.36836" lon="5.4364">
        <ele>280.36</ele>
        <time>2019-05-01T09:19:14Z</time>
      </trkpt>
      <trkpt lat="43.36846" lon="5.43635">
        <ele>281.8</ele>
        <time>2019-05-01T09:19:26Z</time>
      </trkpt>
      <trkpt lat="43.36848" lon="5.43635">
        <ele>282.28</ele>
        <time>2019-05-01T09:19:38Z</time>
      </trkpt>
      <trkpt lat="43.36856" lon="5.43632">
        <ele>283.73</ele>
        <time>2019-05-01T09:19:48Z</time>
      </trkpt>
      <trkpt lat="43.3686" lon="5.4363">
        <ele>283.73</ele>
        <time>2019-05-01T09:19:53Z</time>
      </trkpt>
      <trkpt lat="43.36867" lon="5.43627">
        <ele>284.69</ele>
        <time>2019-05-01T09:20:00Z</time>
      </trkpt>
      <trkpt lat="43.36879" lon="5.43616">
        <ele>287.57</ele>
        <time>2019-05-01T09:20:15Z</time>
      </trkpt>
      <trkpt lat="43.36886" lon="5.43609">
        <ele>288.05</ele>
        <time>2019-05-01T09:20:30Z</time>
      </trkpt>
      <trkpt lat="43.36889" lon="5.4361">
        <ele>288.05</ele>
        <time>2019-05-01T09:20:44Z</time>
      </trkpt>
      <trkpt lat="43.36889" lon="5.43611">
        <ele>288.05</ele>
        <time>2019-05-01T09:20:46Z</time>
      </trkpt>
      <trkpt lat="43.36888" lon="5.43612">
        <ele>288.53</ele>
        <time>2019-05-01T09:20:58Z</time>
      </trkpt>
      <trkpt lat="43.36889" lon="5.4361">
        <ele>289.97</ele>
        <time>2019-05-01T09:21:16Z</time>
      </trkpt>
      <trkpt lat="43.36889" lon="5.43609">
        <ele>289.97</ele>
        <time>2019-05-01T09:21:20Z</time>
      </trkpt>
      <trkpt lat="43.36897" lon="5.43599">
        <ele>290.46</ele>
        <time>2019-05-01T09:21:34Z</time>
      </trkpt>
      <trkpt lat="43.36902" lon="5.43594">
        <ele>290.46</ele>
        <time>2019-05-01T09:21:42Z</time>
      </trkpt>
      <trkpt lat="43.36906" lon="5.43585">
        <ele>291.42</ele>
        <time>2019-05-01T09:21:50Z</time>
      </trkpt>
      <trkpt lat="43.36908" lon="5.43582">
        <ele>291.9</ele>
        <time>2019-05-01T09:21:52Z</time>
      </trkpt>
      <trkpt lat="43.36913" lon="5.43574">
        <ele>293.34</ele>
        <time>2019-05-01T09:22:01Z</time>
      </trkpt>
      <trkpt lat="43.36924" lon="5.43556">
        <ele>294.3</ele>
        <time>2019-05-01T09:22:17Z</time>
      </trkpt>
      <trkpt lat="43.36926" lon="5.43543">
        <ele>294.3</ele>
        <time>2019-05-01T09:22:26Z</time>
      </trkpt>
      <trkpt lat="43.36926" lon="5.43541">
        <ele>294.3</ele>
        <time>2019-05-01T09:22:28Z</time>
      </trkpt>
      <trkpt lat="43.36927" lon="5.43533">
        <ele>294.78</ele>
        <time>2019-05-01T09:22:35Z</time>
      </trkpt>
      <trkpt lat="43.36927" lon="5.43526">
        <ele>295.26</ele>
        <time>2019-05-01T09:22:40Z</time>
      </trkpt>
      <trkpt lat="43.36929" lon="5.43509">
        <ele>295.74</ele>
        <time>2019-05-01T09:22:54Z</time>
      </trkpt>
      <trkpt lat="43.3693" lon="5.43494">
        <ele>296.7</ele>
        <time>2019-05-01T09:23:06Z</time>
      </trkpt>
      <trkpt lat="43.36935" lon="5.43481">
        <ele>297.18</ele>
        <time>2019-05-01T09:23:20Z</time>
      </trkpt>
      <trkpt lat="43.36937" lon="5.43476">
        <ele>297.67</ele>
        <time>2019-05-01T09:23:24Z</time>
      </trkpt>
      <trkpt lat="43.36939" lon="5.4347">
        <ele>299.59</ele>
        <time>2019-05-01T09:23:37Z</time>
      </trkpt>
      <trkpt lat="43.36941" lon="5.4347">
        <ele>299.11</ele>
        <time>2019-05-01T09:23:42Z</time>
      </trkpt>
      <trkpt lat="43.36943" lon="5.43467">
        <ele>299.59</ele>
        <time>2019-05-01T09:23:45Z</time>
      </trkpt>
      <trkpt lat="43.36943" lon="5.43465">
        <ele>299.59</ele>
        <time>2019-05-01T09:23:47Z</time>
      </trkpt>
      <trkpt lat="43.3695" lon="5.4345">
        <ele>300.07</ele>
        <time>2019-05-01T09:24:01Z</time>
      </trkpt>
      <trkpt lat="43.36951" lon="5.43448">
        <ele>300.55</ele>
        <time>2019-05-01T09:24:03Z</time>
      </trkpt>
      <trkpt lat="43.36954" lon="5.43447">
        <ele>301.03</ele>
        <time>2019-05-01T09:24:06Z</time>
      </trkpt>
      <trkpt lat="43.3696" lon="5.43439">
        <ele>301.51</ele>
        <time>2019-05-01T09:24:15Z</time>
      </trkpt>
      <trkpt lat="43.36969" lon="5.43431">
        <ele>302.47</ele>
        <time>2019-05-01T09:24:28Z</time>
      </trkpt>
      <trkpt lat="43.3698" lon="5.43422">
        <ele>302.95</ele>
        <time>2019-05-01T09:24:42Z</time>
      </trkpt>
      <trkpt lat="43.36982" lon="5.43421">
        <ele>302.95</ele>
        <time>2019-05-01T09:24:44Z</time>
      </trkpt>
      <trkpt lat="43.36984" lon="5.4342">
        <ele>302.95</ele>
        <time>2019-05-01T09:24:46Z</time>
      </trkpt>
      <trkpt lat="43.36993" lon="5.43415">
        <ele>302.47</ele>
        <time>2019-05-01T09:24:59Z</time>
      </trkpt>
      <trkpt lat="43.36997" lon="5.43415">
        <ele>302.95</ele>
        <time>2019-05-01T09:25:20Z</time>
      </trkpt>
      <trkpt lat="43.36998" lon="5.43415">
        <ele>302.47</ele>
        <time>2019-05-01T09:25:22Z</time>
      </trkpt>
      <trkpt lat="43.37005" lon="5.43414">
        <ele>303.43</ele>
        <time>2019-05-01T09:25:36Z</time>
      </trkpt>
      <trkpt lat="43.37005" lon="5.43412">
        <ele>303.43</ele>
        <time>2019-05-01T09:25:58Z</time>
      </trkpt>
      <trkpt lat="43.37006" lon="5.43411">
        <ele>303.91</ele>
        <time>2019-05-01T09:26:20Z</time>
      </trkpt>
      <trkpt lat="43.37016" lon="5.43412">
        <ele>302.95</ele>
        <time>2019-05-01T09:26:32Z</time>
      </trkpt>
      <trkpt lat="43.37021" lon="5.43413">
        <ele>302.95</ele>
        <time>2019-05-01T09:26:38Z</time>
      </trkpt>
      <trkpt lat="43.37035" lon="5.43414">
        <ele>301.03</ele>
        <time>2019-05-01T09:26:52Z</time>
      </trkpt>
      <trkpt lat="43.37046" lon="5.43413">
        <ele>300.55</ele>
        <time>2019-05-01T09:27:08Z</time>
      </trkpt>
      <trkpt lat="43.37057" lon="5.43412">
        <ele>299.59</ele>
        <time>2019-05-01T09:27:19Z</time>
      </trkpt>
      <trkpt lat="43.37067" lon="5.43408">
        <ele>299.11</ele>
        <time>2019-05-01T09:27:29Z</time>
      </trkpt>
      <trkpt lat="43.37073" lon="5.43404">
        <ele>297.18</ele>
        <time>2019-05-01T09:27:41Z</time>
      </trkpt>
      <trkpt lat="43.37076" lon="5.43401">
        <ele>297.18</ele>
        <time>2019-05-01T09:27:53Z</time>
      </trkpt>
      <trkpt lat="43.37081" lon="5.43398">
        <ele>295.74</ele>
        <time>2019-05-01T09:28:08Z</time>
      </trkpt>
      <trkpt lat="43.3709" lon="5.43393">
        <ele>294.3</ele>
        <time>2019-05-01T09:28:19Z</time>
      </trkpt>
      <trkpt lat="43.37101" lon="5.43384">
        <ele>294.3</ele>
        <time>2019-05-01T09:28:32Z</time>
      </trkpt>
      <trkpt lat="43.37113" lon="5.43377">
        <ele>293.82</ele>
        <time>2019-05-01T09:28:45Z</time>
      </trkpt>
      <trkpt lat="43.37121" lon="5.4337">
        <ele>293.82</ele>
        <time>2019-05-01T09:28:56Z</time>
      </trkpt>
      <trkpt lat="43.37124" lon="5.43369">
        <ele>293.34</ele>
        <time>2019-05-01T09:28:59Z</time>
      </trkpt>
      <trkpt lat="43.37126" lon="5.43367">
        <ele>293.34</ele>
        <time>2019-05-01T09:29:01Z</time>
      </trkpt>
      <trkpt lat="43.37128" lon="5.43364">
        <ele>292.86</ele>
        <time>2019-05-01T09:29:05Z</time>
      </trkpt>
      <trkpt lat="43.37135" lon="5.43351">
        <ele>292.38</ele>
        <time>2019-05-01T09:29:18Z</time>
      </trkpt>
      <trkpt lat="43.37142" lon="5.43332">
        <ele>293.34</ele>
        <time>2019-05-01T09:29:34Z</time>
      </trkpt>
      <trkpt lat="43.37146" lon="5.43321">
        <ele>293.82</ele>
        <time>2019-05-01T09:29:47Z</time>
      </trkpt>
      <trkpt lat="43.37146" lon="5.43314">
        <ele>293.82</ele>
        <time>2019-05-01T09:29:52Z</time>
      </trkpt>
      <trkpt lat="43.37148" lon="5.43303">
        <ele>294.78</ele>
        <time>2019-05-01T09:30:08Z</time>
      </trkpt>
      <trkpt lat="43.37153" lon="5.43299">
        <ele>295.74</ele>
        <time>2019-05-01T09:30:25Z</time>
      </trkpt>
      <trkpt lat="43.37159" lon="5.43298">
        <ele>297.67</ele>
        <time>2019-05-01T09:30:36Z</time>
      </trkpt>
      <trkpt lat="43.3716" lon="5.43298">
        <ele>298.15</ele>
        <time>2019-05-01T09:30:38Z</time>
      </trkpt>
      <trkpt lat="43.37167" lon="5.4329">
        <ele>299.11</ele>
        <time>2019-05-01T09:30:49Z</time>
      </trkpt>
      <trkpt lat="43.37168" lon="5.43289">
        <ele>299.11</ele>
        <time>2019-05-01T09:30:51Z</time>
      </trkpt>
      <trkpt lat="43.37171" lon="5.43286">
        <ele>300.07</ele>
        <time>2019-05-01T09:30:54Z</time>
      </trkpt>
      <trkpt lat="43.37179" lon="5.43278">
        <ele>300.55</ele>
        <time>2019-05-01T09:31:06Z</time>
      </trkpt>
      <trkpt lat="43.37182" lon="5.43276">
        <ele>301.03</ele>
        <time>2019-05-01T09:31:10Z</time>
      </trkpt>
      <trkpt lat="43.37191" lon="5.43269">
        <ele>302.47</ele>
        <time>2019-05-01T09:31:23Z</time>
      </trkpt>
      <trkpt lat="43.37197" lon="5.43262">
        <ele>303.43</ele>
        <time>2019-05-01T09:31:36Z</time>
      </trkpt>
      <trkpt lat="43.37198" lon="5.43262">
        <ele>303.43</ele>
        <time>2019-05-01T09:31:37Z</time>
      </trkpt>
      <trkpt lat="43.37203" lon="5.43257">
        <ele>304.39</ele>
        <time>2019-05-01T09:31:49Z</time>
      </trkpt>
      <trkpt lat="43.37211" lon="5.43252">
        <ele>304.88</ele>
        <time>2019-05-01T09:32:03Z</time>
      </trkpt>
      <trkpt lat="43.37216" lon="5.4325">
        <ele>305.84</ele>
        <time>2019-05-01T09:32:08Z</time>
      </trkpt>
      <trkpt lat="43.37221" lon="5.43249">
        <ele>307.28</ele>
        <time>2019-05-01T09:32:14Z</time>
      </trkpt>
      <trkpt lat="43.37226" lon="5.43251">
        <ele>307.28</ele>
        <time>2019-05-01T09:32:28Z</time>
      </trkpt>
      <trkpt lat="43.37232" lon="5.43251">
        <ele>308.24</ele>
        <time>2019-05-01T09:32:36Z</time>
      </trkpt>
      <trkpt lat="43.37242" lon="5.43247">
        <ele>309.68</ele>
        <time>2019-05-01T09:32:50Z</time>
      </trkpt>
      <trkpt lat="43.37242" lon="5.43247">
        <ele>309.2</ele>
        <time>2019-05-01T09:33:07Z</time>
      </trkpt>
      <trkpt lat="43.37248" lon="5.43245">
        <ele>309.68</ele>
        <time>2019-05-01T09:33:24Z</time>
      </trkpt>
      <trkpt lat="43.37257" lon="5.4324">
        <ele>310.64</ele>
        <time>2019-05-01T09:33:36Z</time>
      </trkpt>
      <trkpt lat="43.37264" lon="5.43236">
        <ele>312.09</ele>
        <time>2019-05-01T09:33:44Z</time>
      </trkpt>
      <trkpt lat="43.37272" lon="5.43233">
        <ele>311.6</ele>
        <time>2019-05-01T09:33:58Z</time>
      </trkpt>
      <trkpt lat="43.37279" lon="5.43229">
        <ele>312.09</ele>
        <time>2019-05-01T09:34:10Z</time>
      </trkpt>
      <trkpt lat="43.37288" lon="5.43225">
        <ele>311.6</ele>
        <time>2019-05-01T09:34:22Z</time>
      </trkpt>
      <trkpt lat="43.37295" lon="5.4322">
        <ele>312.57</ele>
        <time>2019-05-01T09:34:34Z</time>
      </trkpt>
      <trkpt lat="43.37307" lon="5.4321">
        <ele>314.97</ele>
        <time>2019-05-01T09:34:49Z</time>
      </trkpt>
      <trkpt lat="43.37313" lon="5.43204">
        <ele>315.93</ele>
        <time>2019-05-01T09:35:01Z</time>
      </trkpt>
      <trkpt lat="43.37317" lon="5.43201">
        <ele>315.93</ele>
        <time>2019-05-01T09:35:14Z</time>
      </trkpt>
      <trkpt lat="43.3732" lon="5.43196">
        <ele>314.49</ele>
        <time>2019-05-01T09:35:27Z</time>
      </trkpt>
      <trkpt lat="43.37327" lon="5.43191">
        <ele>315.93</ele>
        <time>2019-05-01T09:35:39Z</time>
      </trkpt>
      <trkpt lat="43.37335" lon="5.43186">
        <ele>315.93</ele>
        <time>2019-05-01T09:35:52Z</time>
      </trkpt>
      <trkpt lat="43.37344" lon="5.43179">
        <ele>316.41</ele>
        <time>2019-05-01T09:36:06Z</time>
      </trkpt>
      <trkpt lat="43.37344" lon="5.43176">
        <ele>317.37</ele>
        <time>2019-05-01T09:36:23Z</time>
      </trkpt>
      <trkpt lat="43.37353" lon="5.43168">
        <ele>317.37</ele>
        <time>2019-05-01T09:36:36Z</time>
      </trkpt>
      <trkpt lat="43.37356" lon="5.43166">
        <ele>317.37</ele>
        <time>2019-05-01T09:36:40Z</time>
      </trkpt>
      <trkpt lat="43.37363" lon="5.43159">
        <ele>317.37</ele>
        <time>2019-05-01T09:36:52Z</time>
      </trkpt>
      <trkpt lat="43.37364" lon="5.43156">
        <ele>318.81</ele>
        <time>2019-05-01T09:37:10Z</time>
      </trkpt>
      <trkpt lat="43.37365" lon="5.43155">
        <ele>318.81</ele>
        <time>2019-05-01T09:37:11Z</time>
      </trkpt>
      <trkpt lat="43.37376" lon="5.43144">
        <ele>320.74</ele>
        <time>2019-05-01T09:37:23Z</time>
      </trkpt>
      <trkpt lat="43.37384" lon="5.43136">
        <ele>320.26</ele>
        <time>2019-05-01T09:37:35Z</time>
      </trkpt>
      <trkpt lat="43.37391" lon="5.43129">
        <ele>320.26</ele>
        <time>2019-05-01T09:37:46Z</time>
      </trkpt>
      <trkpt lat="43.37399" lon="5.43123">
        <ele>321.22</ele>
        <time>2019-05-01T09:37:59Z</time>
      </trkpt>
      <trkpt lat="43.37409" lon="5.43115">
        <ele>323.14</ele>
        <time>2019-05-01T09:38:12Z</time>
      </trkpt>
      <trkpt lat="43.37416" lon="5.43112">
        <ele>324.58</ele>
        <time>2019-05-01T09:38:24Z</time>
      </trkpt>
      <trkpt lat="43.37427" lon="5.4311">
        <ele>325.06</ele>
        <time>2019-05-01T09:38:37Z</time>
      </trkpt>
      <trkpt lat="43.37427" lon="5.43109">
        <ele>325.06</ele>
        <time>2019-05-01T09:38:38Z</time>
      </trkpt>
      <trkpt lat="43.37437" lon="5.43101">
        <ele>327.47</ele>
        <time>2019-05-01T09:38:51Z</time>
      </trkpt>
      <trkpt lat="43.37445" lon="5.43093">
        <ele>328.91</ele>
        <time>2019-05-01T09:39:04Z</time>
      </trkpt>
      <trkpt lat="43.37455" lon="5.43085">
        <ele>329.87</ele>
        <time>2019-05-01T09:39:18Z</time>
      </trkpt>
      <trkpt lat="43.37458" lon="5.43082">
        <ele>329.87</ele>
        <time>2019-05-01T09:39:22Z</time>
      </trkpt>
      <trkpt lat="43.37469" lon="5.43072">
        <ele>331.79</ele>
        <time>2019-05-01T09:39:36Z</time>
      </trkpt>
      <trkpt lat="43.37478" lon="5.43064">
        <ele>332.75</ele>
        <time>2019-05-01T09:39:49Z</time>
      </trkpt>
      <trkpt lat="43.37486" lon="5.4306">
        <ele>332.75</ele>
        <time>2019-05-01T09:40:01Z</time>
      </trkpt>
      <trkpt lat="43.37495" lon="5.43055">
        <ele>334.2</ele>
        <time>2019-05-01T09:40:13Z</time>
      </trkpt>
      <trkpt lat="43.37496" lon="5.43054">
        <ele>333.71</ele>
        <time>2019-05-01T09:40:33Z</time>
      </trkpt>
      <trkpt lat="43.37502" lon="5.43049">
        <ele>334.2</ele>
        <time>2019-05-01T09:40:49Z</time>
      </trkpt>
      <trkpt lat="43.37511" lon="5.43039">
        <ele>335.16</ele>
        <time>2019-05-01T09:41:02Z</time>
      </trkpt>
      <trkpt lat="43.37515" lon="5.43037">
        <ele>336.12</ele>
        <time>2019-05-01T09:41:11Z</time>
      </trkpt>
      <trkpt lat="43.37525" lon="5.43029">
        <ele>336.6</ele>
        <time>2019-05-01T09:41:24Z</time>
      </trkpt>
      <trkpt lat="43.37534" lon="5.43025">
        <ele>337.08</ele>
        <time>2019-05-01T09:41:38Z</time>
      </trkpt>
      <trkpt lat="43.37543" lon="5.43021">
        <ele>338.04</ele>
        <time>2019-05-01T09:41:52Z</time>
      </trkpt>
      <trkpt lat="43.37552" lon="5.43018">
        <ele>339.48</ele>
        <time>2019-05-01T09:42:05Z</time>
      </trkpt>
      <trkpt lat="43.37561" lon="5.43018">
        <ele>340.44</ele>
        <time>2019-05-01T09:42:21Z</time>
      </trkpt>
      <trkpt lat="43.37565" lon="5.43018">
        <ele>340.44</ele>
        <time>2019-05-01T09:42:35Z</time>
      </trkpt>
      <trkpt lat="43.37567" lon="5.43017">
        <ele>341.41</ele>
        <time>2019-05-01T09:43:12Z</time>
      </trkpt>
      <trkpt lat="43.37574" lon="5.43019">
        <ele>342.37</ele>
        <time>2019-05-01T09:43:24Z</time>
      </trkpt>
      <trkpt lat="43.37583" lon="5.43021">
        <ele>342.37</ele>
        <time>2019-05-01T09:43:37Z</time>
      </trkpt>
      <trkpt lat="43.37594" lon="5.43026">
        <ele>342.37</ele>
        <time>2019-05-01T09:43:53Z</time>
      </trkpt>
      <trkpt lat="43.37605" lon="5.43029">
        <ele>342.85</ele>
        <time>2019-05-01T09:44:07Z</time>
      </trkpt>
      <trkpt lat="43.37608" lon="5.43029">
        <ele>343.33</ele>
        <time>2019-05-01T09:44:10Z</time>
      </trkpt>
      <trkpt lat="43.37618" lon="5.43034">
        <ele>345.25</ele>
        <time>2019-05-01T09:44:25Z</time>
      </trkpt>
      <trkpt lat="43.37629" lon="5.4304">
        <ele>347.17</ele>
        <time>2019-05-01T09:44:40Z</time>
      </trkpt>
      <trkpt lat="43.37636" lon="5.43044">
        <ele>348.13</ele>
        <time>2019-05-01T09:44:53Z</time>
      </trkpt>
      <trkpt lat="43.37645" lon="5.43049">
        <ele>349.58</ele>
        <time>2019-05-01T09:45:06Z</time>
      </trkpt>
      <trkpt lat="43.37649" lon="5.43052">
        <ele>348.13</ele>
        <time>2019-05-01T09:45:19Z</time>
      </trkpt>
      <trkpt lat="43.37655" lon="5.43057">
        <ele>349.1</ele>
        <time>2019-05-01T09:45:32Z</time>
      </trkpt>
      <trkpt lat="43.37663" lon="5.43063">
        <ele>351.5</ele>
        <time>2019-05-01T09:45:44Z</time>
      </trkpt>
      <trkpt lat="43.37669" lon="5.4307">
        <ele>351.5</ele>
        <time>2019-05-01T09:45:54Z</time>
      </trkpt>
      <trkpt lat="43.37676" lon="5.43085">
        <ele>352.46</ele>
        <time>2019-05-01T09:46:10Z</time>
      </trkpt>
      <trkpt lat="43.3768" lon="5.43096">
        <ele>354.38</ele>
        <time>2019-05-01T09:46:21Z</time>
      </trkpt>
      <trkpt lat="43.37688" lon="5.43107">
        <ele>355.34</ele>
        <time>2019-05-01T09:46:34Z</time>
      </trkpt>
      <trkpt lat="43.37689" lon="5.43113">
        <ele>356.31</ele>
        <time>2019-05-01T09:46:38Z</time>
      </trkpt>
      <trkpt lat="43.37698" lon="5.43127">
        <ele>354.86</ele>
        <time>2019-05-01T09:46:53Z</time>
      </trkpt>
      <trkpt lat="43.37706" lon="5.43137">
        <ele>354.38</ele>
        <time>2019-05-01T09:47:05Z</time>
      </trkpt>
      <trkpt lat="43.37712" lon="5.4314">
        <ele>353.9</ele>
        <time>2019-05-01T09:47:19Z</time>
      </trkpt>
      <trkpt lat="43.37716" lon="5.4314">
        <ele>356.31</ele>
        <time>2019-05-01T09:47:43Z</time>
      </trkpt>
      <trkpt lat="43.37716" lon="5.43138">
        <ele>356.31</ele>
        <time>2019-05-01T09:48:09Z</time>
      </trkpt>
      <trkpt lat="43.37723" lon="5.43144">
        <ele>355.83</ele>
        <time>2019-05-01T09:48:23Z</time>
      </trkpt>
      <trkpt lat="43.37733" lon="5.43151">
        <ele>354.38</ele>
        <time>2019-05-01T09:48:37Z</time>
      </trkpt>
      <trkpt lat="43.37741" lon="5.43156">
        <ele>353.42</ele>
        <time>2019-05-01T09:48:49Z</time>
      </trkpt>
      <trkpt lat="43.37747" lon="5.43156">
        <ele>352.94</ele>
        <time>2019-05-01T09:49:04Z</time>
      </trkpt>
      <trkpt lat="43.37748" lon="5.43156">
        <ele>353.42</ele>
        <time>2019-05-01T09:49:20Z</time>
      </trkpt>
      <trkpt lat="43.37749" lon="5.43155">
        <ele>355.34</ele>
        <time>2019-05-01T09:49:39Z</time>
      </trkpt>
      <trkpt lat="43.37748" lon="5.43155">
        <ele>353.9</ele>
        <time>2019-05-01T09:50:06Z</time>
      </trkpt>
      <trkpt lat="43.3775" lon="5.43155">
        <ele>357.27</ele>
        <time>2019-05-01T09:50:24Z</time>
      </trkpt>
      <trkpt lat="43.37749" lon="5.43154">
        <ele>356.79</ele>
        <time>2019-05-01T09:50:45Z</time>
      </trkpt>
      <trkpt lat="43.37751" lon="5.43156">
        <ele>356.31</ele>
        <time>2019-05-01T09:51:06Z</time>
      </trkpt>
      <trkpt lat="43.37754" lon="5.43157">
        <ele>356.31</ele>
        <time>2019-05-01T09:51:22Z</time>
      </trkpt>
      <trkpt lat="43.37759" lon="5.4316">
        <ele>356.79</ele>
        <time>2019-05-01T09:51:34Z</time>
      </trkpt>
      <trkpt lat="43.37764" lon="5.43163">
        <ele>358.23</ele>
        <time>2019-05-01T09:51:46Z</time>
      </trkpt>
      <trkpt lat="43.37771" lon="5.43168">
        <ele>360.63</ele>
        <time>2019-05-01T09:52:01Z</time>
      </trkpt>
      <trkpt lat="43.37772" lon="5.43168">
        <ele>361.11</ele>
        <time>2019-05-01T09:52:10Z</time>
      </trkpt>
      <trkpt lat="43.37776" lon="5.43173">
        <ele>363.52</ele>
        <time>2019-05-01T09:52:21Z</time>
      </trkpt>
      <trkpt lat="43.37786" lon="5.43174">
        <ele>365.44</ele>
        <time>2019-05-01T09:52:33Z</time>
      </trkpt>
      <trkpt lat="43.37792" lon="5.4318">
        <ele>366.4</ele>
        <time>2019-05-01T09:52:48Z</time>
      </trkpt>
      <trkpt lat="43.37792" lon="5.4318">
        <ele>368.8</ele>
        <time>2019-05-01T09:53:08Z</time>
      </trkpt>
      <trkpt lat="43.37794" lon="5.4318">
        <ele>369.28</ele>
        <time>2019-05-01T09:53:24Z</time>
      </trkpt>
      <trkpt lat="43.37794" lon="5.43182">
        <ele>367.84</ele>
        <time>2019-05-01T09:53:39Z</time>
      </trkpt>
      <trkpt lat="43.37793" lon="5.43192">
        <ele>368.32</ele>
        <time>2019-05-01T09:53:55Z</time>
      </trkpt>
      <trkpt lat="43.37795" lon="5.43203">
        <ele>369.28</ele>
        <time>2019-05-01T09:54:09Z</time>
      </trkpt>
      <trkpt lat="43.37794" lon="5.43211">
        <ele>372.17</ele>
        <time>2019-05-01T09:54:23Z</time>
      </trkpt>
      <trkpt lat="43.37796" lon="5.43218">
        <ele>373.61</ele>
        <time>2019-05-01T09:54:39Z</time>
      </trkpt>
      <trkpt lat="43.37798" lon="5.43227">
        <ele>376.01</ele>
        <time>2019-05-01T09:54:46Z</time>
      </trkpt>
      <trkpt lat="43.37799" lon="5.43236">
        <ele>376.49</ele>
        <time>2019-05-01T09:54:59Z</time>
      </trkpt>
      <trkpt lat="43.378" lon="5.43239">
        <ele>376.97</ele>
        <time>2019-05-01T09:55:09Z</time>
      </trkpt>
      <trkpt lat="43.37801" lon="5.43245">
        <ele>376.49</ele>
        <time>2019-05-01T09:55:14Z</time>
      </trkpt>
      <trkpt lat="43.37802" lon="5.43251">
        <ele>376.49</ele>
        <time>2019-05-01T09:55:18Z</time>
      </trkpt>
      <trkpt lat="43.37804" lon="5.43257">
        <ele>376.49</ele>
        <time>2019-05-01T09:55:23Z</time>
      </trkpt>
      <trkpt lat="43.37809" lon="5.4326">
        <ele>375.53</ele>
        <time>2019-05-01T09:55:29Z</time>
      </trkpt>
      <trkpt lat="43.37817" lon="5.43251">
        <ele>376.49</ele>
        <time>2019-05-01T09:55:42Z</time>
      </trkpt>
      <trkpt lat="43.37823" lon="5.43246">
        <ele>377.45</ele>
        <time>2019-05-01T09:55:58Z</time>
      </trkpt>
      <trkpt lat="43.3783" lon="5.43242">
        <ele>379.38</ele>
        <time>2019-05-01T09:56:08Z</time>
      </trkpt>
      <trkpt lat="43.37834" lon="5.4324">
        <ele>378.9</ele>
        <time>2019-05-01T09:56:24Z</time>
      </trkpt>
      <trkpt lat="43.37834" lon="5.43239">
        <ele>378.9</ele>
        <time>2019-05-01T09:56:47Z</time>
      </trkpt>
      <trkpt lat="43.37835" lon="5.43239">
        <ele>378.9</ele>
        <time>2019-05-01T09:57:01Z</time>
      </trkpt>
      <trkpt lat="43.37835" lon="5.43239">
        <ele>380.34</ele>
        <time>2019-05-01T09:57:27Z</time>
      </trkpt>
      <trkpt lat="43.37835" lon="5.43238">
        <ele>380.34</ele>
        <time>2019-05-01T09:57:50Z</time>
      </trkpt>
      <trkpt lat="43.37838" lon="5.43237">
        <ele>380.82</ele>
        <time>2019-05-01T09:57:53Z</time>
      </trkpt>
      <trkpt lat="43.37845" lon="5.43229">
        <ele>381.3</ele>
        <time>2019-05-01T09:58:02Z</time>
      </trkpt>
      <trkpt lat="43.37849" lon="5.43224">
        <ele>381.78</ele>
        <time>2019-05-01T09:58:16Z</time>
      </trkpt>
      <trkpt lat="43.37848" lon="5.43225">
        <ele>381.78</ele>
        <time>2019-05-01T09:58:41Z</time>
      </trkpt>
      <trkpt lat="43.37848" lon="5.43224">
        <ele>381.78</ele>
        <time>2019-05-01T09:59:00Z</time>
      </trkpt>
      <trkpt lat="43.37848" lon="5.43226">
        <ele>382.74</ele>
        <time>2019-05-01T09:59:29Z</time>
      </trkpt>
      <trkpt lat="43.37847" lon="5.43224">
        <ele>383.22</ele>
        <time>2019-05-01T09:59:49Z</time>
      </trkpt>
      <trkpt lat="43.37848" lon="5.43224">
        <ele>383.7</ele>
        <time>2019-05-01T10:00:12Z</time>
      </trkpt>
      <trkpt lat="43.37848" lon="5.43225">
        <ele>382.26</ele>
        <time>2019-05-01T10:00:34Z</time>
      </trkpt>
      <trkpt lat="43.37849" lon="5.43225">
        <ele>380.34</ele>
        <time>2019-05-01T10:01:00Z</time>
      </trkpt>
      <trkpt lat="43.37849" lon="5.43224">
        <ele>381.3</ele>
        <time>2019-05-01T10:01:29Z</time>
      </trkpt>
      <trkpt lat="43.37849" lon="5.43223">
        <ele>381.3</ele>
        <time>2019-05-01T10:01:55Z</time>
      </trkpt>
      <trkpt lat="43.37849" lon="5.43224">
        <ele>379.86</ele>
        <time>2019-05-01T10:02:18Z</time>
      </trkpt>
      <trkpt lat="43.3785" lon="5.43224">
        <ele>379.86</ele>
        <time>2019-05-01T10:02:45Z</time>
      </trkpt>
      <trkpt lat="43.37849" lon="5.43224">
        <ele>381.78</ele>
        <time>2019-05-01T10:03:03Z</time>
      </trkpt>
      <trkpt lat="43.37849" lon="5.43224">
        <ele>382.74</ele>
        <time>2019-05-01T10:03:22Z</time>
      </trkpt>
      <trkpt lat="43.3785" lon="5.43224">
        <ele>383.7</ele>
        <time>2019-05-01T10:03:51Z</time>
      </trkpt>
      <trkpt lat="43.37858" lon="5.43218">
        <ele>384.66</ele>
        <time>2019-05-01T10:04:03Z</time>
      </trkpt>
      <trkpt lat="43.37867" lon="5.43216">
        <ele>385.15</ele>
        <time>2019-05-01T10:04:16Z</time>
      </trkpt>
      <trkpt lat="43.37875" lon="5.43207">
        <ele>385.63</ele>
        <time>2019-05-01T10:04:29Z</time>
      </trkpt>
      <trkpt lat="43.37883" lon="5.43199">
        <ele>387.55</ele>
        <time>2019-05-01T10:04:43Z</time>
      </trkpt>
      <trkpt lat="43.3789" lon="5.43191">
        <ele>388.99</ele>
        <time>2019-05-01T10:04:55Z</time>
      </trkpt>
      <trkpt lat="43.37896" lon="5.43182">
        <ele>389.47</ele>
        <time>2019-05-01T10:05:08Z</time>
      </trkpt>
      <trkpt lat="43.37896" lon="5.43179">
        <ele>388.99</ele>
        <time>2019-05-01T10:05:22Z</time>
      </trkpt>
      <trkpt lat="43.37898" lon="5.43175">
        <ele>388.03</ele>
        <time>2019-05-01T10:05:33Z</time>
      </trkpt>
      <trkpt lat="43.37902" lon="5.4317">
        <ele>389.95</ele>
        <time>2019-05-01T10:05:44Z</time>
      </trkpt>
      <trkpt lat="43.37909" lon="5.4316">
        <ele>392.36</ele>
        <time>2019-05-01T10:05:58Z</time>
      </trkpt>
      <trkpt lat="43.37911" lon="5.43158">
        <ele>392.36</ele>
        <time>2019-05-01T10:06:02Z</time>
      </trkpt>
      <trkpt lat="43.37917" lon="5.4315">
        <ele>393.32</ele>
        <time>2019-05-01T10:06:16Z</time>
      </trkpt>
      <trkpt lat="43.37921" lon="5.43146">
        <ele>394.28</ele>
        <time>2019-05-01T10:06:29Z</time>
      </trkpt>
      <trkpt lat="43.37919" lon="5.43147">
        <ele>393.32</ele>
        <time>2019-05-01T10:06:55Z</time>
      </trkpt>
      <trkpt lat="43.37919" lon="5.43146">
        <ele>392.84</ele>
        <time>2019-05-01T10:07:28Z</time>
      </trkpt>
      <trkpt lat="43.37919" lon="5.43145">
        <ele>392.84</ele>
        <time>2019-05-01T10:08:04Z</time>
      </trkpt>
      <trkpt lat="43.37925" lon="5.43141">
        <ele>393.8</ele>
        <time>2019-05-01T10:08:27Z</time>
      </trkpt>
      <trkpt lat="43.3793" lon="5.43135">
        <ele>395.72</ele>
        <time>2019-05-01T10:08:38Z</time>
      </trkpt>
      <trkpt lat="43.37935" lon="5.43122">
        <ele>397.16</ele>
        <time>2019-05-01T10:08:50Z</time>
      </trkpt>
      <trkpt lat="43.37938" lon="5.4311">
        <ele>398.6</ele>
        <time>2019-05-01T10:09:02Z</time>
      </trkpt>
      <trkpt lat="43.37937" lon="5.43106">
        <ele>400.53</ele>
        <time>2019-05-01T10:09:13Z</time>
      </trkpt>
      <trkpt lat="43.37938" lon="5.431">
        <ele>400.53</ele>
        <time>2019-05-01T10:09:34Z</time>
      </trkpt>
      <trkpt lat="43.37944" lon="5.43088">
        <ele>401.01</ele>
        <time>2019-05-01T10:09:47Z</time>
      </trkpt>
      <trkpt lat="43.37946" lon="5.43084">
        <ele>401.01</ele>
        <time>2019-05-01T10:09:51Z</time>
      </trkpt>
      <trkpt lat="43.37954" lon="5.43074">
        <ele>400.05</ele>
        <time>2019-05-01T10:10:05Z</time>
      </trkpt>
      <trkpt lat="43.37958" lon="5.43072">
        <ele>400.05</ele>
        <time>2019-05-01T10:10:09Z</time>
      </trkpt>
      <trkpt lat="43.37969" lon="5.43073">
        <ele>399.57</ele>
        <time>2019-05-01T10:10:22Z</time>
      </trkpt>
      <trkpt lat="43.37982" lon="5.43073">
        <ele>399.08</ele>
        <time>2019-05-01T10:10:37Z</time>
      </trkpt>
      <trkpt lat="43.37987" lon="5.43071">
        <ele>398.6</ele>
        <time>2019-05-01T10:10:43Z</time>
      </trkpt>
      <trkpt lat="43.38001" lon="5.43065">
        <ele>401.97</ele>
        <time>2019-05-01T10:10:58Z</time>
      </trkpt>
      <trkpt lat="43.38012" lon="5.43059">
        <ele>402.45</ele>
        <time>2019-05-01T10:11:12Z</time>
      </trkpt>
      <trkpt lat="43.38019" lon="5.43055">
        <ele>404.37</ele>
        <time>2019-05-01T10:11:20Z</time>
      </trkpt>
      <trkpt lat="43.38024" lon="5.4305">
        <ele>404.85</ele>
        <time>2019-05-01T10:11:27Z</time>
      </trkpt>
      <trkpt lat="43.38033" lon="5.43039">
        <ele>406.29</ele>
        <time>2019-05-01T10:11:39Z</time>
      </trkpt>
      <trkpt lat="43.3804" lon="5.43024">
        <ele>407.26</ele>
        <time>2019-05-01T10:11:54Z</time>
      </trkpt>
      <trkpt lat="43.38048" lon="5.43012">
        <ele>408.22</ele>
        <time>2019-05-01T10:12:08Z</time>
      </trkpt>
      <trkpt lat="43.38056" lon="5.43002">
        <ele>409.66</ele>
        <time>2019-05-01T10:12:22Z</time>
      </trkpt>
      <trkpt lat="43.38064" lon="5.42992">
        <ele>411.58</ele>
        <time>2019-05-01T10:12:35Z</time>
      </trkpt>
      <trkpt lat="43.38065" lon="5.4299">
        <ele>413.02</ele>
        <time>2019-05-01T10:12:55Z</time>
      </trkpt>
      <trkpt lat="43.38066" lon="5.42983">
        <ele>412.54</ele>
        <time>2019-05-01T10:13:20Z</time>
      </trkpt>
      <trkpt lat="43.38067" lon="5.4297">
        <ele>413.02</ele>
        <time>2019-05-01T10:13:31Z</time>
      </trkpt>
      <trkpt lat="43.38068" lon="5.4295">
        <ele>414.95</ele>
        <time>2019-05-01T10:13:47Z</time>
      </trkpt>
      <trkpt lat="43.38074" lon="5.4294">
        <ele>414.47</ele>
        <time>2019-05-01T10:14:02Z</time>
      </trkpt>
      <trkpt lat="43.38076" lon="5.42945">
        <ele>415.43</ele>
        <time>2019-05-01T10:14:19Z</time>
      </trkpt>
      <trkpt lat="43.38079" lon="5.42954">
        <ele>414.95</ele>
        <time>2019-05-01T10:14:33Z</time>
      </trkpt>
      <trkpt lat="43.38079" lon="5.42956">
        <ele>413.5</ele>
        <time>2019-05-01T10:14:54Z</time>
      </trkpt>
      <trkpt lat="43.38081" lon="5.42955">
        <ele>416.87</ele>
        <time>2019-05-01T10:15:08Z</time>
      </trkpt>
      <trkpt lat="43.38081" lon="5.42955">
        <ele>418.31</ele>
        <time>2019-05-01T10:15:13Z</time>
      </trkpt>
      <trkpt lat="43.38076" lon="5.42953">
        <ele>436.1</ele>
        <time>2019-05-01T10:57:03Z</time>
      </trkpt>
      <trkpt lat="43.38077" lon="5.42951">
        <ele>428.4</ele>
        <time>2019-05-01T10:57:31Z</time>
      </trkpt>
      <trkpt lat="43.3808" lon="5.42949">
        <ele>423.6</ele>
        <time>2019-05-01T10:57:54Z</time>
      </trkpt>
      <trkpt lat="43.38077" lon="5.42942">
        <ele>420.23</ele>
        <time>2019-05-01T10:58:08Z</time>
      </trkpt>
      <trkpt lat="43.38074" lon="5.42939">
        <ele>419.27</ele>
        <time>2019-05-01T10:58:23Z</time>
      </trkpt>
      <trkpt lat="43.38067" lon="5.42942">
        <ele>416.87</ele>
        <time>2019-05-01T10:58:31Z</time>
      </trkpt>
      <trkpt lat="43.38056" lon="5.42939">
        <ele>416.39</ele>
        <time>2019-05-01T10:58:46Z</time>
      </trkpt>
      <trkpt lat="43.38046" lon="5.42935">
        <ele>415.43</ele>
        <time>2019-05-01T10:58:58Z</time>
      </trkpt>
      <trkpt lat="43.38037" lon="5.42931">
        <ele>416.39</ele>
        <time>2019-05-01T10:59:10Z</time>
      </trkpt>
      <trkpt lat="43.38027" lon="5.42927">
        <ele>416.87</ele>
        <time>2019-05-01T10:59:23Z</time>
      </trkpt>
      <trkpt lat="43.38016" lon="5.42919">
        <ele>416.39</ele>
        <time>2019-05-01T10:59:37Z</time>
      </trkpt>
      <trkpt lat="43.38006" lon="5.42911">
        <ele>417.35</ele>
        <time>2019-05-01T10:59:51Z</time>
      </trkpt>
      <trkpt lat="43.37996" lon="5.42904">
        <ele>418.79</ele>
        <time>2019-05-01T11:00:05Z</time>
      </trkpt>
      <trkpt lat="43.37987" lon="5.42899">
        <ele>418.79</ele>
        <time>2019-05-01T11:00:17Z</time>
      </trkpt>
      <trkpt lat="43.37976" lon="5.42891">
        <ele>420.23</ele>
        <time>2019-05-01T11:00:31Z</time>
      </trkpt>
      <trkpt lat="43.37974" lon="5.4289">
        <ele>420.23</ele>
        <time>2019-05-01T11:00:33Z</time>
      </trkpt>
      <trkpt lat="43.37965" lon="5.42882">
        <ele>420.23</ele>
        <time>2019-05-01T11:00:46Z</time>
      </trkpt>
      <trkpt lat="43.37955" lon="5.42875">
        <ele>422.64</ele>
        <time>2019-05-01T11:00:59Z</time>
      </trkpt>
      <trkpt lat="43.37946" lon="5.42867">
        <ele>422.64</ele>
        <time>2019-05-01T11:01:12Z</time>
      </trkpt>
      <trkpt lat="43.37942" lon="5.42864">
        <ele>423.6</ele>
        <time>2019-05-01T11:01:18Z</time>
      </trkpt>
      <trkpt lat="43.37936" lon="5.42859">
        <ele>423.6</ele>
        <time>2019-05-01T11:01:27Z</time>
      </trkpt>
      <trkpt lat="43.3793" lon="5.42856">
        <ele>426</ele>
        <time>2019-05-01T11:01:39Z</time>
      </trkpt>
      <trkpt lat="43.37923" lon="5.42851">
        <ele>425.52</ele>
        <time>2019-05-01T11:01:50Z</time>
      </trkpt>
      <trkpt lat="43.37918" lon="5.42848">
        <ele>427.44</ele>
        <time>2019-05-01T11:01:57Z</time>
      </trkpt>
      <trkpt lat="43.3791" lon="5.4284">
        <ele>426.96</ele>
        <time>2019-05-01T11:02:10Z</time>
      </trkpt>
      <trkpt lat="43.37903" lon="5.42829">
        <ele>426.48</ele>
        <time>2019-05-01T11:02:22Z</time>
      </trkpt>
      <trkpt lat="43.379" lon="5.42819">
        <ele>426.48</ele>
        <time>2019-05-01T11:02:33Z</time>
      </trkpt>
      <trkpt lat="43.37901" lon="5.4281">
        <ele>426</ele>
        <time>2019-05-01T11:02:44Z</time>
      </trkpt>
      <trkpt lat="43.379" lon="5.42806">
        <ele>425.52</ele>
        <time>2019-05-01T11:02:54Z</time>
      </trkpt>
      <trkpt lat="43.379" lon="5.42806">
        <ele>425.52</ele>
        <time>2019-05-01T11:03:19Z</time>
      </trkpt>
      <trkpt lat="43.379" lon="5.42805">
        <ele>424.56</ele>
        <time>2019-05-01T11:03:39Z</time>
      </trkpt>
      <trkpt lat="43.379" lon="5.42805">
        <ele>425.52</ele>
        <time>2019-05-01T11:03:53Z</time>
      </trkpt>
      <trkpt lat="43.37902" lon="5.42804">
        <ele>425.52</ele>
        <time>2019-05-01T11:04:05Z</time>
      </trkpt>
      <trkpt lat="43.37904" lon="5.42803">
        <ele>426.96</ele>
        <time>2019-05-01T11:04:18Z</time>
      </trkpt>
      <trkpt lat="43.37905" lon="5.42802">
        <ele>426.96</ele>
        <time>2019-05-01T11:04:19Z</time>
      </trkpt>
      <trkpt lat="43.37913" lon="5.42796">
        <ele>426</ele>
        <time>2019-05-01T11:04:32Z</time>
      </trkpt>
      <trkpt lat="43.37923" lon="5.4279">
        <ele>426</ele>
        <time>2019-05-01T11:04:45Z</time>
      </trkpt>
      <trkpt lat="43.37931" lon="5.42782">
        <ele>426.96</ele>
        <time>2019-05-01T11:04:58Z</time>
      </trkpt>
      <trkpt lat="43.37938" lon="5.42777">
        <ele>426.96</ele>
        <time>2019-05-01T11:05:09Z</time>
      </trkpt>
      <trkpt lat="43.37948" lon="5.4277">
        <ele>428.89</ele>
        <time>2019-05-01T11:05:23Z</time>
      </trkpt>
      <trkpt lat="43.37957" lon="5.42762">
        <ele>430.33</ele>
        <time>2019-05-01T11:05:35Z</time>
      </trkpt>
      <trkpt lat="43.37963" lon="5.42751">
        <ele>430.81</ele>
        <time>2019-05-01T11:05:48Z</time>
      </trkpt>
      <trkpt lat="43.37962" lon="5.4275">
        <ele>430.81</ele>
        <time>2019-05-01T11:06:01Z</time>
      </trkpt>
      <trkpt lat="43.37965" lon="5.42747">
        <ele>431.29</ele>
        <time>2019-05-01T11:06:21Z</time>
      </trkpt>
      <trkpt lat="43.37969" lon="5.4274">
        <ele>429.85</ele>
        <time>2019-05-01T11:06:41Z</time>
      </trkpt>
      <trkpt lat="43.3797" lon="5.42735">
        <ele>429.37</ele>
        <time>2019-05-01T11:06:46Z</time>
      </trkpt>
      <trkpt lat="43.37975" lon="5.4272">
        <ele>429.37</ele>
        <time>2019-05-01T11:07:01Z</time>
      </trkpt>
      <trkpt lat="43.3798" lon="5.42704">
        <ele>430.33</ele>
        <time>2019-05-01T11:07:16Z</time>
      </trkpt>
      <trkpt lat="43.3798" lon="5.42702">
        <ele>430.33</ele>
        <time>2019-05-01T11:07:17Z</time>
      </trkpt>
      <trkpt lat="43.37983" lon="5.4269">
        <ele>430.81</ele>
        <time>2019-05-01T11:07:27Z</time>
      </trkpt>
      <trkpt lat="43.37989" lon="5.42674">
        <ele>432.25</ele>
        <time>2019-05-01T11:07:43Z</time>
      </trkpt>
      <trkpt lat="43.37993" lon="5.42662">
        <ele>432.73</ele>
        <time>2019-05-01T11:07:57Z</time>
      </trkpt>
      <trkpt lat="43.37995" lon="5.42655">
        <ele>433.69</ele>
        <time>2019-05-01T11:08:12Z</time>
      </trkpt>
      <trkpt lat="43.38" lon="5.42648">
        <ele>433.21</ele>
        <time>2019-05-01T11:08:22Z</time>
      </trkpt>
      <trkpt lat="43.38011" lon="5.42639">
        <ele>432.73</ele>
        <time>2019-05-01T11:08:37Z</time>
      </trkpt>
      <trkpt lat="43.38024" lon="5.42632">
        <ele>433.69</ele>
        <time>2019-05-01T11:08:51Z</time>
      </trkpt>
      <trkpt lat="43.38034" lon="5.42625">
        <ele>434.17</ele>
        <time>2019-05-01T11:09:04Z</time>
      </trkpt>
      <trkpt lat="43.38043" lon="5.42615">
        <ele>433.69</ele>
        <time>2019-05-01T11:09:16Z</time>
      </trkpt>
      <trkpt lat="43.38052" lon="5.42605">
        <ele>433.21</ele>
        <time>2019-05-01T11:09:29Z</time>
      </trkpt>
      <trkpt lat="43.38062" lon="5.42597">
        <ele>433.69</ele>
        <time>2019-05-01T11:09:42Z</time>
      </trkpt>
      <trkpt lat="43.38071" lon="5.42592">
        <ele>434.17</ele>
        <time>2019-05-01T11:09:53Z</time>
      </trkpt>
      <trkpt lat="43.38081" lon="5.42586">
        <ele>434.65</ele>
        <time>2019-05-01T11:10:05Z</time>
      </trkpt>
      <trkpt lat="43.38082" lon="5.42584">
        <ele>434.65</ele>
        <time>2019-05-01T11:10:07Z</time>
      </trkpt>
      <trkpt lat="43.38088" lon="5.42572">
        <ele>433.69</ele>
        <time>2019-05-01T11:10:22Z</time>
      </trkpt>
      <trkpt lat="43.38091" lon="5.42568">
        <ele>436.1</ele>
        <time>2019-05-01T11:10:37Z</time>
      </trkpt>
      <trkpt lat="43.38091" lon="5.42567">
        <ele>436.1</ele>
        <time>2019-05-01T11:10:39Z</time>
      </trkpt>
      <trkpt lat="43.3809" lon="5.4256">
        <ele>436.1</ele>
        <time>2019-05-01T11:10:45Z</time>
      </trkpt>
      <trkpt lat="43.38089" lon="5.42543">
        <ele>437.54</ele>
        <time>2019-05-01T11:11:00Z</time>
      </trkpt>
      <trkpt lat="43.38089" lon="5.42535">
        <ele>436.58</ele>
        <time>2019-05-01T11:11:14Z</time>
      </trkpt>
      <trkpt lat="43.38088" lon="5.42521">
        <ele>437.54</ele>
        <time>2019-05-01T11:11:26Z</time>
      </trkpt>
      <trkpt lat="43.38086" lon="5.42505">
        <ele>437.54</ele>
        <time>2019-05-01T11:11:39Z</time>
      </trkpt>
      <trkpt lat="43.38081" lon="5.42488">
        <ele>437.06</ele>
        <time>2019-05-01T11:11:52Z</time>
      </trkpt>
      <trkpt lat="43.38076" lon="5.42482">
        <ele>437.06</ele>
        <time>2019-05-01T11:12:02Z</time>
      </trkpt>
      <trkpt lat="43.38076" lon="5.4248">
        <ele>437.06</ele>
        <time>2019-05-01T11:12:07Z</time>
      </trkpt>
      <trkpt lat="43.38066" lon="5.42468">
        <ele>436.1</ele>
        <time>2019-05-01T11:12:22Z</time>
      </trkpt>
      <trkpt lat="43.38064" lon="5.42466">
        <ele>435.61</ele>
        <time>2019-05-01T11:12:25Z</time>
      </trkpt>
      <trkpt lat="43.38057" lon="5.42458">
        <ele>435.61</ele>
        <time>2019-05-01T11:12:35Z</time>
      </trkpt>
      <trkpt lat="43.38055" lon="5.42456">
        <ele>435.61</ele>
        <time>2019-05-01T11:12:38Z</time>
      </trkpt>
      <trkpt lat="43.38049" lon="5.4245">
        <ele>435.61</ele>
        <time>2019-05-01T11:12:46Z</time>
      </trkpt>
      <trkpt lat="43.38038" lon="5.4244">
        <ele>435.61</ele>
        <time>2019-05-01T11:13:00Z</time>
      </trkpt>
      <trkpt lat="43.38027" lon="5.42432">
        <ele>435.61</ele>
        <time>2019-05-01T11:13:13Z</time>
      </trkpt>
      <trkpt lat="43.38018" lon="5.42426">
        <ele>435.61</ele>
        <time>2019-05-01T11:13:24Z</time>
      </trkpt>
      <trkpt lat="43.3801" lon="5.42419">
        <ele>436.1</ele>
        <time>2019-05-01T11:13:35Z</time>
      </trkpt>
      <trkpt lat="43.38004" lon="5.42413">
        <ele>437.54</ele>
        <time>2019-05-01T11:13:43Z</time>
      </trkpt>
      <trkpt lat="43.38003" lon="5.42411">
        <ele>438.5</ele>
        <time>2019-05-01T11:13:45Z</time>
      </trkpt>
      <trkpt lat="43.37994" lon="5.42402">
        <ele>439.46</ele>
        <time>2019-05-01T11:13:57Z</time>
      </trkpt>
      <trkpt lat="43.37984" lon="5.42393">
        <ele>438.98</ele>
        <time>2019-05-01T11:14:08Z</time>
      </trkpt>
      <trkpt lat="43.37975" lon="5.42383">
        <ele>438.02</ele>
        <time>2019-05-01T11:14:21Z</time>
      </trkpt>
      <trkpt lat="43.37964" lon="5.4237">
        <ele>438.5</ele>
        <time>2019-05-01T11:14:36Z</time>
      </trkpt>
      <trkpt lat="43.37954" lon="5.42358">
        <ele>437.06</ele>
        <time>2019-05-01T11:14:49Z</time>
      </trkpt>
      <trkpt lat="43.37948" lon="5.4235">
        <ele>435.61</ele>
        <time>2019-05-01T11:14:59Z</time>
      </trkpt>
      <trkpt lat="43.37945" lon="5.42336">
        <ele>435.13</ele>
        <time>2019-05-01T11:15:12Z</time>
      </trkpt>
      <trkpt lat="43.37944" lon="5.42328">
        <ele>436.58</ele>
        <time>2019-05-01T11:15:24Z</time>
      </trkpt>
      <trkpt lat="43.37943" lon="5.42324">
        <ele>438.98</ele>
        <time>2019-05-01T11:15:43Z</time>
      </trkpt>
      <trkpt lat="43.37943" lon="5.42324">
        <ele>437.06</ele>
        <time>2019-05-01T11:16:08Z</time>
      </trkpt>
      <trkpt lat="43.37943" lon="5.42322">
        <ele>437.06</ele>
        <time>2019-05-01T11:16:11Z</time>
      </trkpt>
      <trkpt lat="43.37945" lon="5.42309">
        <ele>436.1</ele>
        <time>2019-05-01T11:16:24Z</time>
      </trkpt>
      <trkpt lat="43.37945" lon="5.42305">
        <ele>436.58</ele>
        <time>2019-05-01T11:16:39Z</time>
      </trkpt>
      <trkpt lat="43.37948" lon="5.42287">
        <ele>436.1</ele>
        <time>2019-05-01T11:16:54Z</time>
      </trkpt>
      <trkpt lat="43.37952" lon="5.42273">
        <ele>436.1</ele>
        <time>2019-05-01T11:17:08Z</time>
      </trkpt>
      <trkpt lat="43.37953" lon="5.42267">
        <ele>437.54</ele>
        <time>2019-05-01T11:17:23Z</time>
      </trkpt>
      <trkpt lat="43.37954" lon="5.42264">
        <ele>438.02</ele>
        <time>2019-05-01T11:17:26Z</time>
      </trkpt>
      <trkpt lat="43.37959" lon="5.42255">
        <ele>438.5</ele>
        <time>2019-05-01T11:17:39Z</time>
      </trkpt>
      <trkpt lat="43.37968" lon="5.42245">
        <ele>438.98</ele>
        <time>2019-05-01T11:17:54Z</time>
      </trkpt>
      <trkpt lat="43.37975" lon="5.42237">
        <ele>439.94</ele>
        <time>2019-05-01T11:18:07Z</time>
      </trkpt>
      <trkpt lat="43.37979" lon="5.42232">
        <ele>440.42</ele>
        <time>2019-05-01T11:18:24Z</time>
      </trkpt>
      <trkpt lat="43.37981" lon="5.4223">
        <ele>439.46</ele>
        <time>2019-05-01T11:18:28Z</time>
      </trkpt>
      <trkpt lat="43.37989" lon="5.42225">
        <ele>439.46</ele>
        <time>2019-05-01T11:18:40Z</time>
      </trkpt>
      <trkpt lat="43.37997" lon="5.42216">
        <ele>440.9</ele>
        <time>2019-05-01T11:18:53Z</time>
      </trkpt>
      <trkpt lat="43.37998" lon="5.42214">
        <ele>442.82</ele>
        <time>2019-05-01T11:19:08Z</time>
      </trkpt>
      <trkpt lat="43.38005" lon="5.42203">
        <ele>440.9</ele>
        <time>2019-05-01T11:19:22Z</time>
      </trkpt>
      <trkpt lat="43.38009" lon="5.42191">
        <ele>442.82</ele>
        <time>2019-05-01T11:19:32Z</time>
      </trkpt>
      <trkpt lat="43.38009" lon="5.42185">
        <ele>444.27</ele>
        <time>2019-05-01T11:19:46Z</time>
      </trkpt>
      <trkpt lat="43.38013" lon="5.42174">
        <ele>443.31</ele>
        <time>2019-05-01T11:19:58Z</time>
      </trkpt>
      <trkpt lat="43.38016" lon="5.42158">
        <ele>444.75</ele>
        <time>2019-05-01T11:20:11Z</time>
      </trkpt>
      <trkpt lat="43.38017" lon="5.42155">
        <ele>443.31</ele>
        <time>2019-05-01T11:20:15Z</time>
      </trkpt>
      <trkpt lat="43.38017" lon="5.42138">
        <ele>441.38</ele>
        <time>2019-05-01T11:20:28Z</time>
      </trkpt>
      <trkpt lat="43.38017" lon="5.42123">
        <ele>442.34</ele>
        <time>2019-05-01T11:20:41Z</time>
      </trkpt>
      <trkpt lat="43.38018" lon="5.42106">
        <ele>443.79</ele>
        <time>2019-05-01T11:20:55Z</time>
      </trkpt>
      <trkpt lat="43.3802" lon="5.42089">
        <ele>444.75</ele>
        <time>2019-05-01T11:21:09Z</time>
      </trkpt>
      <trkpt lat="43.38022" lon="5.42074">
        <ele>445.71</ele>
        <time>2019-05-01T11:21:22Z</time>
      </trkpt>
      <trkpt lat="43.38023" lon="5.42057">
        <ele>446.67</ele>
        <time>2019-05-01T11:21:36Z</time>
      </trkpt>
      <trkpt lat="43.38024" lon="5.42041">
        <ele>446.67</ele>
        <time>2019-05-01T11:21:49Z</time>
      </trkpt>
      <trkpt lat="43.38025" lon="5.42036">
        <ele>446.67</ele>
        <time>2019-05-01T11:21:54Z</time>
      </trkpt>
      <trkpt lat="43.38026" lon="5.42029">
        <ele>447.15</ele>
        <time>2019-05-01T11:22:09Z</time>
      </trkpt>
      <trkpt lat="43.38026" lon="5.42025">
        <ele>445.71</ele>
        <time>2019-05-01T11:22:29Z</time>
      </trkpt>
      <trkpt lat="43.3803" lon="5.42025">
        <ele>445.23</ele>
        <time>2019-05-01T11:22:45Z</time>
      </trkpt>
      <trkpt lat="43.38032" lon="5.42025">
        <ele>447.63</ele>
        <time>2019-05-01T11:23:10Z</time>
      </trkpt>
      <trkpt lat="43.38037" lon="5.42019">
        <ele>446.67</ele>
        <time>2019-05-01T11:23:23Z</time>
      </trkpt>
      <trkpt lat="43.38034" lon="5.42017">
        <ele>445.71</ele>
        <time>2019-05-01T11:23:45Z</time>
      </trkpt>
      <trkpt lat="43.38031" lon="5.42018">
        <ele>445.23</ele>
        <time>2019-05-01T11:23:59Z</time>
      </trkpt>
      <trkpt lat="43.38034" lon="5.42018">
        <ele>445.71</ele>
        <time>2019-05-01T11:24:21Z</time>
      </trkpt>
      <trkpt lat="43.38043" lon="5.42015">
        <ele>447.63</ele>
        <time>2019-05-01T11:24:33Z</time>
      </trkpt>
      <trkpt lat="43.38052" lon="5.4201">
        <ele>448.11</ele>
        <time>2019-05-01T11:24:50Z</time>
      </trkpt>
      <trkpt lat="43.38061" lon="5.42009">
        <ele>450.03</ele>
        <time>2019-05-01T11:25:09Z</time>
      </trkpt>
      <trkpt lat="43.38067" lon="5.4201">
        <ele>450.52</ele>
        <time>2019-05-01T11:25:17Z</time>
      </trkpt>
      <trkpt lat="43.38075" lon="5.4201">
        <ele>450.52</ele>
        <time>2019-05-01T11:25:29Z</time>
      </trkpt>
      <trkpt lat="43.38085" lon="5.4201">
        <ele>451.96</ele>
        <time>2019-05-01T11:25:43Z</time>
      </trkpt>
      <trkpt lat="43.38095" lon="5.42011">
        <ele>453.4</ele>
        <time>2019-05-01T11:25:57Z</time>
      </trkpt>
      <trkpt lat="43.38097" lon="5.42013">
        <ele>453.88</ele>
        <time>2019-05-01T11:26:09Z</time>
      </trkpt>
      <trkpt lat="43.38108" lon="5.42018">
        <ele>457.24</ele>
        <time>2019-05-01T11:26:24Z</time>
      </trkpt>
      <trkpt lat="43.38116" lon="5.42022">
        <ele>456.76</ele>
        <time>2019-05-01T11:26:36Z</time>
      </trkpt>
      <trkpt lat="43.3812" lon="5.42025">
        <ele>455.8</ele>
        <time>2019-05-01T11:26:43Z</time>
      </trkpt>
      <trkpt lat="43.3813" lon="5.42031">
        <ele>455.8</ele>
        <time>2019-05-01T11:26:56Z</time>
      </trkpt>
      <trkpt lat="43.38138" lon="5.42038">
        <ele>455.32</ele>
        <time>2019-05-01T11:27:09Z</time>
      </trkpt>
      <trkpt lat="43.38144" lon="5.42044">
        <ele>455.8</ele>
        <time>2019-05-01T11:27:19Z</time>
      </trkpt>
      <trkpt lat="43.38148" lon="5.42049">
        <ele>456.76</ele>
        <time>2019-05-01T11:27:26Z</time>
      </trkpt>
      <trkpt lat="43.38157" lon="5.42057">
        <ele>460.61</ele>
        <time>2019-05-01T11:27:38Z</time>
      </trkpt>
      <trkpt lat="43.38158" lon="5.42059">
        <ele>460.13</ele>
        <time>2019-05-01T11:27:40Z</time>
      </trkpt>
      <trkpt lat="43.38167" lon="5.42068">
        <ele>461.57</ele>
        <time>2019-05-01T11:27:54Z</time>
      </trkpt>
      <trkpt lat="43.38177" lon="5.42077">
        <ele>461.57</ele>
        <time>2019-05-01T11:28:08Z</time>
      </trkpt>
      <trkpt lat="43.38181" lon="5.42078">
        <ele>462.05</ele>
        <time>2019-05-01T11:28:14Z</time>
      </trkpt>
      <trkpt lat="43.38187" lon="5.42079">
        <ele>462.53</ele>
        <time>2019-05-01T11:28:30Z</time>
      </trkpt>
      <trkpt lat="43.38187" lon="5.4208">
        <ele>466.86</ele>
        <time>2019-05-01T11:28:52Z</time>
      </trkpt>
      <trkpt lat="43.38191" lon="5.42077">
        <ele>466.86</ele>
        <time>2019-05-01T11:29:05Z</time>
      </trkpt>
      <trkpt lat="43.38192" lon="5.42079">
        <ele>465.42</ele>
        <time>2019-05-01T11:29:28Z</time>
      </trkpt>
      <trkpt lat="43.38202" lon="5.42076">
        <ele>466.38</ele>
        <time>2019-05-01T11:29:40Z</time>
      </trkpt>
      <trkpt lat="43.38211" lon="5.42069">
        <ele>466.38</ele>
        <time>2019-05-01T11:29:54Z</time>
      </trkpt>
      <trkpt lat="43.38216" lon="5.42067">
        <ele>467.34</ele>
        <time>2019-05-01T11:30:02Z</time>
      </trkpt>
      <trkpt lat="43.38226" lon="5.42063">
        <ele>468.78</ele>
        <time>2019-05-01T11:30:19Z</time>
      </trkpt>
      <trkpt lat="43.38233" lon="5.42061">
        <ele>468.3</ele>
        <time>2019-05-01T11:30:29Z</time>
      </trkpt>
      <trkpt lat="43.38238" lon="5.42059">
        <ele>467.34</ele>
        <time>2019-05-01T11:30:37Z</time>
      </trkpt>
      <trkpt lat="43.38246" lon="5.42054">
        <ele>469.26</ele>
        <time>2019-05-01T11:30:52Z</time>
      </trkpt>
      <trkpt lat="43.38255" lon="5.42047">
        <ele>469.26</ele>
        <time>2019-05-01T11:31:05Z</time>
      </trkpt>
      <trkpt lat="43.38263" lon="5.42044">
        <ele>470.7</ele>
        <time>2019-05-01T11:31:16Z</time>
      </trkpt>
      <trkpt lat="43.38266" lon="5.42044">
        <ele>471.18</ele>
        <time>2019-05-01T11:31:27Z</time>
      </trkpt>
      <trkpt lat="43.38274" lon="5.42041">
        <ele>471.18</ele>
        <time>2019-05-01T11:31:40Z</time>
      </trkpt>
      <trkpt lat="43.38285" lon="5.42042">
        <ele>472.14</ele>
        <time>2019-05-01T11:31:55Z</time>
      </trkpt>
      <trkpt lat="43.38295" lon="5.42046">
        <ele>473.59</ele>
        <time>2019-05-01T11:32:08Z</time>
      </trkpt>
      <trkpt lat="43.38296" lon="5.42046">
        <ele>473.59</ele>
        <time>2019-05-01T11:32:09Z</time>
      </trkpt>
      <trkpt lat="43.38298" lon="5.42049">
        <ele>473.11</ele>
        <time>2019-05-01T11:32:14Z</time>
      </trkpt>
      <trkpt lat="43.38305" lon="5.42052">
        <ele>474.07</ele>
        <time>2019-05-01T11:32:27Z</time>
      </trkpt>
      <trkpt lat="43.38305" lon="5.4205">
        <ele>475.03</ele>
        <time>2019-05-01T11:32:47Z</time>
      </trkpt>
      <trkpt lat="43.38309" lon="5.42055">
        <ele>474.07</ele>
        <time>2019-05-01T11:32:58Z</time>
      </trkpt>
      <trkpt lat="43.38313" lon="5.42058">
        <ele>474.07</ele>
        <time>2019-05-01T11:33:03Z</time>
      </trkpt>
      <trkpt lat="43.38316" lon="5.4206">
        <ele>474.07</ele>
        <time>2019-05-01T11:33:08Z</time>
      </trkpt>
      <trkpt lat="43.38319" lon="5.42062">
        <ele>475.03</ele>
        <time>2019-05-01T11:33:16Z</time>
      </trkpt>
      <trkpt lat="43.38321" lon="5.42063">
        <ele>474.55</ele>
        <time>2019-05-01T11:33:18Z</time>
      </trkpt>
      <trkpt lat="43.38325" lon="5.42066">
        <ele>475.03</ele>
        <time>2019-05-01T11:33:23Z</time>
      </trkpt>
      <trkpt lat="43.38326" lon="5.42068">
        <ele>474.55</ele>
        <time>2019-05-01T11:33:25Z</time>
      </trkpt>
      <trkpt lat="43.38333" lon="5.42079">
        <ele>475.99</ele>
        <time>2019-05-01T11:33:37Z</time>
      </trkpt>
      <trkpt lat="43.38336" lon="5.42082">
        <ele>476.95</ele>
        <time>2019-05-01T11:33:54Z</time>
      </trkpt>
      <trkpt lat="43.38339" lon="5.42086">
        <ele>477.91</ele>
        <time>2019-05-01T11:34:07Z</time>
      </trkpt>
      <trkpt lat="43.38344" lon="5.42094">
        <ele>479.35</ele>
        <time>2019-05-01T11:34:18Z</time>
      </trkpt>
      <trkpt lat="43.38346" lon="5.42098">
        <ele>480.32</ele>
        <time>2019-05-01T11:34:22Z</time>
      </trkpt>
      <trkpt lat="43.3835" lon="5.42105">
        <ele>480.8</ele>
        <time>2019-05-01T11:34:35Z</time>
      </trkpt>
      <trkpt lat="43.38354" lon="5.42114">
        <ele>480.8</ele>
        <time>2019-05-01T11:34:48Z</time>
      </trkpt>
      <trkpt lat="43.38359" lon="5.42125">
        <ele>481.76</ele>
        <time>2019-05-01T11:35:01Z</time>
      </trkpt>
      <trkpt lat="43.38362" lon="5.42133">
        <ele>482.24</ele>
        <time>2019-05-01T11:35:09Z</time>
      </trkpt>
      <trkpt lat="43.38366" lon="5.42144">
        <ele>483.68</ele>
        <time>2019-05-01T11:35:20Z</time>
      </trkpt>
      <trkpt lat="43.38366" lon="5.42151">
        <ele>480.32</ele>
        <time>2019-05-01T11:35:36Z</time>
      </trkpt>
      <trkpt lat="43.38368" lon="5.42163">
        <ele>484.16</ele>
        <time>2019-05-01T11:35:52Z</time>
      </trkpt>
      <trkpt lat="43.38368" lon="5.42165">
        <ele>484.64</ele>
        <time>2019-05-01T11:35:53Z</time>
      </trkpt>
      <trkpt lat="43.3837" lon="5.42175">
        <ele>487.05</ele>
        <time>2019-05-01T11:36:02Z</time>
      </trkpt>
      <trkpt lat="43.38372" lon="5.42191">
        <ele>490.41</ele>
        <time>2019-05-01T11:36:17Z</time>
      </trkpt>
      <trkpt lat="43.38377" lon="5.42201">
        <ele>491.37</ele>
        <time>2019-05-01T11:36:32Z</time>
      </trkpt>
      <trkpt lat="43.38378" lon="5.42201">
        <ele>492.33</ele>
        <time>2019-05-01T11:36:51Z</time>
      </trkpt>
      <trkpt lat="43.3838" lon="5.42201">
        <ele>491.37</ele>
        <time>2019-05-01T11:36:59Z</time>
      </trkpt>
      <trkpt lat="43.38382" lon="5.42204">
        <ele>490.41</ele>
        <time>2019-05-01T11:37:03Z</time>
      </trkpt>
      <trkpt lat="43.38387" lon="5.42206">
        <ele>489.93</ele>
        <time>2019-05-01T11:37:09Z</time>
      </trkpt>
      <trkpt lat="43.3839" lon="5.42207">
        <ele>489.93</ele>
        <time>2019-05-01T11:37:25Z</time>
      </trkpt>
      <trkpt lat="43.38397" lon="5.42205">
        <ele>490.89</ele>
        <time>2019-05-01T11:37:40Z</time>
      </trkpt>
      <trkpt lat="43.384" lon="5.422">
        <ele>491.85</ele>
        <time>2019-05-01T11:37:54Z</time>
      </trkpt>
      <trkpt lat="43.384" lon="5.42198">
        <ele>491.37</ele>
        <time>2019-05-01T11:38:13Z</time>
      </trkpt>
      <trkpt lat="43.38411" lon="5.42191">
        <ele>491.85</ele>
        <time>2019-05-01T11:38:26Z</time>
      </trkpt>
      <trkpt lat="43.38415" lon="5.42183">
        <ele>492.81</ele>
        <time>2019-05-01T11:38:39Z</time>
      </trkpt>
      <trkpt lat="43.38414" lon="5.42182">
        <ele>495.22</ele>
        <time>2019-05-01T11:39:05Z</time>
      </trkpt>
      <trkpt lat="43.38418" lon="5.42181">
        <ele>496.66</ele>
        <time>2019-05-01T11:39:33Z</time>
      </trkpt>
      <trkpt lat="43.38427" lon="5.42177">
        <ele>496.18</ele>
        <time>2019-05-01T11:39:45Z</time>
      </trkpt>
      <trkpt lat="43.38439" lon="5.42172">
        <ele>496.18</ele>
        <time>2019-05-01T11:39:59Z</time>
      </trkpt>
      <trkpt lat="43.38442" lon="5.42169">
        <ele>495.7</ele>
        <time>2019-05-01T11:40:04Z</time>
      </trkpt>
      <trkpt lat="43.3845" lon="5.42158">
        <ele>495.7</ele>
        <time>2019-05-01T11:40:18Z</time>
      </trkpt>
      <trkpt lat="43.38454" lon="5.42144">
        <ele>497.14</ele>
        <time>2019-05-01T11:40:31Z</time>
      </trkpt>
      <trkpt lat="43.38454" lon="5.42135">
        <ele>497.62</ele>
        <time>2019-05-01T11:40:45Z</time>
      </trkpt>
      <trkpt lat="43.38453" lon="5.42132">
        <ele>497.14</ele>
        <time>2019-05-01T11:41:09Z</time>
      </trkpt>
      <trkpt lat="43.38456" lon="5.4212">
        <ele>497.14</ele>
        <time>2019-05-01T11:41:21Z</time>
      </trkpt>
      <trkpt lat="43.38458" lon="5.42114">
        <ele>497.14</ele>
        <time>2019-05-01T11:41:34Z</time>
      </trkpt>
      <trkpt lat="43.3846" lon="5.4211">
        <ele>496.66</ele>
        <time>2019-05-01T11:41:54Z</time>
      </trkpt>
      <trkpt lat="43.38464" lon="5.42103">
        <ele>497.14</ele>
        <time>2019-05-01T11:42:08Z</time>
      </trkpt>
      <trkpt lat="43.38465" lon="5.42101">
        <ele>497.62</ele>
        <time>2019-05-01T11:42:21Z</time>
      </trkpt>
      <trkpt lat="43.38469" lon="5.42096">
        <ele>498.1</ele>
        <time>2019-05-01T11:42:33Z</time>
      </trkpt>
      <trkpt lat="43.3847" lon="5.42094">
        <ele>497.14</ele>
        <time>2019-05-01T11:42:48Z</time>
      </trkpt>
      <trkpt lat="43.3847" lon="5.42092">
        <ele>497.62</ele>
        <time>2019-05-01T11:42:53Z</time>
      </trkpt>
      <trkpt lat="43.38475" lon="5.42084">
        <ele>500.02</ele>
        <time>2019-05-01T11:43:05Z</time>
      </trkpt>
      <trkpt lat="43.38477" lon="5.42081">
        <ele>500.02</ele>
        <time>2019-05-01T11:43:22Z</time>
      </trkpt>
      <trkpt lat="43.38482" lon="5.42077">
        <ele>500.98</ele>
        <time>2019-05-01T11:43:36Z</time>
      </trkpt>
      <trkpt lat="43.38485" lon="5.4207">
        <ele>501.95</ele>
        <time>2019-05-01T11:43:51Z</time>
      </trkpt>
      <trkpt lat="43.38491" lon="5.42059">
        <ele>503.87</ele>
        <time>2019-05-01T11:44:04Z</time>
      </trkpt>
      <trkpt lat="43.38493" lon="5.42054">
        <ele>505.79</ele>
        <time>2019-05-01T11:44:14Z</time>
      </trkpt>
      <trkpt lat="43.38493" lon="5.42043">
        <ele>507.71</ele>
        <time>2019-05-01T11:44:24Z</time>
      </trkpt>
      <trkpt lat="43.38492" lon="5.42032">
        <ele>508.19</ele>
        <time>2019-05-01T11:44:35Z</time>
      </trkpt>
      <trkpt lat="43.3849" lon="5.42029">
        <ele>508.67</ele>
        <time>2019-05-01T11:44:38Z</time>
      </trkpt>
      <trkpt lat="43.38489" lon="5.4202">
        <ele>508.67</ele>
        <time>2019-05-01T11:44:45Z</time>
      </trkpt>
      <trkpt lat="43.38488" lon="5.42018">
        <ele>508.67</ele>
        <time>2019-05-01T11:44:47Z</time>
      </trkpt>
      <trkpt lat="43.38485" lon="5.42005">
        <ele>508.67</ele>
        <time>2019-05-01T11:44:59Z</time>
      </trkpt>
      <trkpt lat="43.38485" lon="5.42002">
        <ele>509.16</ele>
        <time>2019-05-01T11:45:02Z</time>
      </trkpt>
      <trkpt lat="43.38486" lon="5.41991">
        <ele>509.16</ele>
        <time>2019-05-01T11:45:16Z</time>
      </trkpt>
      <trkpt lat="43.38489" lon="5.4198">
        <ele>510.12</ele>
        <time>2019-05-01T11:45:30Z</time>
      </trkpt>
      <trkpt lat="43.38491" lon="5.41967">
        <ele>510.6</ele>
        <time>2019-05-01T11:45:43Z</time>
      </trkpt>
      <trkpt lat="43.38491" lon="5.41962">
        <ele>512.04</ele>
        <time>2019-05-01T11:45:58Z</time>
      </trkpt>
      <trkpt lat="43.3849" lon="5.41959">
        <ele>512.04</ele>
        <time>2019-05-01T11:46:13Z</time>
      </trkpt>
      <trkpt lat="43.38492" lon="5.41954">
        <ele>513</ele>
        <time>2019-05-01T11:46:18Z</time>
      </trkpt>
      <trkpt lat="43.38492" lon="5.41947">
        <ele>514.44</ele>
        <time>2019-05-01T11:46:34Z</time>
      </trkpt>
      <trkpt lat="43.38493" lon="5.41945">
        <ele>513.96</ele>
        <time>2019-05-01T11:46:49Z</time>
      </trkpt>
      <trkpt lat="43.38493" lon="5.41943">
        <ele>514.44</ele>
        <time>2019-05-01T11:47:11Z</time>
      </trkpt>
      <trkpt lat="43.38492" lon="5.41943">
        <ele>513.96</ele>
        <time>2019-05-01T11:47:26Z</time>
      </trkpt>
      <trkpt lat="43.38492" lon="5.41945">
        <ele>512.04</ele>
        <time>2019-05-01T11:47:40Z</time>
      </trkpt>
      <trkpt lat="43.38493" lon="5.41945">
        <ele>511.08</ele>
        <time>2019-05-01T11:47:58Z</time>
      </trkpt>
      <trkpt lat="43.38493" lon="5.41941">
        <ele>512.04</ele>
        <time>2019-05-01T11:48:26Z</time>
      </trkpt>
      <trkpt lat="43.38492" lon="5.41942">
        <ele>512.52</ele>
        <time>2019-05-01T11:48:53Z</time>
      </trkpt>
      <trkpt lat="43.38494" lon="5.41939">
        <ele>513.48</ele>
        <time>2019-05-01T11:49:17Z</time>
      </trkpt>
      <trkpt lat="43.38502" lon="5.4193">
        <ele>514.44</ele>
        <time>2019-05-01T11:49:33Z</time>
      </trkpt>
      <trkpt lat="43.3851" lon="5.41928">
        <ele>515.4</ele>
        <time>2019-05-01T11:49:46Z</time>
      </trkpt>
      <trkpt lat="43.38519" lon="5.41928">
        <ele>517.33</ele>
        <time>2019-05-01T11:50:02Z</time>
      </trkpt>
      <trkpt lat="43.38523" lon="5.41929">
        <ele>517.33</ele>
        <time>2019-05-01T11:50:07Z</time>
      </trkpt>
      <trkpt lat="43.38527" lon="5.41931">
        <ele>517.81</ele>
        <time>2019-05-01T11:50:12Z</time>
      </trkpt>
      <trkpt lat="43.38533" lon="5.41943">
        <ele>520.69</ele>
        <time>2019-05-01T11:50:29Z</time>
      </trkpt>
      <trkpt lat="43.38536" lon="5.41944">
        <ele>518.29</ele>
        <time>2019-05-01T11:50:45Z</time>
      </trkpt>
      <trkpt lat="43.38537" lon="5.41953">
        <ele>517.33</ele>
        <time>2019-05-01T11:51:00Z</time>
      </trkpt>
      <trkpt lat="43.38543" lon="5.41964">
        <ele>517.33</ele>
        <time>2019-05-01T11:51:13Z</time>
      </trkpt>
      <trkpt lat="43.38552" lon="5.41973">
        <ele>517.81</ele>
        <time>2019-05-01T11:51:27Z</time>
      </trkpt>
      <trkpt lat="43.3856" lon="5.41976">
        <ele>518.77</ele>
        <time>2019-05-01T11:51:42Z</time>
      </trkpt>
      <trkpt lat="43.38569" lon="5.41979">
        <ele>520.21</ele>
        <time>2019-05-01T11:51:55Z</time>
      </trkpt>
      <trkpt lat="43.38577" lon="5.4198">
        <ele>520.69</ele>
        <time>2019-05-01T11:52:09Z</time>
      </trkpt>
      <trkpt lat="43.38587" lon="5.4198">
        <ele>519.73</ele>
        <time>2019-05-01T11:52:23Z</time>
      </trkpt>
      <trkpt lat="43.38598" lon="5.41977">
        <ele>521.65</ele>
        <time>2019-05-01T11:52:36Z</time>
      </trkpt>
      <trkpt lat="43.38608" lon="5.41975">
        <ele>522.13</ele>
        <time>2019-05-01T11:52:48Z</time>
      </trkpt>
      <trkpt lat="43.38612" lon="5.41979">
        <ele>521.65</ele>
        <time>2019-05-01T11:52:56Z</time>
      </trkpt>
      <trkpt lat="43.38617" lon="5.41991">
        <ele>522.61</ele>
        <time>2019-05-01T11:53:10Z</time>
      </trkpt>
      <trkpt lat="43.38619" lon="5.41987">
        <ele>522.13</ele>
        <time>2019-05-01T11:53:22Z</time>
      </trkpt>
      <trkpt lat="43.38622" lon="5.41985">
        <ele>521.65</ele>
        <time>2019-05-01T11:53:26Z</time>
      </trkpt>
      <trkpt lat="43.38625" lon="5.41984">
        <ele>524.06</ele>
        <time>2019-05-01T11:53:41Z</time>
      </trkpt>
      <trkpt lat="43.38624" lon="5.41985">
        <ele>524.06</ele>
        <time>2019-05-01T11:53:47Z</time>
      </trkpt>
      <trkpt lat="43.3862" lon="5.41987">
        <ele>525.02</ele>
        <time>2019-05-01T11:54:02Z</time>
      </trkpt>
      <trkpt lat="43.38619" lon="5.4199">
        <ele>524.06</ele>
        <time>2019-05-01T11:54:22Z</time>
      </trkpt>
      <trkpt lat="43.3862" lon="5.41988">
        <ele>523.58</ele>
        <time>2019-05-01T11:54:47Z</time>
      </trkpt>
      <trkpt lat="43.38619" lon="5.41989">
        <ele>522.13</ele>
        <time>2019-05-01T11:55:08Z</time>
      </trkpt>
      <trkpt lat="43.38617" lon="5.41986">
        <ele>521.17</ele>
        <time>2019-05-01T11:55:28Z</time>
      </trkpt>
      <trkpt lat="43.38612" lon="5.41987">
        <ele>521.65</ele>
        <time>2019-05-01T11:55:42Z</time>
      </trkpt>
      <trkpt lat="43.38602" lon="5.41996">
        <ele>521.17</ele>
        <time>2019-05-01T11:55:55Z</time>
      </trkpt>
      <trkpt lat="43.38595" lon="5.42009">
        <ele>521.17</ele>
        <time>2019-05-01T11:56:09Z</time>
      </trkpt>
      <trkpt lat="43.38588" lon="5.42021">
        <ele>521.17</ele>
        <time>2019-05-01T11:56:24Z</time>
      </trkpt>
      <trkpt lat="43.38582" lon="5.42034">
        <ele>524.06</ele>
        <time>2019-05-01T11:56:38Z</time>
      </trkpt>
      <trkpt lat="43.38579" lon="5.42048">
        <ele>526.46</ele>
        <time>2019-05-01T11:56:50Z</time>
      </trkpt>
      <trkpt lat="43.38577" lon="5.42062">
        <ele>529.34</ele>
        <time>2019-05-01T11:57:02Z</time>
      </trkpt>
      <trkpt lat="43.38576" lon="5.4207">
        <ele>529.82</ele>
        <time>2019-05-01T11:57:10Z</time>
      </trkpt>
      <trkpt lat="43.38572" lon="5.42081">
        <ele>530.3</ele>
        <time>2019-05-01T11:57:21Z</time>
      </trkpt>
      <trkpt lat="43.38567" lon="5.42096">
        <ele>531.27</ele>
        <time>2019-05-01T11:57:36Z</time>
      </trkpt>
      <trkpt lat="43.38564" lon="5.42109">
        <ele>532.23</ele>
        <time>2019-05-01T11:57:49Z</time>
      </trkpt>
      <trkpt lat="43.3856" lon="5.42122">
        <ele>531.75</ele>
        <time>2019-05-01T11:58:03Z</time>
      </trkpt>
      <trkpt lat="43.38555" lon="5.42134">
        <ele>532.23</ele>
        <time>2019-05-01T11:58:16Z</time>
      </trkpt>
      <trkpt lat="43.3855" lon="5.42148">
        <ele>532.23</ele>
        <time>2019-05-01T11:58:31Z</time>
      </trkpt>
      <trkpt lat="43.38549" lon="5.42154">
        <ele>532.71</ele>
        <time>2019-05-01T11:58:37Z</time>
      </trkpt>
      <trkpt lat="43.38547" lon="5.42167">
        <ele>535.59</ele>
        <time>2019-05-01T11:58:49Z</time>
      </trkpt>
      <trkpt lat="43.38546" lon="5.42173">
        <ele>537.99</ele>
        <time>2019-05-01T11:59:03Z</time>
      </trkpt>
      <trkpt lat="43.38548" lon="5.42178">
        <ele>538.48</ele>
        <time>2019-05-01T11:59:28Z</time>
      </trkpt>
      <trkpt lat="43.38548" lon="5.42179">
        <ele>538.48</ele>
        <time>2019-05-01T11:59:29Z</time>
      </trkpt>
      <trkpt lat="43.3855" lon="5.42183">
        <ele>537.99</ele>
        <time>2019-05-01T11:59:33Z</time>
      </trkpt>
      <trkpt lat="43.38552" lon="5.42195">
        <ele>538.48</ele>
        <time>2019-05-01T11:59:45Z</time>
      </trkpt>
      <trkpt lat="43.38559" lon="5.42207">
        <ele>538.48</ele>
        <time>2019-05-01T11:59:58Z</time>
      </trkpt>
      <trkpt lat="43.38564" lon="5.4221">
        <ele>538.96</ele>
        <time>2019-05-01T12:00:14Z</time>
      </trkpt>
      <trkpt lat="43.38563" lon="5.42211">
        <ele>539.44</ele>
        <time>2019-05-01T12:00:28Z</time>
      </trkpt>
      <trkpt lat="43.38564" lon="5.42211">
        <ele>540.4</ele>
        <time>2019-05-01T12:00:44Z</time>
      </trkpt>
      <trkpt lat="43.38565" lon="5.4221">
        <ele>540.88</ele>
        <time>2019-05-01T12:01:13Z</time>
      </trkpt>
      <trkpt lat="43.38564" lon="5.4221">
        <ele>538.96</ele>
        <time>2019-05-01T12:01:37Z</time>
      </trkpt>
      <trkpt lat="43.38569" lon="5.42218">
        <ele>542.8</ele>
        <time>2019-05-01T12:02:05Z</time>
      </trkpt>
      <trkpt lat="43.38571" lon="5.42221">
        <ele>543.28</ele>
        <time>2019-05-01T12:02:07Z</time>
      </trkpt>
      <trkpt lat="43.38576" lon="5.42228">
        <ele>541.84</ele>
        <time>2019-05-01T12:02:13Z</time>
      </trkpt>
      <trkpt lat="43.3858" lon="5.42233">
        <ele>542.32</ele>
        <time>2019-05-01T12:02:26Z</time>
      </trkpt>
      <trkpt lat="43.3858" lon="5.42235">
        <ele>540.4</ele>
        <time>2019-05-01T12:02:42Z</time>
      </trkpt>
      <trkpt lat="43.38587" lon="5.42244">
        <ele>541.36</ele>
        <time>2019-05-01T12:02:57Z</time>
      </trkpt>
      <trkpt lat="43.38589" lon="5.42243">
        <ele>541.84</ele>
        <time>2019-05-01T12:03:10Z</time>
      </trkpt>
      <trkpt lat="43.38591" lon="5.42252">
        <ele>541.84</ele>
        <time>2019-05-01T12:03:29Z</time>
      </trkpt>
      <trkpt lat="43.38593" lon="5.4226">
        <ele>542.32</ele>
        <time>2019-05-01T12:03:43Z</time>
      </trkpt>
      <trkpt lat="43.38593" lon="5.42264">
        <ele>541.36</ele>
        <time>2019-05-01T12:03:58Z</time>
      </trkpt>
      <trkpt lat="43.38593" lon="5.42267">
        <ele>541.36</ele>
        <time>2019-05-01T12:04:00Z</time>
      </trkpt>
      <trkpt lat="43.38588" lon="5.42281">
        <ele>542.8</ele>
        <time>2019-05-01T12:04:16Z</time>
      </trkpt>
      <trkpt lat="43.38587" lon="5.42284">
        <ele>541.36</ele>
        <time>2019-05-01T12:04:31Z</time>
      </trkpt>
      <trkpt lat="43.38588" lon="5.42284">
        <ele>540.88</ele>
        <time>2019-05-01T12:04:50Z</time>
      </trkpt>
      <trkpt lat="43.38581" lon="5.42289">
        <ele>542.32</ele>
        <time>2019-05-01T12:05:05Z</time>
      </trkpt>
      <trkpt lat="43.38578" lon="5.42292">
        <ele>542.32</ele>
        <time>2019-05-01T12:05:21Z</time>
      </trkpt>
      <trkpt lat="43.3857" lon="5.42296">
        <ele>541.36</ele>
        <time>2019-05-01T12:05:34Z</time>
      </trkpt>
      <trkpt lat="43.38567" lon="5.42299">
        <ele>542.32</ele>
        <time>2019-05-01T12:05:47Z</time>
      </trkpt>
      <trkpt lat="43.38568" lon="5.42299">
        <ele>544.24</ele>
        <time>2019-05-01T12:06:07Z</time>
      </trkpt>
      <trkpt lat="43.38571" lon="5.42299">
        <ele>546.65</ele>
        <time>2019-05-01T12:06:34Z</time>
      </trkpt>
      <trkpt lat="43.38569" lon="5.423">
        <ele>547.13</ele>
        <time>2019-05-01T12:06:58Z</time>
      </trkpt>
      <trkpt lat="43.38563" lon="5.42304">
        <ele>543.76</ele>
        <time>2019-05-01T12:07:20Z</time>
      </trkpt>
      <trkpt lat="43.38557" lon="5.42314">
        <ele>544.24</ele>
        <time>2019-05-01T12:07:33Z</time>
      </trkpt>
      <trkpt lat="43.38554" lon="5.42314">
        <ele>544.24</ele>
        <time>2019-05-01T12:08:02Z</time>
      </trkpt>
      <trkpt lat="43.38557" lon="5.42313">
        <ele>548.09</ele>
        <time>2019-05-01T12:08:27Z</time>
      </trkpt>
      <trkpt lat="43.38557" lon="5.42316">
        <ele>553.38</ele>
        <time>2019-05-01T12:08:56Z</time>
      </trkpt>
      <trkpt lat="43.38559" lon="5.42311">
        <ele>551.45</ele>
        <time>2019-05-01T12:09:14Z</time>
      </trkpt>
      <trkpt lat="43.3856" lon="5.42314">
        <ele>548.09</ele>
        <time>2019-05-01T12:09:35Z</time>
      </trkpt>
      <trkpt lat="43.38559" lon="5.42312">
        <ele>550.01</ele>
        <time>2019-05-01T12:10:02Z</time>
      </trkpt>
      <trkpt lat="43.38558" lon="5.42316">
        <ele>551.45</ele>
        <time>2019-05-01T12:10:18Z</time>
      </trkpt>
      <trkpt lat="43.38558" lon="5.4232">
        <ele>552.9</ele>
        <time>2019-05-01T12:10:39Z</time>
      </trkpt>
      <trkpt lat="43.38554" lon="5.42323">
        <ele>553.86</ele>
        <time>2019-05-01T12:10:50Z</time>
      </trkpt>
      <trkpt lat="43.38553" lon="5.42326">
        <ele>552.41</ele>
        <time>2019-05-01T12:11:07Z</time>
      </trkpt>
      <trkpt lat="43.38547" lon="5.42341">
        <ele>550.97</ele>
        <time>2019-05-01T12:11:21Z</time>
      </trkpt>
      <trkpt lat="43.38546" lon="5.42348">
        <ele>550.49</ele>
        <time>2019-05-01T12:11:27Z</time>
      </trkpt>
      <trkpt lat="43.38544" lon="5.42356">
        <ele>550.97</ele>
        <time>2019-05-01T12:11:39Z</time>
      </trkpt>
      <trkpt lat="43.3854" lon="5.42365">
        <ele>550.97</ele>
        <time>2019-05-01T12:11:52Z</time>
      </trkpt>
      <trkpt lat="43.38537" lon="5.42365">
        <ele>550.49</ele>
        <time>2019-05-01T12:12:06Z</time>
      </trkpt>
      <trkpt lat="43.38537" lon="5.42367">
        <ele>550.01</ele>
        <time>2019-05-01T12:12:21Z</time>
      </trkpt>
      <trkpt lat="43.38536" lon="5.42373">
        <ele>550.49</ele>
        <time>2019-05-01T12:12:37Z</time>
      </trkpt>
      <trkpt lat="43.38531" lon="5.42384">
        <ele>551.45</ele>
        <time>2019-05-01T12:12:50Z</time>
      </trkpt>
      <trkpt lat="43.38529" lon="5.42388">
        <ele>552.41</ele>
        <time>2019-05-01T12:13:08Z</time>
      </trkpt>
      <trkpt lat="43.38527" lon="5.42389">
        <ele>553.38</ele>
        <time>2019-05-01T12:13:22Z</time>
      </trkpt>
      <trkpt lat="43.38524" lon="5.42396">
        <ele>552.9</ele>
        <time>2019-05-01T12:13:40Z</time>
      </trkpt>
      <trkpt lat="43.38519" lon="5.42404">
        <ele>553.38</ele>
        <time>2019-05-01T12:13:56Z</time>
      </trkpt>
      <trkpt lat="43.38512" lon="5.42417">
        <ele>551.93</ele>
        <time>2019-05-01T12:14:10Z</time>
      </trkpt>
      <trkpt lat="43.38507" lon="5.42435">
        <ele>549.53</ele>
        <time>2019-05-01T12:14:27Z</time>
      </trkpt>
      <trkpt lat="43.38506" lon="5.42441">
        <ele>552.41</ele>
        <time>2019-05-01T12:14:41Z</time>
      </trkpt>
      <trkpt lat="43.38505" lon="5.42443">
        <ele>552.9</ele>
        <time>2019-05-01T12:14:54Z</time>
      </trkpt>
      <trkpt lat="43.38503" lon="5.42456">
        <ele>552.9</ele>
        <time>2019-05-01T12:15:06Z</time>
      </trkpt>
      <trkpt lat="43.38504" lon="5.42464">
        <ele>555.78</ele>
        <time>2019-05-01T12:15:18Z</time>
      </trkpt>
      <trkpt lat="43.38501" lon="5.42472">
        <ele>557.7</ele>
        <time>2019-05-01T12:15:29Z</time>
      </trkpt>
      <trkpt lat="43.385" lon="5.42487">
        <ele>557.22</ele>
        <time>2019-05-01T12:15:42Z</time>
      </trkpt>
      <trkpt lat="43.38505" lon="5.42499">
        <ele>554.82</ele>
        <time>2019-05-01T12:15:54Z</time>
      </trkpt>
      <trkpt lat="43.38512" lon="5.42512">
        <ele>555.3</ele>
        <time>2019-05-01T12:16:07Z</time>
      </trkpt>
      <trkpt lat="43.38517" lon="5.42524">
        <ele>555.78</ele>
        <time>2019-05-01T12:16:17Z</time>
      </trkpt>
      <trkpt lat="43.38518" lon="5.42537">
        <ele>554.34</ele>
        <time>2019-05-01T12:16:28Z</time>
      </trkpt>
      <trkpt lat="43.38514" lon="5.42549">
        <ele>551.93</ele>
        <time>2019-05-01T12:16:40Z</time>
      </trkpt>
      <trkpt lat="43.38516" lon="5.4255">
        <ele>557.22</ele>
        <time>2019-05-01T12:16:52Z</time>
      </trkpt>
      <trkpt lat="43.38513" lon="5.42555">
        <ele>557.7</ele>
        <time>2019-05-01T12:17:05Z</time>
      </trkpt>
      <trkpt lat="43.38506" lon="5.4256">
        <ele>557.7</ele>
        <time>2019-05-01T12:17:14Z</time>
      </trkpt>
      <trkpt lat="43.38495" lon="5.42569">
        <ele>558.18</ele>
        <time>2019-05-01T12:17:27Z</time>
      </trkpt>
      <trkpt lat="43.3849" lon="5.42572">
        <ele>556.26</ele>
        <time>2019-05-01T12:17:39Z</time>
      </trkpt>
      <trkpt lat="43.38483" lon="5.42578">
        <ele>554.82</ele>
        <time>2019-05-01T12:17:58Z</time>
      </trkpt>
      <trkpt lat="43.38478" lon="5.42586">
        <ele>556.74</ele>
        <time>2019-05-01T12:18:09Z</time>
      </trkpt>
      <trkpt lat="43.38474" lon="5.42603">
        <ele>561.55</ele>
        <time>2019-05-01T12:18:23Z</time>
      </trkpt>
      <trkpt lat="43.38473" lon="5.42619">
        <ele>563.47</ele>
        <time>2019-05-01T12:18:35Z</time>
      </trkpt>
      <trkpt lat="43.38474" lon="5.42637">
        <ele>563.47</ele>
        <time>2019-05-01T12:18:49Z</time>
      </trkpt>
      <trkpt lat="43.38477" lon="5.4265">
        <ele>562.99</ele>
        <time>2019-05-01T12:19:01Z</time>
      </trkpt>
      <trkpt lat="43.38477" lon="5.42654">
        <ele>562.51</ele>
        <time>2019-05-01T12:19:03Z</time>
      </trkpt>
      <trkpt lat="43.38477" lon="5.42669">
        <ele>560.59</ele>
        <time>2019-05-01T12:19:15Z</time>
      </trkpt>
      <trkpt lat="43.38481" lon="5.42674">
        <ele>560.59</ele>
        <time>2019-05-01T12:19:27Z</time>
      </trkpt>
      <trkpt lat="43.3848" lon="5.42675">
        <ele>561.07</ele>
        <time>2019-05-01T12:19:28Z</time>
      </trkpt>
      <trkpt lat="43.38478" lon="5.42691">
        <ele>558.18</ele>
        <time>2019-05-01T12:19:42Z</time>
      </trkpt>
      <trkpt lat="43.38483" lon="5.42704">
        <ele>556.74</ele>
        <time>2019-05-01T12:19:54Z</time>
      </trkpt>
      <trkpt lat="43.38488" lon="5.42716">
        <ele>557.7</ele>
        <time>2019-05-01T12:20:06Z</time>
      </trkpt>
      <trkpt lat="43.38492" lon="5.42721">
        <ele>561.55</ele>
        <time>2019-05-01T12:20:20Z</time>
      </trkpt>
      <trkpt lat="43.38494" lon="5.42718">
        <ele>562.99</ele>
        <time>2019-05-01T12:20:40Z</time>
      </trkpt>
      <trkpt lat="43.38498" lon="5.42717">
        <ele>563.95</ele>
        <time>2019-05-01T12:21:06Z</time>
      </trkpt>
      <trkpt lat="43.38501" lon="5.4272">
        <ele>564.91</ele>
        <time>2019-05-01T12:21:19Z</time>
      </trkpt>
      <trkpt lat="43.38502" lon="5.42721">
        <ele>566.35</ele>
        <time>2019-05-01T12:21:44Z</time>
      </trkpt>
      <trkpt lat="43.38505" lon="5.42722">
        <ele>566.83</ele>
        <time>2019-05-01T12:22:00Z</time>
      </trkpt>
      <trkpt lat="43.38512" lon="5.42723">
        <ele>567.8</ele>
        <time>2019-05-01T12:22:13Z</time>
      </trkpt>
      <trkpt lat="43.38521" lon="5.4272">
        <ele>568.28</ele>
        <time>2019-05-01T12:22:26Z</time>
      </trkpt>
      <trkpt lat="43.38522" lon="5.4272">
        <ele>568.28</ele>
        <time>2019-05-01T12:22:27Z</time>
      </trkpt>
      <trkpt lat="43.38533" lon="5.42717">
        <ele>568.76</ele>
        <time>2019-05-01T12:22:39Z</time>
      </trkpt>
      <trkpt lat="43.38545" lon="5.42711">
        <ele>566.35</ele>
        <time>2019-05-01T12:22:54Z</time>
      </trkpt>
      <trkpt lat="43.38554" lon="5.42708">
        <ele>565.39</ele>
        <time>2019-05-01T12:23:07Z</time>
      </trkpt>
      <trkpt lat="43.38563" lon="5.42706">
        <ele>564.43</ele>
        <time>2019-05-01T12:23:19Z</time>
      </trkpt>
      <trkpt lat="43.38566" lon="5.42704">
        <ele>563.47</ele>
        <time>2019-05-01T12:23:31Z</time>
      </trkpt>
      <trkpt lat="43.38572" lon="5.42705">
        <ele>563.95</ele>
        <time>2019-05-01T12:23:44Z</time>
      </trkpt>
      <trkpt lat="43.38581" lon="5.42706">
        <ele>563.95</ele>
        <time>2019-05-01T12:23:56Z</time>
      </trkpt>
      <trkpt lat="43.38583" lon="5.42703">
        <ele>563.95</ele>
        <time>2019-05-01T12:24:12Z</time>
      </trkpt>
      <trkpt lat="43.38583" lon="5.42702">
        <ele>564.91</ele>
        <time>2019-05-01T12:24:24Z</time>
      </trkpt>
      <trkpt lat="43.38586" lon="5.42703">
        <ele>564.43</ele>
        <time>2019-05-01T12:24:37Z</time>
      </trkpt>
      <trkpt lat="43.38594" lon="5.42705">
        <ele>562.99</ele>
        <time>2019-05-01T12:24:50Z</time>
      </trkpt>
      <trkpt lat="43.38595" lon="5.42704">
        <ele>562.03</ele>
        <time>2019-05-01T12:25:10Z</time>
      </trkpt>
      <trkpt lat="43.38597" lon="5.42703">
        <ele>563.47</ele>
        <time>2019-05-01T12:25:32Z</time>
      </trkpt>
      <trkpt lat="43.38602" lon="5.42707">
        <ele>561.55</ele>
        <time>2019-05-01T12:25:46Z</time>
      </trkpt>
      <trkpt lat="43.38604" lon="5.42708">
        <ele>561.55</ele>
        <time>2019-05-01T12:25:50Z</time>
      </trkpt>
      <trkpt lat="43.38611" lon="5.42715">
        <ele>560.59</ele>
        <time>2019-05-01T12:26:03Z</time>
      </trkpt>
      <trkpt lat="43.38618" lon="5.42723">
        <ele>561.55</ele>
        <time>2019-05-01T12:26:17Z</time>
      </trkpt>
      <trkpt lat="43.38621" lon="5.4274">
        <ele>561.07</ele>
        <time>2019-05-01T12:26:33Z</time>
      </trkpt>
      <trkpt lat="43.38619" lon="5.42749">
        <ele>561.07</ele>
        <time>2019-05-01T12:26:44Z</time>
      </trkpt>
      <trkpt lat="43.38618" lon="5.42756">
        <ele>563.47</ele>
        <time>2019-05-01T12:27:01Z</time>
      </trkpt>
      <trkpt lat="43.38612" lon="5.42769">
        <ele>562.03</ele>
        <time>2019-05-01T12:27:14Z</time>
      </trkpt>
      <trkpt lat="43.3861" lon="5.42774">
        <ele>561.55</ele>
        <time>2019-05-01T12:27:22Z</time>
      </trkpt>
      <trkpt lat="43.38605" lon="5.4278">
        <ele>562.03</ele>
        <time>2019-05-01T12:27:34Z</time>
      </trkpt>
      <trkpt lat="43.38605" lon="5.42784">
        <ele>564.43</ele>
        <time>2019-05-01T12:27:46Z</time>
      </trkpt>
      <trkpt lat="43.38602" lon="5.42791">
        <ele>564.91</ele>
        <time>2019-05-01T12:28:00Z</time>
      </trkpt>
      <trkpt lat="43.38596" lon="5.42802">
        <ele>567.32</ele>
        <time>2019-05-01T12:28:14Z</time>
      </trkpt>
      <trkpt lat="43.38591" lon="5.42812">
        <ele>567.32</ele>
        <time>2019-05-01T12:28:26Z</time>
      </trkpt>
      <trkpt lat="43.38588" lon="5.42821">
        <ele>568.28</ele>
        <time>2019-05-01T12:28:40Z</time>
      </trkpt>
      <trkpt lat="43.38578" lon="5.42831">
        <ele>568.76</ele>
        <time>2019-05-01T12:28:54Z</time>
      </trkpt>
      <trkpt lat="43.38569" lon="5.42841">
        <ele>566.83</ele>
        <time>2019-05-01T12:29:10Z</time>
      </trkpt>
      <trkpt lat="43.38557" lon="5.42847">
        <ele>567.32</ele>
        <time>2019-05-01T12:29:25Z</time>
      </trkpt>
      <trkpt lat="43.3855" lon="5.42849">
        <ele>568.76</ele>
        <time>2019-05-01T12:29:36Z</time>
      </trkpt>
      <trkpt lat="43.38535" lon="5.42853">
        <ele>569.24</ele>
        <time>2019-05-01T12:29:53Z</time>
      </trkpt>
      <trkpt lat="43.38525" lon="5.42864">
        <ele>571.16</ele>
        <time>2019-05-01T12:30:06Z</time>
      </trkpt>
      <trkpt lat="43.38517" lon="5.4288">
        <ele>569.72</ele>
        <time>2019-05-01T12:30:22Z</time>
      </trkpt>
      <trkpt lat="43.3851" lon="5.42895">
        <ele>568.28</ele>
        <time>2019-05-01T12:30:38Z</time>
      </trkpt>
      <trkpt lat="43.38503" lon="5.429">
        <ele>570.2</ele>
        <time>2019-05-01T12:30:53Z</time>
      </trkpt>
      <trkpt lat="43.385" lon="5.42911">
        <ele>570.2</ele>
        <time>2019-05-01T12:31:07Z</time>
      </trkpt>
      <trkpt lat="43.385" lon="5.42913">
        <ele>570.2</ele>
        <time>2019-05-01T12:31:27Z</time>
      </trkpt>
      <trkpt lat="43.38498" lon="5.42912">
        <ele>571.16</ele>
        <time>2019-05-01T12:31:53Z</time>
      </trkpt>
      <trkpt lat="43.38501" lon="5.42914">
        <ele>571.16</ele>
        <time>2019-05-01T12:32:07Z</time>
      </trkpt>
      <trkpt lat="43.38502" lon="5.42924">
        <ele>570.68</ele>
        <time>2019-05-01T12:32:22Z</time>
      </trkpt>
      <trkpt lat="43.38502" lon="5.42937">
        <ele>569.24</ele>
        <time>2019-05-01T12:32:35Z</time>
      </trkpt>
      <trkpt lat="43.38504" lon="5.42944">
        <ele>567.32</ele>
        <time>2019-05-01T12:32:47Z</time>
      </trkpt>
      <trkpt lat="43.38503" lon="5.42947">
        <ele>568.76</ele>
        <time>2019-05-01T12:33:05Z</time>
      </trkpt>
      <trkpt lat="43.38501" lon="5.42951">
        <ele>568.76</ele>
        <time>2019-05-01T12:33:18Z</time>
      </trkpt>
      <trkpt lat="43.385" lon="5.42953">
        <ele>570.68</ele>
        <time>2019-05-01T12:33:45Z</time>
      </trkpt>
      <trkpt lat="43.38501" lon="5.42952">
        <ele>569.24</ele>
        <time>2019-05-01T12:34:07Z</time>
      </trkpt>
      <trkpt lat="43.38502" lon="5.4295">
        <ele>570.2</ele>
        <time>2019-05-01T12:34:29Z</time>
      </trkpt>
      <trkpt lat="43.38501" lon="5.42951">
        <ele>571.16</ele>
        <time>2019-05-01T12:34:51Z</time>
      </trkpt>
      <trkpt lat="43.38505" lon="5.42954">
        <ele>570.2</ele>
        <time>2019-05-01T12:35:05Z</time>
      </trkpt>
      <trkpt lat="43.38511" lon="5.42966">
        <ele>569.72</ele>
        <time>2019-05-01T12:35:18Z</time>
      </trkpt>
      <trkpt lat="43.38514" lon="5.4298">
        <ele>568.28</ele>
        <time>2019-05-01T12:35:31Z</time>
      </trkpt>
      <trkpt lat="43.38519" lon="5.42989">
        <ele>567.32</ele>
        <time>2019-05-01T12:35:45Z</time>
      </trkpt>
      <trkpt lat="43.38523" lon="5.42999">
        <ele>568.28</ele>
        <time>2019-05-01T12:35:59Z</time>
      </trkpt>
      <trkpt lat="43.38526" lon="5.43003">
        <ele>566.83</ele>
        <time>2019-05-01T12:36:14Z</time>
      </trkpt>
      <trkpt lat="43.38534" lon="5.43017">
        <ele>565.87</ele>
        <time>2019-05-01T12:36:29Z</time>
      </trkpt>
      <trkpt lat="43.3854" lon="5.4303">
        <ele>567.32</ele>
        <time>2019-05-01T12:36:42Z</time>
      </trkpt>
      <trkpt lat="43.38547" lon="5.43043">
        <ele>568.28</ele>
        <time>2019-05-01T12:36:55Z</time>
      </trkpt>
      <trkpt lat="43.38555" lon="5.43056">
        <ele>569.24</ele>
        <time>2019-05-01T12:37:10Z</time>
      </trkpt>
      <trkpt lat="43.38558" lon="5.4307">
        <ele>567.8</ele>
        <time>2019-05-01T12:37:23Z</time>
      </trkpt>
      <trkpt lat="43.38561" lon="5.43084">
        <ele>567.32</ele>
        <time>2019-05-01T12:37:35Z</time>
      </trkpt>
      <trkpt lat="43.38565" lon="5.43094">
        <ele>567.32</ele>
        <time>2019-05-01T12:37:46Z</time>
      </trkpt>
      <trkpt lat="43.38567" lon="5.43099">
        <ele>566.83</ele>
        <time>2019-05-01T12:37:50Z</time>
      </trkpt>
      <trkpt lat="43.38569" lon="5.43106">
        <ele>566.83</ele>
        <time>2019-05-01T12:37:55Z</time>
      </trkpt>
      <trkpt lat="43.38575" lon="5.43118">
        <ele>566.35</ele>
        <time>2019-05-01T12:38:07Z</time>
      </trkpt>
      <trkpt lat="43.38581" lon="5.4313">
        <ele>566.35</ele>
        <time>2019-05-01T12:38:19Z</time>
      </trkpt>
      <trkpt lat="43.38583" lon="5.43135">
        <ele>565.87</ele>
        <time>2019-05-01T12:38:32Z</time>
      </trkpt>
      <trkpt lat="43.38581" lon="5.43136">
        <ele>564.91</ele>
        <time>2019-05-01T12:38:53Z</time>
      </trkpt>
      <trkpt lat="43.38585" lon="5.43142">
        <ele>565.87</ele>
        <time>2019-05-01T12:39:06Z</time>
      </trkpt>
      <trkpt lat="43.38591" lon="5.43153">
        <ele>566.83</ele>
        <time>2019-05-01T12:39:20Z</time>
      </trkpt>
      <trkpt lat="43.38591" lon="5.43156">
        <ele>566.35</ele>
        <time>2019-05-01T12:39:33Z</time>
      </trkpt>
      <trkpt lat="43.38591" lon="5.43153">
        <ele>569.24</ele>
        <time>2019-05-01T12:39:55Z</time>
      </trkpt>
      <trkpt lat="43.3859" lon="5.43154">
        <ele>568.28</ele>
        <time>2019-05-01T12:40:17Z</time>
      </trkpt>
      <trkpt lat="43.38586" lon="5.43156">
        <ele>566.83</ele>
        <time>2019-05-01T12:40:29Z</time>
      </trkpt>
      <trkpt lat="43.38581" lon="5.43159">
        <ele>563.95</ele>
        <time>2019-05-01T12:40:42Z</time>
      </trkpt>
      <trkpt lat="43.3858" lon="5.4316">
        <ele>562.99</ele>
        <time>2019-05-01T12:40:56Z</time>
      </trkpt>
      <trkpt lat="43.38576" lon="5.4316">
        <ele>562.51</ele>
        <time>2019-05-01T12:41:12Z</time>
      </trkpt>
      <trkpt lat="43.38571" lon="5.4316">
        <ele>561.55</ele>
        <time>2019-05-01T12:41:26Z</time>
      </trkpt>
      <trkpt lat="43.38568" lon="5.43161">
        <ele>560.11</ele>
        <time>2019-05-01T12:41:37Z</time>
      </trkpt>
      <trkpt lat="43.38564" lon="5.43166">
        <ele>557.7</ele>
        <time>2019-05-01T12:41:50Z</time>
      </trkpt>
      <trkpt lat="43.3856" lon="5.43169">
        <ele>556.26</ele>
        <time>2019-05-01T12:42:04Z</time>
      </trkpt>
      <trkpt lat="43.38556" lon="5.43171">
        <ele>556.26</ele>
        <time>2019-05-01T12:42:16Z</time>
      </trkpt>
      <trkpt lat="43.38554" lon="5.43173">
        <ele>555.78</ele>
        <time>2019-05-01T12:42:31Z</time>
      </trkpt>
      <trkpt lat="43.3855" lon="5.43176">
        <ele>554.34</ele>
        <time>2019-05-01T12:42:43Z</time>
      </trkpt>
      <trkpt lat="43.38545" lon="5.43177">
        <ele>552.9</ele>
        <time>2019-05-01T12:42:56Z</time>
      </trkpt>
      <trkpt lat="43.38539" lon="5.43178">
        <ele>552.9</ele>
        <time>2019-05-01T12:43:09Z</time>
      </trkpt>
      <trkpt lat="43.38535" lon="5.43179">
        <ele>551.45</ele>
        <time>2019-05-01T12:43:23Z</time>
      </trkpt>
      <trkpt lat="43.38533" lon="5.43183">
        <ele>548.09</ele>
        <time>2019-05-01T12:43:38Z</time>
      </trkpt>
      <trkpt lat="43.38528" lon="5.43184">
        <ele>546.65</ele>
        <time>2019-05-01T12:43:53Z</time>
      </trkpt>
      <trkpt lat="43.38528" lon="5.43185">
        <ele>546.17</ele>
        <time>2019-05-01T12:44:07Z</time>
      </trkpt>
      <trkpt lat="43.38526" lon="5.43185">
        <ele>546.17</ele>
        <time>2019-05-01T12:44:32Z</time>
      </trkpt>
      <trkpt lat="43.38524" lon="5.43186">
        <ele>545.69</ele>
        <time>2019-05-01T12:44:52Z</time>
      </trkpt>
      <trkpt lat="43.38517" lon="5.43183">
        <ele>543.76</ele>
        <time>2019-05-01T12:45:06Z</time>
      </trkpt>
      <trkpt lat="43.38511" lon="5.43183">
        <ele>542.8</ele>
        <time>2019-05-01T12:45:19Z</time>
      </trkpt>
      <trkpt lat="43.38508" lon="5.43182">
        <ele>541.84</ele>
        <time>2019-05-01T12:45:25Z</time>
      </trkpt>
      <trkpt lat="43.385" lon="5.43179">
        <ele>540.88</ele>
        <time>2019-05-01T12:45:38Z</time>
      </trkpt>
      <trkpt lat="43.38494" lon="5.43178">
        <ele>539.44</ele>
        <time>2019-05-01T12:45:51Z</time>
      </trkpt>
      <trkpt lat="43.38486" lon="5.43177">
        <ele>537.99</ele>
        <time>2019-05-01T12:46:05Z</time>
      </trkpt>
      <trkpt lat="43.38479" lon="5.43176">
        <ele>536.07</ele>
        <time>2019-05-01T12:46:20Z</time>
      </trkpt>
      <trkpt lat="43.38473" lon="5.43174">
        <ele>535.59</ele>
        <time>2019-05-01T12:46:33Z</time>
      </trkpt>
      <trkpt lat="43.3847" lon="5.43172">
        <ele>534.63</ele>
        <time>2019-05-01T12:46:50Z</time>
      </trkpt>
      <trkpt lat="43.38462" lon="5.43171">
        <ele>533.19</ele>
        <time>2019-05-01T12:47:05Z</time>
      </trkpt>
      <trkpt lat="43.38459" lon="5.43171">
        <ele>533.67</ele>
        <time>2019-05-01T12:47:20Z</time>
      </trkpt>
      <trkpt lat="43.38455" lon="5.43172">
        <ele>534.15</ele>
        <time>2019-05-01T12:47:33Z</time>
      </trkpt>
      <trkpt lat="43.38447" lon="5.43172">
        <ele>530.79</ele>
        <time>2019-05-01T12:47:46Z</time>
      </trkpt>
      <trkpt lat="43.38441" lon="5.4317">
        <ele>529.82</ele>
        <time>2019-05-01T12:47:59Z</time>
      </trkpt>
      <trkpt lat="43.38437" lon="5.43171">
        <ele>527.42</ele>
        <time>2019-05-01T12:48:18Z</time>
      </trkpt>
      <trkpt lat="43.38433" lon="5.43176">
        <ele>525.5</ele>
        <time>2019-05-01T12:48:32Z</time>
      </trkpt>
      <trkpt lat="43.38429" lon="5.43179">
        <ele>524.54</ele>
        <time>2019-05-01T12:48:46Z</time>
      </trkpt>
      <trkpt lat="43.38423" lon="5.43179">
        <ele>523.58</ele>
        <time>2019-05-01T12:49:01Z</time>
      </trkpt>
      <trkpt lat="43.38413" lon="5.43177">
        <ele>521.17</ele>
        <time>2019-05-01T12:49:16Z</time>
      </trkpt>
      <trkpt lat="43.38405" lon="5.43173">
        <ele>520.21</ele>
        <time>2019-05-01T12:49:32Z</time>
      </trkpt>
      <trkpt lat="43.38403" lon="5.43178">
        <ele>519.73</ele>
        <time>2019-05-01T12:49:44Z</time>
      </trkpt>
      <trkpt lat="43.38401" lon="5.43179">
        <ele>519.73</ele>
        <time>2019-05-01T12:49:56Z</time>
      </trkpt>
      <trkpt lat="43.38395" lon="5.43182">
        <ele>517.33</ele>
        <time>2019-05-01T12:50:09Z</time>
      </trkpt>
      <trkpt lat="43.38391" lon="5.43184">
        <ele>516.85</ele>
        <time>2019-05-01T12:50:24Z</time>
      </trkpt>
      <trkpt lat="43.38385" lon="5.43185">
        <ele>515.88</ele>
        <time>2019-05-01T12:50:36Z</time>
      </trkpt>
      <trkpt lat="43.38379" lon="5.43187">
        <ele>515.4</ele>
        <time>2019-05-01T12:50:48Z</time>
      </trkpt>
      <trkpt lat="43.38375" lon="5.43192">
        <ele>513.48</ele>
        <time>2019-05-01T12:50:58Z</time>
      </trkpt>
      <trkpt lat="43.38372" lon="5.43195">
        <ele>513.96</ele>
        <time>2019-05-01T12:51:10Z</time>
      </trkpt>
      <trkpt lat="43.38372" lon="5.43196">
        <ele>513.48</ele>
        <time>2019-05-01T12:51:14Z</time>
      </trkpt>
      <trkpt lat="43.38368" lon="5.43199">
        <ele>513</ele>
        <time>2019-05-01T12:51:29Z</time>
      </trkpt>
      <trkpt lat="43.38369" lon="5.43199">
        <ele>512.52</ele>
        <time>2019-05-01T12:51:55Z</time>
      </trkpt>
      <trkpt lat="43.38364" lon="5.43201">
        <ele>511.56</ele>
        <time>2019-05-01T12:52:06Z</time>
      </trkpt>
      <trkpt lat="43.38359" lon="5.43202">
        <ele>509.64</ele>
        <time>2019-05-01T12:52:17Z</time>
      </trkpt>
      <trkpt lat="43.38355" lon="5.43202">
        <ele>507.23</ele>
        <time>2019-05-01T12:52:31Z</time>
      </trkpt>
      <trkpt lat="43.38352" lon="5.43205">
        <ele>505.79</ele>
        <time>2019-05-01T12:52:44Z</time>
      </trkpt>
      <trkpt lat="43.38348" lon="5.43207">
        <ele>505.31</ele>
        <time>2019-05-01T12:52:56Z</time>
      </trkpt>
      <trkpt lat="43.38347" lon="5.43211">
        <ele>504.35</ele>
        <time>2019-05-01T12:53:14Z</time>
      </trkpt>
      <trkpt lat="43.38344" lon="5.43216">
        <ele>501.95</ele>
        <time>2019-05-01T12:53:31Z</time>
      </trkpt>
      <trkpt lat="43.3834" lon="5.43219">
        <ele>500.5</ele>
        <time>2019-05-01T12:53:45Z</time>
      </trkpt>
      <trkpt lat="43.38337" lon="5.4322">
        <ele>499.54</ele>
        <time>2019-05-01T12:53:58Z</time>
      </trkpt>
      <trkpt lat="43.38333" lon="5.43222">
        <ele>500.02</ele>
        <time>2019-05-01T12:54:13Z</time>
      </trkpt>
      <trkpt lat="43.3833" lon="5.43225">
        <ele>499.06</ele>
        <time>2019-05-01T12:54:27Z</time>
      </trkpt>
      <trkpt lat="43.38327" lon="5.43226">
        <ele>497.62</ele>
        <time>2019-05-01T12:54:40Z</time>
      </trkpt>
      <trkpt lat="43.38326" lon="5.43227">
        <ele>495.22</ele>
        <time>2019-05-01T12:55:03Z</time>
      </trkpt>
      <trkpt lat="43.38322" lon="5.4323">
        <ele>493.77</ele>
        <time>2019-05-01T12:55:16Z</time>
      </trkpt>
      <trkpt lat="43.38318" lon="5.43236">
        <ele>492.81</ele>
        <time>2019-05-01T12:55:28Z</time>
      </trkpt>
      <trkpt lat="43.38316" lon="5.43241">
        <ele>491.85</ele>
        <time>2019-05-01T12:55:41Z</time>
      </trkpt>
      <trkpt lat="43.3831" lon="5.4324">
        <ele>490.89</ele>
        <time>2019-05-01T12:55:56Z</time>
      </trkpt>
      <trkpt lat="43.38308" lon="5.43243">
        <ele>490.41</ele>
        <time>2019-05-01T12:56:11Z</time>
      </trkpt>
      <trkpt lat="43.38304" lon="5.43247">
        <ele>488.49</ele>
        <time>2019-05-01T12:56:24Z</time>
      </trkpt>
      <trkpt lat="43.38301" lon="5.4325">
        <ele>486.56</ele>
        <time>2019-05-01T12:56:42Z</time>
      </trkpt>
      <trkpt lat="43.38298" lon="5.43253">
        <ele>487.05</ele>
        <time>2019-05-01T12:56:53Z</time>
      </trkpt>
      <trkpt lat="43.38296" lon="5.43254">
        <ele>486.56</ele>
        <time>2019-05-01T12:57:08Z</time>
      </trkpt>
      <trkpt lat="43.38294" lon="5.43258">
        <ele>485.12</ele>
        <time>2019-05-01T12:57:24Z</time>
      </trkpt>
      <trkpt lat="43.38289" lon="5.4326">
        <ele>484.16</ele>
        <time>2019-05-01T12:57:38Z</time>
      </trkpt>
      <trkpt lat="43.38285" lon="5.43267">
        <ele>482.24</ele>
        <time>2019-05-01T12:57:51Z</time>
      </trkpt>
      <trkpt lat="43.3828" lon="5.43274">
        <ele>480.32</ele>
        <time>2019-05-01T12:58:06Z</time>
      </trkpt>
      <trkpt lat="43.38273" lon="5.43279">
        <ele>477.43</ele>
        <time>2019-05-01T12:58:18Z</time>
      </trkpt>
      <trkpt lat="43.38268" lon="5.43281">
        <ele>476.47</ele>
        <time>2019-05-01T12:58:32Z</time>
      </trkpt>
      <trkpt lat="43.38261" lon="5.43289">
        <ele>476.47</ele>
        <time>2019-05-01T12:58:50Z</time>
      </trkpt>
      <trkpt lat="43.38256" lon="5.43294">
        <ele>476.47</ele>
        <time>2019-05-01T12:59:01Z</time>
      </trkpt>
      <trkpt lat="43.38249" lon="5.43301">
        <ele>475.51</ele>
        <time>2019-05-01T12:59:14Z</time>
      </trkpt>
      <trkpt lat="43.38239" lon="5.43309">
        <ele>471.66</ele>
        <time>2019-05-01T12:59:29Z</time>
      </trkpt>
      <trkpt lat="43.38236" lon="5.43311">
        <ele>472.14</ele>
        <time>2019-05-01T12:59:34Z</time>
      </trkpt>
      <trkpt lat="43.38227" lon="5.43319">
        <ele>470.22</ele>
        <time>2019-05-01T12:59:49Z</time>
      </trkpt>
      <trkpt lat="43.38219" lon="5.43326">
        <ele>469.74</ele>
        <time>2019-05-01T13:00:02Z</time>
      </trkpt>
      <trkpt lat="43.38212" lon="5.43331">
        <ele>468.3</ele>
        <time>2019-05-01T13:00:13Z</time>
      </trkpt>
      <trkpt lat="43.38206" lon="5.43339">
        <ele>466.38</ele>
        <time>2019-05-01T13:00:26Z</time>
      </trkpt>
      <trkpt lat="43.38197" lon="5.43345">
        <ele>465.42</ele>
        <time>2019-05-01T13:00:38Z</time>
      </trkpt>
      <trkpt lat="43.38189" lon="5.4335">
        <ele>463.49</ele>
        <time>2019-05-01T13:00:50Z</time>
      </trkpt>
      <trkpt lat="43.38187" lon="5.4335">
        <ele>463.97</ele>
        <time>2019-05-01T13:01:04Z</time>
      </trkpt>
      <trkpt lat="43.38184" lon="5.43352">
        <ele>464.45</ele>
        <time>2019-05-01T13:01:21Z</time>
      </trkpt>
      <trkpt lat="43.3818" lon="5.43358">
        <ele>463.01</ele>
        <time>2019-05-01T13:01:33Z</time>
      </trkpt>
      <trkpt lat="43.38178" lon="5.4336">
        <ele>462.05</ele>
        <time>2019-05-01T13:01:46Z</time>
      </trkpt>
      <trkpt lat="43.38173" lon="5.43364">
        <ele>460.13</ele>
        <time>2019-05-01T13:01:58Z</time>
      </trkpt>
      <trkpt lat="43.38165" lon="5.43363">
        <ele>458.69</ele>
        <time>2019-05-01T13:02:12Z</time>
      </trkpt>
      <trkpt lat="43.38159" lon="5.43352">
        <ele>456.76</ele>
        <time>2019-05-01T13:02:26Z</time>
      </trkpt>
      <trkpt lat="43.38152" lon="5.43338">
        <ele>456.28</ele>
        <time>2019-05-01T13:02:41Z</time>
      </trkpt>
      <trkpt lat="43.38149" lon="5.4333">
        <ele>455.8</ele>
        <time>2019-05-01T13:02:54Z</time>
      </trkpt>
      <trkpt lat="43.38148" lon="5.43329">
        <ele>456.28</ele>
        <time>2019-05-01T13:03:26Z</time>
      </trkpt>
      <trkpt lat="43.38146" lon="5.43323">
        <ele>455.32</ele>
        <time>2019-05-01T13:03:43Z</time>
      </trkpt>
      <trkpt lat="43.38142" lon="5.43313">
        <ele>454.84</ele>
        <time>2019-05-01T13:03:56Z</time>
      </trkpt>
      <trkpt lat="43.38136" lon="5.43301">
        <ele>453.88</ele>
        <time>2019-05-01T13:04:10Z</time>
      </trkpt>
      <trkpt lat="43.3813" lon="5.43289">
        <ele>452.92</ele>
        <time>2019-05-01T13:04:24Z</time>
      </trkpt>
      <trkpt lat="43.38122" lon="5.43283">
        <ele>451.48</ele>
        <time>2019-05-01T13:04:37Z</time>
      </trkpt>
      <trkpt lat="43.38117" lon="5.43281">
        <ele>450.03</ele>
        <time>2019-05-01T13:04:51Z</time>
      </trkpt>
      <trkpt lat="43.38112" lon="5.43281">
        <ele>449.07</ele>
        <time>2019-05-01T13:05:01Z</time>
      </trkpt>
      <trkpt lat="43.38108" lon="5.43275">
        <ele>448.59</ele>
        <time>2019-05-01T13:05:15Z</time>
      </trkpt>
      <trkpt lat="43.38107" lon="5.43265">
        <ele>447.15</ele>
        <time>2019-05-01T13:05:27Z</time>
      </trkpt>
      <trkpt lat="43.38109" lon="5.43251">
        <ele>446.67</ele>
        <time>2019-05-01T13:05:40Z</time>
      </trkpt>
      <trkpt lat="43.38111" lon="5.43245">
        <ele>446.67</ele>
        <time>2019-05-01T13:05:47Z</time>
      </trkpt>
      <trkpt lat="43.38118" lon="5.4323">
        <ele>445.71</ele>
        <time>2019-05-01T13:06:02Z</time>
      </trkpt>
      <trkpt lat="43.38126" lon="5.4322">
        <ele>443.79</ele>
        <time>2019-05-01T13:06:14Z</time>
      </trkpt>
      <trkpt lat="43.38135" lon="5.43212">
        <ele>445.23</ele>
        <time>2019-05-01T13:06:29Z</time>
      </trkpt>
      <trkpt lat="43.38146" lon="5.43204">
        <ele>444.27</ele>
        <time>2019-05-01T13:06:43Z</time>
      </trkpt>
      <trkpt lat="43.38151" lon="5.43198">
        <ele>442.34</ele>
        <time>2019-05-01T13:06:54Z</time>
      </trkpt>
      <trkpt lat="43.38158" lon="5.4319">
        <ele>440.9</ele>
        <time>2019-05-01T13:07:06Z</time>
      </trkpt>
      <trkpt lat="43.38166" lon="5.43182">
        <ele>439.46</ele>
        <time>2019-05-01T13:07:18Z</time>
      </trkpt>
      <trkpt lat="43.38172" lon="5.43173">
        <ele>438.98</ele>
        <time>2019-05-01T13:07:29Z</time>
      </trkpt>
      <trkpt lat="43.38177" lon="5.43166">
        <ele>438.5</ele>
        <time>2019-05-01T13:07:40Z</time>
      </trkpt>
      <trkpt lat="43.38183" lon="5.43156">
        <ele>437.54</ele>
        <time>2019-05-01T13:07:52Z</time>
      </trkpt>
      <trkpt lat="43.38189" lon="5.43149">
        <ele>438.02</ele>
        <time>2019-05-01T13:08:04Z</time>
      </trkpt>
      <trkpt lat="43.38194" lon="5.43144">
        <ele>438.5</ele>
        <time>2019-05-01T13:08:17Z</time>
      </trkpt>
      <trkpt lat="43.38199" lon="5.4313">
        <ele>438.02</ele>
        <time>2019-05-01T13:08:31Z</time>
      </trkpt>
      <trkpt lat="43.38201" lon="5.43125">
        <ele>438.02</ele>
        <time>2019-05-01T13:08:36Z</time>
      </trkpt>
      <trkpt lat="43.38202" lon="5.43109">
        <ele>439.94</ele>
        <time>2019-05-01T13:08:50Z</time>
      </trkpt>
      <trkpt lat="43.38193" lon="5.43096">
        <ele>436.58</ele>
        <time>2019-05-01T13:09:07Z</time>
      </trkpt>
      <trkpt lat="43.38187" lon="5.43097">
        <ele>434.65</ele>
        <time>2019-05-01T13:09:17Z</time>
      </trkpt>
      <trkpt lat="43.38181" lon="5.43101">
        <ele>434.17</ele>
        <time>2019-05-01T13:09:27Z</time>
      </trkpt>
      <trkpt lat="43.3817" lon="5.43096">
        <ele>432.73</ele>
        <time>2019-05-01T13:09:42Z</time>
      </trkpt>
      <trkpt lat="43.38159" lon="5.4309">
        <ele>433.21</ele>
        <time>2019-05-01T13:09:55Z</time>
      </trkpt>
      <trkpt lat="43.38152" lon="5.43085">
        <ele>434.17</ele>
        <time>2019-05-01T13:10:04Z</time>
      </trkpt>
      <trkpt lat="43.38142" lon="5.43077">
        <ele>433.21</ele>
        <time>2019-05-01T13:10:18Z</time>
      </trkpt>
      <trkpt lat="43.38133" lon="5.43073">
        <ele>432.25</ele>
        <time>2019-05-01T13:10:32Z</time>
      </trkpt>
      <trkpt lat="43.38122" lon="5.43066">
        <ele>429.37</ele>
        <time>2019-05-01T13:10:49Z</time>
      </trkpt>
      <trkpt lat="43.38113" lon="5.43059">
        <ele>429.37</ele>
        <time>2019-05-01T13:11:04Z</time>
      </trkpt>
      <trkpt lat="43.38107" lon="5.43048">
        <ele>427.92</ele>
        <time>2019-05-01T13:11:18Z</time>
      </trkpt>
      <trkpt lat="43.38107" lon="5.4303">
        <ele>426.48</ele>
        <time>2019-05-01T13:11:36Z</time>
      </trkpt>
      <trkpt lat="43.38108" lon="5.43017">
        <ele>425.52</ele>
        <time>2019-05-01T13:11:49Z</time>
      </trkpt>
      <trkpt lat="43.38104" lon="5.43002">
        <ele>423.12</ele>
        <time>2019-05-01T13:12:04Z</time>
      </trkpt>
      <trkpt lat="43.381" lon="5.42988">
        <ele>422.64</ele>
        <time>2019-05-01T13:12:18Z</time>
      </trkpt>
      <trkpt lat="43.38099" lon="5.42985">
        <ele>422.64</ele>
        <time>2019-05-01T13:12:20Z</time>
      </trkpt>
      <trkpt lat="43.38095" lon="5.42976">
        <ele>422.64</ele>
        <time>2019-05-01T13:12:32Z</time>
      </trkpt>
      <trkpt lat="43.38093" lon="5.42971">
        <ele>421.19</ele>
        <time>2019-05-01T13:12:39Z</time>
      </trkpt>
      <trkpt lat="43.38092" lon="5.42967">
        <ele>420.23</ele>
        <time>2019-05-01T13:12:43Z</time>
      </trkpt>
      <trkpt lat="43.38089" lon="5.42965">
        <ele>419.75</ele>
        <time>2019-05-01T13:12:54Z</time>
      </trkpt>
      <trkpt lat="43.38086" lon="5.42959">
        <ele>418.79</ele>
        <time>2019-05-01T13:13:04Z</time>
      </trkpt>
      <trkpt lat="43.38083" lon="5.42953">
        <ele>418.79</ele>
        <time>2019-05-01T13:13:18Z</time>
      </trkpt>
      <trkpt lat="43.38075" lon="5.42943">
        <ele>416.87</ele>
        <time>2019-05-01T13:13:32Z</time>
      </trkpt>
      <trkpt lat="43.38066" lon="5.42946">
        <ele>413.98</ele>
        <time>2019-05-01T13:13:44Z</time>
      </trkpt>
      <trkpt lat="43.38064" lon="5.42959">
        <ele>412.54</ele>
        <time>2019-05-01T13:13:55Z</time>
      </trkpt>
      <trkpt lat="43.38066" lon="5.42973">
        <ele>412.06</ele>
        <time>2019-05-01T13:14:08Z</time>
      </trkpt>
      <trkpt lat="43.38065" lon="5.42985">
        <ele>408.7</ele>
        <time>2019-05-01T13:14:20Z</time>
      </trkpt>
      <trkpt lat="43.38061" lon="5.42993">
        <ele>406.29</ele>
        <time>2019-05-01T13:14:31Z</time>
      </trkpt>
      <trkpt lat="43.38051" lon="5.43003">
        <ele>406.29</ele>
        <time>2019-05-01T13:14:46Z</time>
      </trkpt>
      <trkpt lat="43.38051" lon="5.43004">
        <ele>406.29</ele>
        <time>2019-05-01T13:14:47Z</time>
      </trkpt>
      <trkpt lat="43.38043" lon="5.43016">
        <ele>404.85</ele>
        <time>2019-05-01T13:15:01Z</time>
      </trkpt>
      <trkpt lat="43.38036" lon="5.43029">
        <ele>404.37</ele>
        <time>2019-05-01T13:15:16Z</time>
      </trkpt>
      <trkpt lat="43.38028" lon="5.43043">
        <ele>402.93</ele>
        <time>2019-05-01T13:15:31Z</time>
      </trkpt>
      <trkpt lat="43.38028" lon="5.43042">
        <ele>402.93</ele>
        <time>2019-05-01T13:15:51Z</time>
      </trkpt>
      <trkpt lat="43.38028" lon="5.43043">
        <ele>404.85</ele>
        <time>2019-05-01T13:16:16Z</time>
      </trkpt>
      <trkpt lat="43.38027" lon="5.43043">
        <ele>404.37</ele>
        <time>2019-05-01T13:16:38Z</time>
      </trkpt>
      <trkpt lat="43.38018" lon="5.43049">
        <ele>404.85</ele>
        <time>2019-05-01T13:16:53Z</time>
      </trkpt>
      <trkpt lat="43.38007" lon="5.43056">
        <ele>402.45</ele>
        <time>2019-05-01T13:17:09Z</time>
      </trkpt>
      <trkpt lat="43.37999" lon="5.43058">
        <ele>401.49</ele>
        <time>2019-05-01T13:17:20Z</time>
      </trkpt>
      <trkpt lat="43.3799" lon="5.43061">
        <ele>400.05</ele>
        <time>2019-05-01T13:17:32Z</time>
      </trkpt>
      <trkpt lat="43.37981" lon="5.43061">
        <ele>398.6</ele>
        <time>2019-05-01T13:17:44Z</time>
      </trkpt>
      <trkpt lat="43.37969" lon="5.43057">
        <ele>397.64</ele>
        <time>2019-05-01T13:17:59Z</time>
      </trkpt>
      <trkpt lat="43.3796" lon="5.43055">
        <ele>396.2</ele>
        <time>2019-05-01T13:18:09Z</time>
      </trkpt>
      <trkpt lat="43.37953" lon="5.43053">
        <ele>396.68</ele>
        <time>2019-05-01T13:18:17Z</time>
      </trkpt>
      <trkpt lat="43.3794" lon="5.43052">
        <ele>395.72</ele>
        <time>2019-05-01T13:18:32Z</time>
      </trkpt>
      <trkpt lat="43.37934" lon="5.43053">
        <ele>394.76</ele>
        <time>2019-05-01T13:18:40Z</time>
      </trkpt>
      <trkpt lat="43.37923" lon="5.43058">
        <ele>394.28</ele>
        <time>2019-05-01T13:18:55Z</time>
      </trkpt>
      <trkpt lat="43.37922" lon="5.43059">
        <ele>396.2</ele>
        <time>2019-05-01T13:19:14Z</time>
      </trkpt>
      <trkpt lat="43.37916" lon="5.43068">
        <ele>394.28</ele>
        <time>2019-05-01T13:19:22Z</time>
      </trkpt>
      <trkpt lat="43.37909" lon="5.43082">
        <ele>393.8</ele>
        <time>2019-05-01T13:19:35Z</time>
      </trkpt>
      <trkpt lat="43.37906" lon="5.43092">
        <ele>393.32</ele>
        <time>2019-05-01T13:19:47Z</time>
      </trkpt>
      <trkpt lat="43.37908" lon="5.43096">
        <ele>395.24</ele>
        <time>2019-05-01T13:19:59Z</time>
      </trkpt>
      <trkpt lat="43.37911" lon="5.43099">
        <ele>394.76</ele>
        <time>2019-05-01T13:20:33Z</time>
      </trkpt>
      <trkpt lat="43.37909" lon="5.43097">
        <ele>394.76</ele>
        <time>2019-05-01T13:20:50Z</time>
      </trkpt>
      <trkpt lat="43.37909" lon="5.43097">
        <ele>394.76</ele>
        <time>2019-05-01T13:21:11Z</time>
      </trkpt>
      <trkpt lat="43.37908" lon="5.43094">
        <ele>393.8</ele>
        <time>2019-05-01T13:21:20Z</time>
      </trkpt>
      <trkpt lat="43.37902" lon="5.43093">
        <ele>392.84</ele>
        <time>2019-05-01T13:21:24Z</time>
      </trkpt>
      <trkpt lat="43.37894" lon="5.43117">
        <ele>389.95</ele>
        <time>2019-05-01T13:21:37Z</time>
      </trkpt>
      <trkpt lat="43.37883" lon="5.43139">
        <ele>388.51</ele>
        <time>2019-05-01T13:21:49Z</time>
      </trkpt>
      <trkpt lat="43.37872" lon="5.4316">
        <ele>386.11</ele>
        <time>2019-05-01T13:22:00Z</time>
      </trkpt>
      <trkpt lat="43.37858" lon="5.43179">
        <ele>383.7</ele>
        <time>2019-05-01T13:22:13Z</time>
      </trkpt>
      <trkpt lat="43.37854" lon="5.43186">
        <ele>383.7</ele>
        <time>2019-05-01T13:22:17Z</time>
      </trkpt>
      <trkpt lat="43.37848" lon="5.43195">
        <ele>381.78</ele>
        <time>2019-05-01T13:22:23Z</time>
      </trkpt>
      <trkpt lat="43.37847" lon="5.43197">
        <ele>380.82</ele>
        <time>2019-05-01T13:22:25Z</time>
      </trkpt>
      <trkpt lat="43.37846" lon="5.432">
        <ele>380.34</ele>
        <time>2019-05-01T13:22:26Z</time>
      </trkpt>
      <trkpt lat="43.37845" lon="5.43201">
        <ele>379.86</ele>
        <time>2019-05-01T13:22:27Z</time>
      </trkpt>
      <trkpt lat="43.37844" lon="5.43202">
        <ele>379.38</ele>
        <time>2019-05-01T13:22:28Z</time>
      </trkpt>
      <trkpt lat="43.37843" lon="5.43203">
        <ele>379.38</ele>
        <time>2019-05-01T13:22:29Z</time>
      </trkpt>
      <trkpt lat="43.37842" lon="5.43205">
        <ele>378.9</ele>
        <time>2019-05-01T13:22:30Z</time>
      </trkpt>
      <trkpt lat="43.37842" lon="5.43206">
        <ele>378.9</ele>
        <time>2019-05-01T13:22:31Z</time>
      </trkpt>
      <trkpt lat="43.3784" lon="5.43209">
        <ele>378.42</ele>
        <time>2019-05-01T13:22:32Z</time>
      </trkpt>
      <trkpt lat="43.37834" lon="5.4322">
        <ele>377.45</ele>
        <time>2019-05-01T13:22:39Z</time>
      </trkpt>
      <trkpt lat="43.37833" lon="5.43222">
        <ele>376.97</ele>
        <time>2019-05-01T13:22:40Z</time>
      </trkpt>
      <trkpt lat="43.37832" lon="5.43224">
        <ele>376.97</ele>
        <time>2019-05-01T13:22:41Z</time>
      </trkpt>
      <trkpt lat="43.37831" lon="5.43225">
        <ele>376.97</ele>
        <time>2019-05-01T13:22:42Z</time>
      </trkpt>
      <trkpt lat="43.3783" lon="5.43227">
        <ele>376.97</ele>
        <time>2019-05-01T13:22:43Z</time>
      </trkpt>
      <trkpt lat="43.37826" lon="5.43234">
        <ele>377.94</ele>
        <time>2019-05-01T13:22:59Z</time>
      </trkpt>
      <trkpt lat="43.37826" lon="5.43235">
        <ele>381.78</ele>
        <time>2019-05-01T13:23:29Z</time>
      </trkpt>
      <trkpt lat="43.37824" lon="5.43235">
        <ele>380.82</ele>
        <time>2019-05-01T13:23:55Z</time>
      </trkpt>
      <trkpt lat="43.37822" lon="5.43234">
        <ele>380.82</ele>
        <time>2019-05-01T13:23:56Z</time>
      </trkpt>
      <trkpt lat="43.37821" lon="5.43233">
        <ele>380.34</ele>
        <time>2019-05-01T13:23:57Z</time>
      </trkpt>
      <trkpt lat="43.3782" lon="5.43233">
        <ele>379.86</ele>
        <time>2019-05-01T13:23:58Z</time>
      </trkpt>
      <trkpt lat="43.37819" lon="5.43233">
        <ele>379.86</ele>
        <time>2019-05-01T13:23:59Z</time>
      </trkpt>
      <trkpt lat="43.37818" lon="5.43233">
        <ele>379.38</ele>
        <time>2019-05-01T13:24:00Z</time>
      </trkpt>
      <trkpt lat="43.37817" lon="5.43233">
        <ele>378.9</ele>
        <time>2019-05-01T13:24:01Z</time>
      </trkpt>
      <trkpt lat="43.37816" lon="5.43234">
        <ele>378.9</ele>
        <time>2019-05-01T13:24:02Z</time>
      </trkpt>
      <trkpt lat="43.37815" lon="5.43235">
        <ele>378.9</ele>
        <time>2019-05-01T13:24:03Z</time>
      </trkpt>
      <trkpt lat="43.37815" lon="5.43234">
        <ele>378.42</ele>
        <time>2019-05-01T13:24:15Z</time>
      </trkpt>
      <trkpt lat="43.3781" lon="5.43234">
        <ele>376.97</ele>
        <time>2019-05-01T13:24:29Z</time>
      </trkpt>
      <trkpt lat="43.37807" lon="5.43231">
        <ele>376.49</ele>
        <time>2019-05-01T13:24:35Z</time>
      </trkpt>
      <trkpt lat="43.37802" lon="5.43225">
        <ele>376.49</ele>
        <time>2019-05-01T13:24:47Z</time>
      </trkpt>
      <trkpt lat="43.37802" lon="5.43224">
        <ele>376.97</ele>
        <time>2019-05-01T13:24:48Z</time>
      </trkpt>
      <trkpt lat="43.378" lon="5.43211">
        <ele>376.49</ele>
        <time>2019-05-01T13:25:01Z</time>
      </trkpt>
      <trkpt lat="43.37798" lon="5.43198">
        <ele>375.53</ele>
        <time>2019-05-01T13:25:15Z</time>
      </trkpt>
      <trkpt lat="43.37798" lon="5.4319">
        <ele>374.57</ele>
        <time>2019-05-01T13:25:27Z</time>
      </trkpt>
      <trkpt lat="43.37797" lon="5.43178">
        <ele>372.65</ele>
        <time>2019-05-01T13:25:41Z</time>
      </trkpt>
      <trkpt lat="43.37792" lon="5.43174">
        <ele>370.24</ele>
        <time>2019-05-01T13:25:51Z</time>
      </trkpt>
      <trkpt lat="43.37788" lon="5.43169">
        <ele>370.24</ele>
        <time>2019-05-01T13:26:02Z</time>
      </trkpt>
      <trkpt lat="43.37785" lon="5.43168">
        <ele>370.73</ele>
        <time>2019-05-01T13:26:05Z</time>
      </trkpt>
      <trkpt lat="43.37777" lon="5.43164">
        <ele>369.76</ele>
        <time>2019-05-01T13:26:18Z</time>
      </trkpt>
      <trkpt lat="43.37772" lon="5.43162">
        <ele>368.32</ele>
        <time>2019-05-01T13:26:28Z</time>
      </trkpt>
      <trkpt lat="43.37767" lon="5.43157">
        <ele>366.88</ele>
        <time>2019-05-01T13:26:40Z</time>
      </trkpt>
      <trkpt lat="43.37763" lon="5.43153">
        <ele>365.92</ele>
        <time>2019-05-01T13:26:53Z</time>
      </trkpt>
      <trkpt lat="43.37759" lon="5.43151">
        <ele>361.59</ele>
        <time>2019-05-01T13:27:03Z</time>
      </trkpt>
      <trkpt lat="43.37755" lon="5.43151">
        <ele>358.71</ele>
        <time>2019-05-01T13:27:14Z</time>
      </trkpt>
      <trkpt lat="43.37753" lon="5.4315">
        <ele>358.71</ele>
        <time>2019-05-01T13:27:21Z</time>
      </trkpt>
      <trkpt lat="43.37744" lon="5.4315">
        <ele>358.71</ele>
        <time>2019-05-01T13:27:33Z</time>
      </trkpt>
      <trkpt lat="43.3773" lon="5.43143">
        <ele>359.19</ele>
        <time>2019-05-01T13:27:51Z</time>
      </trkpt>
      <trkpt lat="43.37719" lon="5.43135">
        <ele>359.19</ele>
        <time>2019-05-01T13:28:04Z</time>
      </trkpt>
      <trkpt lat="43.37711" lon="5.43128">
        <ele>360.15</ele>
        <time>2019-05-01T13:28:13Z</time>
      </trkpt>
      <trkpt lat="43.3771" lon="5.43127">
        <ele>360.15</ele>
        <time>2019-05-01T13:28:14Z</time>
      </trkpt>
      <trkpt lat="43.37701" lon="5.43114">
        <ele>360.15</ele>
        <time>2019-05-01T13:28:28Z</time>
      </trkpt>
      <trkpt lat="43.37692" lon="5.43101">
        <ele>359.19</ele>
        <time>2019-05-01T13:28:43Z</time>
      </trkpt>
      <trkpt lat="43.37691" lon="5.43099">
        <ele>359.19</ele>
        <time>2019-05-01T13:28:45Z</time>
      </trkpt>
      <trkpt lat="43.37684" lon="5.43088">
        <ele>358.71</ele>
        <time>2019-05-01T13:28:57Z</time>
      </trkpt>
      <trkpt lat="43.37676" lon="5.43073">
        <ele>356.79</ele>
        <time>2019-05-01T13:29:13Z</time>
      </trkpt>
      <trkpt lat="43.37669" lon="5.43064">
        <ele>355.34</ele>
        <time>2019-05-01T13:29:25Z</time>
      </trkpt>
      <trkpt lat="43.3766" lon="5.43054">
        <ele>353.42</ele>
        <time>2019-05-01T13:29:39Z</time>
      </trkpt>
      <trkpt lat="43.37653" lon="5.43049">
        <ele>351.5</ele>
        <time>2019-05-01T13:29:50Z</time>
      </trkpt>
      <trkpt lat="43.37642" lon="5.43043">
        <ele>350.54</ele>
        <time>2019-05-01T13:30:04Z</time>
      </trkpt>
      <trkpt lat="43.37632" lon="5.43037">
        <ele>350.54</ele>
        <time>2019-05-01T13:30:17Z</time>
      </trkpt>
      <trkpt lat="43.37621" lon="5.4303">
        <ele>349.58</ele>
        <time>2019-05-01T13:30:31Z</time>
      </trkpt>
      <trkpt lat="43.37616" lon="5.43027">
        <ele>351.02</ele>
        <time>2019-05-01T13:30:48Z</time>
      </trkpt>
      <trkpt lat="43.37613" lon="5.43026">
        <ele>349.1</ele>
        <time>2019-05-01T13:30:59Z</time>
      </trkpt>
      <trkpt lat="43.37603" lon="5.43021">
        <ele>350.06</ele>
        <time>2019-05-01T13:31:11Z</time>
      </trkpt>
      <trkpt lat="43.37593" lon="5.43019">
        <ele>348.62</ele>
        <time>2019-05-01T13:31:24Z</time>
      </trkpt>
      <trkpt lat="43.37582" lon="5.43014">
        <ele>347.17</ele>
        <time>2019-05-01T13:31:38Z</time>
      </trkpt>
      <trkpt lat="43.37574" lon="5.43012">
        <ele>347.17</ele>
        <time>2019-05-01T13:31:51Z</time>
      </trkpt>
      <trkpt lat="43.37565" lon="5.43012">
        <ele>346.69</ele>
        <time>2019-05-01T13:32:03Z</time>
      </trkpt>
      <trkpt lat="43.37564" lon="5.43011">
        <ele>347.17</ele>
        <time>2019-05-01T13:32:06Z</time>
      </trkpt>
      <trkpt lat="43.37558" lon="5.4301">
        <ele>347.17</ele>
        <time>2019-05-01T13:32:13Z</time>
      </trkpt>
      <trkpt lat="43.37547" lon="5.43012">
        <ele>345.25</ele>
        <time>2019-05-01T13:32:27Z</time>
      </trkpt>
      <trkpt lat="43.37537" lon="5.43018">
        <ele>342.85</ele>
        <time>2019-05-01T13:32:40Z</time>
      </trkpt>
      <trkpt lat="43.37536" lon="5.43018">
        <ele>342.85</ele>
        <time>2019-05-01T13:32:41Z</time>
      </trkpt>
      <trkpt lat="43.37533" lon="5.43022">
        <ele>342.85</ele>
        <time>2019-05-01T13:32:54Z</time>
      </trkpt>
      <trkpt lat="43.37533" lon="5.43022">
        <ele>342.37</ele>
        <time>2019-05-01T13:33:13Z</time>
      </trkpt>
      <trkpt lat="43.3753" lon="5.43026">
        <ele>342.37</ele>
        <time>2019-05-01T13:33:25Z</time>
      </trkpt>
      <trkpt lat="43.37529" lon="5.43027">
        <ele>341.41</ele>
        <time>2019-05-01T13:33:55Z</time>
      </trkpt>
      <trkpt lat="43.3753" lon="5.43027">
        <ele>341.41</ele>
        <time>2019-05-01T13:34:07Z</time>
      </trkpt>
      <trkpt lat="43.37532" lon="5.43027">
        <ele>339.48</ele>
        <time>2019-05-01T13:34:21Z</time>
      </trkpt>
      <trkpt lat="43.37532" lon="5.43026">
        <ele>340.92</ele>
        <time>2019-05-01T13:34:51Z</time>
      </trkpt>
      <trkpt lat="43.37532" lon="5.43027">
        <ele>342.37</ele>
        <time>2019-05-01T13:35:14Z</time>
      </trkpt>
      <trkpt lat="43.37529" lon="5.43026">
        <ele>342.85</ele>
        <time>2019-05-01T13:35:43Z</time>
      </trkpt>
      <trkpt lat="43.37529" lon="5.43025">
        <ele>344.29</ele>
        <time>2019-05-01T13:36:01Z</time>
      </trkpt>
      <trkpt lat="43.3752" lon="5.4303">
        <ele>342.85</ele>
        <time>2019-05-01T13:36:13Z</time>
      </trkpt>
      <trkpt lat="43.37508" lon="5.43039">
        <ele>341.89</ele>
        <time>2019-05-01T13:36:29Z</time>
      </trkpt>
      <trkpt lat="43.37499" lon="5.43048">
        <ele>340.92</ele>
        <time>2019-05-01T13:36:42Z</time>
      </trkpt>
      <trkpt lat="43.37496" lon="5.43051">
        <ele>342.37</ele>
        <time>2019-05-01T13:36:50Z</time>
      </trkpt>
      <trkpt lat="43.37492" lon="5.43052">
        <ele>343.33</ele>
        <time>2019-05-01T13:36:55Z</time>
      </trkpt>
      <trkpt lat="43.37482" lon="5.43057">
        <ele>340.92</ele>
        <time>2019-05-01T13:37:08Z</time>
      </trkpt>
      <trkpt lat="43.3747" lon="5.43068">
        <ele>339</ele>
        <time>2019-05-01T13:37:22Z</time>
      </trkpt>
      <trkpt lat="43.37469" lon="5.43068">
        <ele>339</ele>
        <time>2019-05-01T13:37:23Z</time>
      </trkpt>
      <trkpt lat="43.37468" lon="5.43069">
        <ele>338.52</ele>
        <time>2019-05-01T13:37:24Z</time>
      </trkpt>
      <trkpt lat="43.37457" lon="5.43082">
        <ele>335.64</ele>
        <time>2019-05-01T13:37:40Z</time>
      </trkpt>
      <trkpt lat="43.37445" lon="5.43091">
        <ele>334.2</ele>
        <time>2019-05-01T13:37:55Z</time>
      </trkpt>
      <trkpt lat="43.37442" lon="5.43091">
        <ele>333.71</ele>
        <time>2019-05-01T13:38:09Z</time>
      </trkpt>
      <trkpt lat="43.37436" lon="5.43099">
        <ele>333.23</ele>
        <time>2019-05-01T13:38:20Z</time>
      </trkpt>
      <trkpt lat="43.37424" lon="5.43107">
        <ele>332.75</ele>
        <time>2019-05-01T13:38:34Z</time>
      </trkpt>
      <trkpt lat="43.37417" lon="5.43108">
        <ele>331.79</ele>
        <time>2019-05-01T13:38:46Z</time>
      </trkpt>
      <trkpt lat="43.37415" lon="5.43109">
        <ele>331.31</ele>
        <time>2019-05-01T13:38:49Z</time>
      </trkpt>
      <trkpt lat="43.37411" lon="5.4311">
        <ele>330.83</ele>
        <time>2019-05-01T13:38:53Z</time>
      </trkpt>
      <trkpt lat="43.37401" lon="5.43119">
        <ele>328.91</ele>
        <time>2019-05-01T13:39:07Z</time>
      </trkpt>
      <trkpt lat="43.37396" lon="5.43123">
        <ele>328.43</ele>
        <time>2019-05-01T13:39:14Z</time>
      </trkpt>
      <trkpt lat="43.37387" lon="5.43132">
        <ele>327.47</ele>
        <time>2019-05-01T13:39:26Z</time>
      </trkpt>
      <trkpt lat="43.3738" lon="5.43138">
        <ele>326.5</ele>
        <time>2019-05-01T13:39:35Z</time>
      </trkpt>
      <trkpt lat="43.37379" lon="5.43139">
        <ele>326.5</ele>
        <time>2019-05-01T13:39:36Z</time>
      </trkpt>
      <trkpt lat="43.37371" lon="5.43147">
        <ele>326.02</ele>
        <time>2019-05-01T13:39:48Z</time>
      </trkpt>
      <trkpt lat="43.37366" lon="5.43153">
        <ele>324.58</ele>
        <time>2019-05-01T13:39:55Z</time>
      </trkpt>
      <trkpt lat="43.37358" lon="5.43162">
        <ele>321.7</ele>
        <time>2019-05-01T13:40:08Z</time>
      </trkpt>
      <trkpt lat="43.37349" lon="5.43169">
        <ele>321.7</ele>
        <time>2019-05-01T13:40:21Z</time>
      </trkpt>
      <trkpt lat="43.37341" lon="5.43179">
        <ele>321.7</ele>
        <time>2019-05-01T13:40:33Z</time>
      </trkpt>
      <trkpt lat="43.37331" lon="5.43188">
        <ele>320.26</ele>
        <time>2019-05-01T13:40:46Z</time>
      </trkpt>
      <trkpt lat="43.37325" lon="5.43192">
        <ele>320.26</ele>
        <time>2019-05-01T13:40:52Z</time>
      </trkpt>
      <trkpt lat="43.37321" lon="5.43196">
        <ele>319.78</ele>
        <time>2019-05-01T13:40:58Z</time>
      </trkpt>
      <trkpt lat="43.3731" lon="5.43204">
        <ele>318.33</ele>
        <time>2019-05-01T13:41:13Z</time>
      </trkpt>
      <trkpt lat="43.373" lon="5.43213">
        <ele>315.93</ele>
        <time>2019-05-01T13:41:26Z</time>
      </trkpt>
      <trkpt lat="43.37295" lon="5.43217">
        <ele>314.97</ele>
        <time>2019-05-01T13:41:33Z</time>
      </trkpt>
      <trkpt lat="43.37285" lon="5.43224">
        <ele>311.6</ele>
        <time>2019-05-01T13:41:46Z</time>
      </trkpt>
      <trkpt lat="43.37283" lon="5.43225">
        <ele>311.6</ele>
        <time>2019-05-01T13:41:48Z</time>
      </trkpt>
      <trkpt lat="43.37273" lon="5.4323">
        <ele>311.12</ele>
        <time>2019-05-01T13:42:00Z</time>
      </trkpt>
      <trkpt lat="43.37261" lon="5.43234">
        <ele>311.12</ele>
        <time>2019-05-01T13:42:14Z</time>
      </trkpt>
      <trkpt lat="43.37255" lon="5.43237">
        <ele>311.12</ele>
        <time>2019-05-01T13:42:22Z</time>
      </trkpt>
      <trkpt lat="43.37253" lon="5.43238">
        <ele>311.12</ele>
        <time>2019-05-01T13:42:24Z</time>
      </trkpt>
      <trkpt lat="43.37248" lon="5.43242">
        <ele>310.16</ele>
        <time>2019-05-01T13:42:29Z</time>
      </trkpt>
      <trkpt lat="43.37238" lon="5.43246">
        <ele>309.2</ele>
        <time>2019-05-01T13:42:41Z</time>
      </trkpt>
      <trkpt lat="43.37231" lon="5.43247">
        <ele>309.2</ele>
        <time>2019-05-01T13:42:49Z</time>
      </trkpt>
      <trkpt lat="43.37218" lon="5.43247">
        <ele>307.28</ele>
        <time>2019-05-01T13:43:04Z</time>
      </trkpt>
      <trkpt lat="43.37206" lon="5.43253">
        <ele>303.91</ele>
        <time>2019-05-01T13:43:18Z</time>
      </trkpt>
      <trkpt lat="43.37197" lon="5.43261">
        <ele>301.99</ele>
        <time>2019-05-01T13:43:32Z</time>
      </trkpt>
      <trkpt lat="43.3719" lon="5.43269">
        <ele>301.99</ele>
        <time>2019-05-01T13:43:43Z</time>
      </trkpt>
      <trkpt lat="43.37179" lon="5.43278">
        <ele>301.03</ele>
        <time>2019-05-01T13:43:56Z</time>
      </trkpt>
      <trkpt lat="43.37169" lon="5.43289">
        <ele>299.11</ele>
        <time>2019-05-01T13:44:10Z</time>
      </trkpt>
      <trkpt lat="43.37161" lon="5.43295">
        <ele>297.67</ele>
        <time>2019-05-01T13:44:24Z</time>
      </trkpt>
      <trkpt lat="43.37154" lon="5.43298">
        <ele>296.7</ele>
        <time>2019-05-01T13:44:35Z</time>
      </trkpt>
      <trkpt lat="43.37151" lon="5.43298">
        <ele>295.74</ele>
        <time>2019-05-01T13:44:42Z</time>
      </trkpt>
      <trkpt lat="43.3715" lon="5.43299">
        <ele>295.26</ele>
        <time>2019-05-01T13:44:43Z</time>
      </trkpt>
      <trkpt lat="43.37149" lon="5.433">
        <ele>295.26</ele>
        <time>2019-05-01T13:44:44Z</time>
      </trkpt>
      <trkpt lat="43.37147" lon="5.4331">
        <ele>294.78</ele>
        <time>2019-05-01T13:44:52Z</time>
      </trkpt>
      <trkpt lat="43.37145" lon="5.43317">
        <ele>294.3</ele>
        <time>2019-05-01T13:44:58Z</time>
      </trkpt>
      <trkpt lat="43.37145" lon="5.43318">
        <ele>293.82</ele>
        <time>2019-05-01T13:44:59Z</time>
      </trkpt>
      <trkpt lat="43.37141" lon="5.43331">
        <ele>291.9</ele>
        <time>2019-05-01T13:45:11Z</time>
      </trkpt>
      <trkpt lat="43.37133" lon="5.43347">
        <ele>291.9</ele>
        <time>2019-05-01T13:45:23Z</time>
      </trkpt>
      <trkpt lat="43.37127" lon="5.4336">
        <ele>291.9</ele>
        <time>2019-05-01T13:45:35Z</time>
      </trkpt>
      <trkpt lat="43.37119" lon="5.4337">
        <ele>290.94</ele>
        <time>2019-05-01T13:45:48Z</time>
      </trkpt>
      <trkpt lat="43.37111" lon="5.43375">
        <ele>289.97</ele>
        <time>2019-05-01T13:45:58Z</time>
      </trkpt>
      <trkpt lat="43.37101" lon="5.43384">
        <ele>289.49</ele>
        <time>2019-05-01T13:46:10Z</time>
      </trkpt>
      <trkpt lat="43.37093" lon="5.4339">
        <ele>289.97</ele>
        <time>2019-05-01T13:46:20Z</time>
      </trkpt>
      <trkpt lat="43.37092" lon="5.43391">
        <ele>290.46</ele>
        <time>2019-05-01T13:46:21Z</time>
      </trkpt>
      <trkpt lat="43.37091" lon="5.43392">
        <ele>289.97</ele>
        <time>2019-05-01T13:46:22Z</time>
      </trkpt>
      <trkpt lat="43.37085" lon="5.43397">
        <ele>290.94</ele>
        <time>2019-05-01T13:46:29Z</time>
      </trkpt>
      <trkpt lat="43.37074" lon="5.43403">
        <ele>294.78</ele>
        <time>2019-05-01T13:46:44Z</time>
      </trkpt>
      <trkpt lat="43.3707" lon="5.43403">
        <ele>296.7</ele>
        <time>2019-05-01T13:46:49Z</time>
      </trkpt>
      <trkpt lat="43.37062" lon="5.43407">
        <ele>297.67</ele>
        <time>2019-05-01T13:47:00Z</time>
      </trkpt>
      <trkpt lat="43.37052" lon="5.43409">
        <ele>299.59</ele>
        <time>2019-05-01T13:47:11Z</time>
      </trkpt>
      <trkpt lat="43.37046" lon="5.4341">
        <ele>300.07</ele>
        <time>2019-05-01T13:47:17Z</time>
      </trkpt>
      <trkpt lat="43.37033" lon="5.43409">
        <ele>302.47</ele>
        <time>2019-05-01T13:47:31Z</time>
      </trkpt>
      <trkpt lat="43.37023" lon="5.43409">
        <ele>304.88</ele>
        <time>2019-05-01T13:47:44Z</time>
      </trkpt>
      <trkpt lat="43.37012" lon="5.43409">
        <ele>306.8</ele>
        <time>2019-05-01T13:47:55Z</time>
      </trkpt>
      <trkpt lat="43.37002" lon="5.43409">
        <ele>307.28</ele>
        <time>2019-05-01T13:48:08Z</time>
      </trkpt>
      <trkpt lat="43.36989" lon="5.43412">
        <ele>308.72</ele>
        <time>2019-05-01T13:48:22Z</time>
      </trkpt>
      <trkpt lat="43.36983" lon="5.43414">
        <ele>309.2</ele>
        <time>2019-05-01T13:48:28Z</time>
      </trkpt>
      <trkpt lat="43.36973" lon="5.43424">
        <ele>308.72</ele>
        <time>2019-05-01T13:48:41Z</time>
      </trkpt>
      <trkpt lat="43.36961" lon="5.43433">
        <ele>306.8</ele>
        <time>2019-05-01T13:48:56Z</time>
      </trkpt>
      <trkpt lat="43.3695" lon="5.43445">
        <ele>304.88</ele>
        <time>2019-05-01T13:49:11Z</time>
      </trkpt>
      <trkpt lat="43.36943" lon="5.43457">
        <ele>302.95</ele>
        <time>2019-05-01T13:49:25Z</time>
      </trkpt>
      <trkpt lat="43.36941" lon="5.43463">
        <ele>302.47</ele>
        <time>2019-05-01T13:49:40Z</time>
      </trkpt>
      <trkpt lat="43.36941" lon="5.43465">
        <ele>302.47</ele>
        <time>2019-05-01T13:49:41Z</time>
      </trkpt>
      <trkpt lat="43.36941" lon="5.43467">
        <ele>302.47</ele>
        <time>2019-05-01T13:49:42Z</time>
      </trkpt>
      <trkpt lat="43.36936" lon="5.43477">
        <ele>301.51</ele>
        <time>2019-05-01T13:49:51Z</time>
      </trkpt>
      <trkpt lat="43.36932" lon="5.43483">
        <ele>300.55</ele>
        <time>2019-05-01T13:49:57Z</time>
      </trkpt>
      <trkpt lat="43.36928" lon="5.43498">
        <ele>297.67</ele>
        <time>2019-05-01T13:50:10Z</time>
      </trkpt>
      <trkpt lat="43.36927" lon="5.43507">
        <ele>296.7</ele>
        <time>2019-05-01T13:50:17Z</time>
      </trkpt>
      <trkpt lat="43.36927" lon="5.43509">
        <ele>296.7</ele>
        <time>2019-05-01T13:50:18Z</time>
      </trkpt>
      <trkpt lat="43.36926" lon="5.4352">
        <ele>295.74</ele>
        <time>2019-05-01T13:50:28Z</time>
      </trkpt>
      <trkpt lat="43.36926" lon="5.43522">
        <ele>295.74</ele>
        <time>2019-05-01T13:50:30Z</time>
      </trkpt>
      <trkpt lat="43.36924" lon="5.43536">
        <ele>293.82</ele>
        <time>2019-05-01T13:50:42Z</time>
      </trkpt>
      <trkpt lat="43.36919" lon="5.43556">
        <ele>290.46</ele>
        <time>2019-05-01T13:50:59Z</time>
      </trkpt>
      <trkpt lat="43.36916" lon="5.43561">
        <ele>291.42</ele>
        <time>2019-05-01T13:51:05Z</time>
      </trkpt>
      <trkpt lat="43.36916" lon="5.43562">
        <ele>291.9</ele>
        <time>2019-05-01T13:51:06Z</time>
      </trkpt>
      <trkpt lat="43.36915" lon="5.43565">
        <ele>291.9</ele>
        <time>2019-05-01T13:51:08Z</time>
      </trkpt>
      <trkpt lat="43.36909" lon="5.43578">
        <ele>291.42</ele>
        <time>2019-05-01T13:51:19Z</time>
      </trkpt>
      <trkpt lat="43.36905" lon="5.43586">
        <ele>291.42</ele>
        <time>2019-05-01T13:51:28Z</time>
      </trkpt>
      <trkpt lat="43.36897" lon="5.43598">
        <ele>289.97</ele>
        <time>2019-05-01T13:51:41Z</time>
      </trkpt>
      <trkpt lat="43.36887" lon="5.43607">
        <ele>287.57</ele>
        <time>2019-05-01T13:51:55Z</time>
      </trkpt>
      <trkpt lat="43.36885" lon="5.4361">
        <ele>288.53</ele>
        <time>2019-05-01T13:52:08Z</time>
      </trkpt>
      <trkpt lat="43.3688" lon="5.43616">
        <ele>287.57</ele>
        <time>2019-05-01T13:52:28Z</time>
      </trkpt>
      <trkpt lat="43.36879" lon="5.43617">
        <ele>287.57</ele>
        <time>2019-05-01T13:52:30Z</time>
      </trkpt>
      <trkpt lat="43.36872" lon="5.43621">
        <ele>284.69</ele>
        <time>2019-05-01T13:52:40Z</time>
      </trkpt>
      <trkpt lat="43.36866" lon="5.43625">
        <ele>282.28</ele>
        <time>2019-05-01T13:52:49Z</time>
      </trkpt>
      <trkpt lat="43.36856" lon="5.43631">
        <ele>280.84</ele>
        <time>2019-05-01T13:53:02Z</time>
      </trkpt>
      <trkpt lat="43.36846" lon="5.43634">
        <ele>280.36</ele>
        <time>2019-05-01T13:53:16Z</time>
      </trkpt>
      <trkpt lat="43.36838" lon="5.43637">
        <ele>279.88</ele>
        <time>2019-05-01T13:53:25Z</time>
      </trkpt>
      <trkpt lat="43.36835" lon="5.43639">
        <ele>279.4</ele>
        <time>2019-05-01T13:53:29Z</time>
      </trkpt>
      <trkpt lat="43.36833" lon="5.4364">
        <ele>278.92</ele>
        <time>2019-05-01T13:53:30Z</time>
      </trkpt>
      <trkpt lat="43.36823" lon="5.43646">
        <ele>279.4</ele>
        <time>2019-05-01T13:53:46Z</time>
      </trkpt>
      <trkpt lat="43.36811" lon="5.43649">
        <ele>279.88</ele>
        <time>2019-05-01T13:54:01Z</time>
      </trkpt>
      <trkpt lat="43.36802" lon="5.43653">
        <ele>279.4</ele>
        <time>2019-05-01T13:54:14Z</time>
      </trkpt>
      <trkpt lat="43.3679" lon="5.4366">
        <ele>278.92</ele>
        <time>2019-05-01T13:54:27Z</time>
      </trkpt>
      <trkpt lat="43.36776" lon="5.43669">
        <ele>277.96</ele>
        <time>2019-05-01T13:54:43Z</time>
      </trkpt>
      <trkpt lat="43.36773" lon="5.43671">
        <ele>277.48</ele>
        <time>2019-05-01T13:54:48Z</time>
      </trkpt>
      <trkpt lat="43.3676" lon="5.43681">
        <ele>276.52</ele>
        <time>2019-05-01T13:55:04Z</time>
      </trkpt>
      <trkpt lat="43.36748" lon="5.4369">
        <ele>274.11</ele>
        <time>2019-05-01T13:55:18Z</time>
      </trkpt>
      <trkpt lat="43.36741" lon="5.43694">
        <ele>273.63</ele>
        <time>2019-05-01T13:55:28Z</time>
      </trkpt>
      <trkpt lat="43.36729" lon="5.43701">
        <ele>272.19</ele>
        <time>2019-05-01T13:55:42Z</time>
      </trkpt>
      <trkpt lat="43.36719" lon="5.43709">
        <ele>270.27</ele>
        <time>2019-05-01T13:55:55Z</time>
      </trkpt>
      <trkpt lat="43.36714" lon="5.43713">
        <ele>269.79</ele>
        <time>2019-05-01T13:56:02Z</time>
      </trkpt>
      <trkpt lat="43.36705" lon="5.43721">
        <ele>269.31</ele>
        <time>2019-05-01T13:56:15Z</time>
      </trkpt>
      <trkpt lat="43.36693" lon="5.43725">
        <ele>268.35</ele>
        <time>2019-05-01T13:56:28Z</time>
      </trkpt>
      <trkpt lat="43.36683" lon="5.43728">
        <ele>267.86</ele>
        <time>2019-05-01T13:56:40Z</time>
      </trkpt>
      <trkpt lat="43.3667" lon="5.43733">
        <ele>266.9</ele>
        <time>2019-05-01T13:56:56Z</time>
      </trkpt>
      <trkpt lat="43.36658" lon="5.43739">
        <ele>265.46</ele>
        <time>2019-05-01T13:57:09Z</time>
      </trkpt>
      <trkpt lat="43.36647" lon="5.43743">
        <ele>265.94</ele>
        <time>2019-05-01T13:57:22Z</time>
      </trkpt>
      <trkpt lat="43.36633" lon="5.43744">
        <ele>265.46</ele>
        <time>2019-05-01T13:57:39Z</time>
      </trkpt>
      <trkpt lat="43.36627" lon="5.43744">
        <ele>263.54</ele>
        <time>2019-05-01T13:57:55Z</time>
      </trkpt>
      <trkpt lat="43.36627" lon="5.43743">
        <ele>263.06</ele>
        <time>2019-05-01T13:58:21Z</time>
      </trkpt>
      <trkpt lat="43.36631" lon="5.43744">
        <ele>263.06</ele>
        <time>2019-05-01T13:58:34Z</time>
      </trkpt>
      <trkpt lat="43.3663" lon="5.43743">
        <ele>262.1</ele>
        <time>2019-05-01T13:59:00Z</time>
      </trkpt>
      <trkpt lat="43.3663" lon="5.43745">
        <ele>261.62</ele>
        <time>2019-05-01T13:59:10Z</time>
      </trkpt>
      <trkpt lat="43.3663" lon="5.43745">
        <ele>263.54</ele>
        <time>2019-05-01T13:59:34Z</time>
      </trkpt>
      <trkpt lat="43.36621" lon="5.43748">
        <ele>261.62</ele>
        <time>2019-05-01T13:59:49Z</time>
      </trkpt>
      <trkpt lat="43.36614" lon="5.43749">
        <ele>261.14</ele>
        <time>2019-05-01T13:59:57Z</time>
      </trkpt>
      <trkpt lat="43.36613" lon="5.43749">
        <ele>261.14</ele>
        <time>2019-05-01T13:59:58Z</time>
      </trkpt>
      <trkpt lat="43.36601" lon="5.43755">
        <ele>259.69</ele>
        <time>2019-05-01T14:00:14Z</time>
      </trkpt>
      <trkpt lat="43.36593" lon="5.43757">
        <ele>258.73</ele>
        <time>2019-05-01T14:00:28Z</time>
      </trkpt>
      <trkpt lat="43.36592" lon="5.43756">
        <ele>258.73</ele>
        <time>2019-05-01T14:00:29Z</time>
      </trkpt>
      <trkpt lat="43.36591" lon="5.43756">
        <ele>258.73</ele>
        <time>2019-05-01T14:00:30Z</time>
      </trkpt>
      <trkpt lat="43.36583" lon="5.43748">
        <ele>257.77</ele>
        <time>2019-05-01T14:00:42Z</time>
      </trkpt>
      <trkpt lat="43.36579" lon="5.43737">
        <ele>257.29</ele>
        <time>2019-05-01T14:00:51Z</time>
      </trkpt>
      <trkpt lat="43.36571" lon="5.43727">
        <ele>255.37</ele>
        <time>2019-05-01T14:01:05Z</time>
      </trkpt>
      <trkpt lat="43.36569" lon="5.43725">
        <ele>254.89</ele>
        <time>2019-05-01T14:01:16Z</time>
      </trkpt>
      <trkpt lat="43.36565" lon="5.43724">
        <ele>254.89</ele>
        <time>2019-05-01T14:01:22Z</time>
      </trkpt>
      <trkpt lat="43.36564" lon="5.43727">
        <ele>254.41</ele>
        <time>2019-05-01T14:01:24Z</time>
      </trkpt>
      <trkpt lat="43.36564" lon="5.43729">
        <ele>254.41</ele>
        <time>2019-05-01T14:01:25Z</time>
      </trkpt>
      <trkpt lat="43.36564" lon="5.43731">
        <ele>253.93</ele>
        <time>2019-05-01T14:01:26Z</time>
      </trkpt>
      <trkpt lat="43.36564" lon="5.43733">
        <ele>253.93</ele>
        <time>2019-05-01T14:01:27Z</time>
      </trkpt>
      <trkpt lat="43.36567" lon="5.43746">
        <ele>252.48</ele>
        <time>2019-05-01T14:01:41Z</time>
      </trkpt>
      <trkpt lat="43.36571" lon="5.43753">
        <ele>252.48</ele>
        <time>2019-05-01T14:01:48Z</time>
      </trkpt>
      <trkpt lat="43.36575" lon="5.43763">
        <ele>253.44</ele>
        <time>2019-05-01T14:01:58Z</time>
      </trkpt>
      <trkpt lat="43.36578" lon="5.43777">
        <ele>257.29</ele>
        <time>2019-05-01T14:02:11Z</time>
      </trkpt>
      <trkpt lat="43.36581" lon="5.43781">
        <ele>255.37</ele>
        <time>2019-05-01T14:02:20Z</time>
      </trkpt>
      <trkpt lat="43.36582" lon="5.43797">
        <ele>254.89</ele>
        <time>2019-05-01T14:02:32Z</time>
      </trkpt>
      <trkpt lat="43.36587" lon="5.4381">
        <ele>255.37</ele>
        <time>2019-05-01T14:02:45Z</time>
      </trkpt>
      <trkpt lat="43.36591" lon="5.43822">
        <ele>255.37</ele>
        <time>2019-05-01T14:02:57Z</time>
      </trkpt>
      <trkpt lat="43.36591" lon="5.43823">
        <ele>254.89</ele>
        <time>2019-05-01T14:02:58Z</time>
      </trkpt>
      <trkpt lat="43.36594" lon="5.43839">
        <ele>253.93</ele>
        <time>2019-05-01T14:03:12Z</time>
      </trkpt>
      <trkpt lat="43.36594" lon="5.43842">
        <ele>254.41</ele>
        <time>2019-05-01T14:03:14Z</time>
      </trkpt>
      <trkpt lat="43.36594" lon="5.43855">
        <ele>254.89</ele>
        <time>2019-05-01T14:03:25Z</time>
      </trkpt>
      <trkpt lat="43.36594" lon="5.43862">
        <ele>254.89</ele>
        <time>2019-05-01T14:03:31Z</time>
      </trkpt>
      <trkpt lat="43.36594" lon="5.43878">
        <ele>253.44</ele>
        <time>2019-05-01T14:03:43Z</time>
      </trkpt>
      <trkpt lat="43.36596" lon="5.43896">
        <ele>253.93</ele>
        <time>2019-05-01T14:03:56Z</time>
      </trkpt>
      <trkpt lat="43.36595" lon="5.43909">
        <ele>254.41</ele>
        <time>2019-05-01T14:04:07Z</time>
      </trkpt>
      <trkpt lat="43.36596" lon="5.43912">
        <ele>253.44</ele>
        <time>2019-05-01T14:04:10Z</time>
      </trkpt>
      <trkpt lat="43.36594" lon="5.43929">
        <ele>252.48</ele>
        <time>2019-05-01T14:04:24Z</time>
      </trkpt>
      <trkpt lat="43.36594" lon="5.43932">
        <ele>252.48</ele>
        <time>2019-05-01T14:04:26Z</time>
      </trkpt>
      <trkpt lat="43.36594" lon="5.43933">
        <ele>252.48</ele>
        <time>2019-05-01T14:04:27Z</time>
      </trkpt>
      <trkpt lat="43.36592" lon="5.43948">
        <ele>251.52</ele>
        <time>2019-05-01T14:04:39Z</time>
      </trkpt>
      <trkpt lat="43.36593" lon="5.4395">
        <ele>251.04</ele>
        <time>2019-05-01T14:04:41Z</time>
      </trkpt>
      <trkpt lat="43.36594" lon="5.43959">
        <ele>251.04</ele>
        <time>2019-05-01T14:04:49Z</time>
      </trkpt>
      <trkpt lat="43.36592" lon="5.43968">
        <ele>252.48</ele>
        <time>2019-05-01T14:04:59Z</time>
      </trkpt>
      <trkpt lat="43.36589" lon="5.4398">
        <ele>253.44</ele>
        <time>2019-05-01T14:05:10Z</time>
      </trkpt>
      <trkpt lat="43.3659" lon="5.4399">
        <ele>254.89</ele>
        <time>2019-05-01T14:05:19Z</time>
      </trkpt>
      <trkpt lat="43.36588" lon="5.44002">
        <ele>258.25</ele>
        <time>2019-05-01T14:05:27Z</time>
      </trkpt>
      <trkpt lat="43.36588" lon="5.44003">
        <ele>258.73</ele>
        <time>2019-05-01T14:05:28Z</time>
      </trkpt>
      <trkpt lat="43.36582" lon="5.44017">
        <ele>261.62</ele>
        <time>2019-05-01T14:05:40Z</time>
      </trkpt>
      <trkpt lat="43.36578" lon="5.44022">
        <ele>262.58</ele>
        <time>2019-05-01T14:05:46Z</time>
      </trkpt>
      <trkpt lat="43.3657" lon="5.44034">
        <ele>264.5</ele>
        <time>2019-05-01T14:05:59Z</time>
      </trkpt>
      <trkpt lat="43.3656" lon="5.44048">
        <ele>265.94</ele>
        <time>2019-05-01T14:06:13Z</time>
      </trkpt>
      <trkpt lat="43.36553" lon="5.44061">
        <ele>266.42</ele>
        <time>2019-05-01T14:06:26Z</time>
      </trkpt>
      <trkpt lat="43.36543" lon="5.44075">
        <ele>265.94</ele>
        <time>2019-05-01T14:06:41Z</time>
      </trkpt>
      <trkpt lat="43.36533" lon="5.44087">
        <ele>264.02</ele>
        <time>2019-05-01T14:06:54Z</time>
      </trkpt>
      <trkpt lat="43.36531" lon="5.44089">
        <ele>264.02</ele>
        <time>2019-05-01T14:06:57Z</time>
      </trkpt>
      <trkpt lat="43.36523" lon="5.44102">
        <ele>263.54</ele>
        <time>2019-05-01T14:07:10Z</time>
      </trkpt>
      <trkpt lat="43.36517" lon="5.44111">
        <ele>263.06</ele>
        <time>2019-05-01T14:07:18Z</time>
      </trkpt>
      <trkpt lat="43.36516" lon="5.44112">
        <ele>263.54</ele>
        <time>2019-05-01T14:07:19Z</time>
      </trkpt>
      <trkpt lat="43.36514" lon="5.44114">
        <ele>264.02</ele>
        <time>2019-05-01T14:07:21Z</time>
      </trkpt>
      <trkpt lat="43.36513" lon="5.44115">
        <ele>264.5</ele>
        <time>2019-05-01T14:07:22Z</time>
      </trkpt>
      <trkpt lat="43.36512" lon="5.44116">
        <ele>264.5</ele>
        <time>2019-05-01T14:07:23Z</time>
      </trkpt>
      <trkpt lat="43.36512" lon="5.44117">
        <ele>264.5</ele>
        <time>2019-05-01T14:07:24Z</time>
      </trkpt>
      <trkpt lat="43.36504" lon="5.4413">
        <ele>266.42</ele>
        <time>2019-05-01T14:07:37Z</time>
      </trkpt>
      <trkpt lat="43.36502" lon="5.44132">
        <ele>266.9</ele>
        <time>2019-05-01T14:07:39Z</time>
      </trkpt>
      <trkpt lat="43.365" lon="5.44134">
        <ele>266.9</ele>
        <time>2019-05-01T14:07:41Z</time>
      </trkpt>
      <trkpt lat="43.365" lon="5.44136">
        <ele>266.9</ele>
        <time>2019-05-01T14:07:42Z</time>
      </trkpt>
      <trkpt lat="43.36489" lon="5.44148">
        <ele>265.46</ele>
        <time>2019-05-01T14:07:55Z</time>
      </trkpt>
      <trkpt lat="43.36482" lon="5.44156">
        <ele>264.5</ele>
        <time>2019-05-01T14:08:07Z</time>
      </trkpt>
      <trkpt lat="43.36483" lon="5.44156">
        <ele>264.02</ele>
        <time>2019-05-01T14:08:08Z</time>
      </trkpt>
      <trkpt lat="43.36481" lon="5.44155">
        <ele>263.06</ele>
        <time>2019-05-01T14:08:17Z</time>
      </trkpt>
      <trkpt lat="43.36477" lon="5.44158">
        <ele>262.58</ele>
        <time>2019-05-01T14:08:31Z</time>
      </trkpt>
      <trkpt lat="43.36475" lon="5.44159">
        <ele>261.14</ele>
        <time>2019-05-01T14:08:40Z</time>
      </trkpt>
      <trkpt lat="43.36474" lon="5.44158">
        <ele>260.65</ele>
        <time>2019-05-01T14:08:41Z</time>
      </trkpt>
      <trkpt lat="43.36473" lon="5.44157">
        <ele>260.17</ele>
        <time>2019-05-01T14:08:42Z</time>
      </trkpt>
      <trkpt lat="43.36472" lon="5.44156">
        <ele>259.69</ele>
        <time>2019-05-01T14:08:43Z</time>
      </trkpt>
      <trkpt lat="43.36471" lon="5.44154">
        <ele>259.21</ele>
        <time>2019-05-01T14:08:44Z</time>
      </trkpt>
      <trkpt lat="43.36469" lon="5.44152">
        <ele>258.73</ele>
        <time>2019-05-01T14:08:46Z</time>
      </trkpt>
      <trkpt lat="43.36468" lon="5.44152">
        <ele>258.25</ele>
        <time>2019-05-01T14:08:47Z</time>
      </trkpt>
      <trkpt lat="43.36466" lon="5.4415">
        <ele>258.25</ele>
        <time>2019-05-01T14:08:48Z</time>
      </trkpt>
      <trkpt lat="43.36464" lon="5.44149">
        <ele>258.25</ele>
        <time>2019-05-01T14:08:49Z</time>
      </trkpt>
      <trkpt lat="43.36463" lon="5.44149">
        <ele>257.77</ele>
        <time>2019-05-01T14:08:50Z</time>
      </trkpt>
      <trkpt lat="43.36455" lon="5.44144">
        <ele>257.29</ele>
        <time>2019-05-01T14:08:58Z</time>
      </trkpt>
      <trkpt lat="43.36454" lon="5.44143">
        <ele>256.81</ele>
        <time>2019-05-01T14:08:59Z</time>
      </trkpt>
      <trkpt lat="43.36442" lon="5.44134">
        <ele>256.33</ele>
        <time>2019-05-01T14:09:11Z</time>
      </trkpt>
      <trkpt lat="43.36429" lon="5.44123">
        <ele>255.85</ele>
        <time>2019-05-01T14:09:26Z</time>
      </trkpt>
      <trkpt lat="43.36419" lon="5.44116">
        <ele>255.37</ele>
        <time>2019-05-01T14:09:39Z</time>
      </trkpt>
      <trkpt lat="43.3642" lon="5.44111">
        <ele>254.41</ele>
        <time>2019-05-01T14:09:51Z</time>
      </trkpt>
      <trkpt lat="43.36418" lon="5.44109">
        <ele>252</ele>
        <time>2019-05-01T14:10:01Z</time>
      </trkpt>
      <trkpt lat="43.36414" lon="5.44106">
        <ele>251.04</ele>
        <time>2019-05-01T14:10:07Z</time>
      </trkpt>
      <trkpt lat="43.36408" lon="5.441">
        <ele>252.48</ele>
        <time>2019-05-01T14:10:22Z</time>
      </trkpt>
      <trkpt lat="43.36408" lon="5.44094">
        <ele>252.96</ele>
        <time>2019-05-01T14:10:40Z</time>
      </trkpt>
      <trkpt lat="43.3641" lon="5.44085">
        <ele>250.08</ele>
        <time>2019-05-01T14:10:56Z</time>
      </trkpt>
      <trkpt lat="43.36407" lon="5.44089">
        <ele>251.04</ele>
        <time>2019-05-01T14:11:06Z</time>
      </trkpt>
      <trkpt lat="43.36401" lon="5.44094">
        <ele>252.48</ele>
        <time>2019-05-01T14:11:19Z</time>
      </trkpt>
      <trkpt lat="43.3639" lon="5.44092">
        <ele>253.44</ele>
        <time>2019-05-01T14:11:32Z</time>
      </trkpt>
      <trkpt lat="43.36388" lon="5.44092">
        <ele>253.44</ele>
        <time>2019-05-01T14:11:34Z</time>
      </trkpt>
      <trkpt lat="43.36384" lon="5.44095">
        <ele>253.44</ele>
        <time>2019-05-01T14:11:46Z</time>
      </trkpt>
      <trkpt lat="43.36383" lon="5.44091">
        <ele>254.41</ele>
        <time>2019-05-01T14:12:02Z</time>
      </trkpt>
      <trkpt lat="43.3638" lon="5.44094">
        <ele>253.93</ele>
        <time>2019-05-01T14:12:15Z</time>
      </trkpt>
      <trkpt lat="43.36379" lon="5.44094">
        <ele>254.89</ele>
        <time>2019-05-01T14:12:31Z</time>
      </trkpt>
    </trkseg>
  </trk>
</gpx>